Provisional Data: North Branch Muddy Creek near Muddy Creek Forks, PA


Please select a monitoring station.
Please select start date.
Please select start date.

Toggle Unit: C/F Toggle Unit: C/F
Sample Time Temperature (C) Temperature (F) Specific Conductivity (mS/cm) pH   Turbidity (NTU+) DO (mg/L)
1/12/2021 12:00:00 AM 2.6 36.68 0.168 7.28 2.45 13.33
1/12/2021 12:15:00 AM 2.57 36.626 0.168 7.21 1.02 13.32
1/12/2021 12:30:00 AM 2.55 36.59 0.168 7.26 1.19 13.35
1/12/2021 12:45:00 AM 2.52 36.536 0.168 7.24 1.03 13.35
1/12/2021 1:00:00 AM 2.49 36.482 0.168 7.23 0.94 13.37
1/12/2021 1:15:00 AM 2.46 36.428 0.168 7.25 1.69 13.38
1/12/2021 1:30:00 AM 2.44 36.392 0.168 7.24 1.75 13.38
1/12/2021 1:45:00 AM 2.4 36.32 0.168 7.25 3.18 13.4
1/12/2021 2:00:00 AM 2.37 36.266 0.168 7.26 2.56 13.41
1/12/2021 2:15:00 AM 2.34 36.212 0.168 7.27 2.05 13.42
1/12/2021 2:30:00 AM 2.29 36.122 0.168 7.21 1.39 13.43
1/12/2021 2:45:00 AM 2.26 36.068 0.168 7.23 2.26 13.46
1/12/2021 3:00:00 AM 2.22 35.996 0.168 7.25 1.89 13.48
1/12/2021 3:15:00 AM 2.19 35.942 0.168 7.24 1.5 13.47
1/12/2021 3:30:00 AM 2.14 35.852 0.168 7.22 1.24 13.5
1/12/2021 3:45:00 AM 2.11 35.798 0.168 7.25 1.98 13.51
1/12/2021 4:00:00 AM 2.07 35.726 0.169 7.22 1.39 13.52
1/12/2021 4:15:00 AM 2.02 35.636 0.169 7.23 2.03 13.55
1/12/2021 4:30:00 AM 1.99 35.582 0.169 7.22 1.29 13.56
1/12/2021 4:45:00 AM 1.95 35.51 0.169 7.25 0.92 13.58
1/12/2021 5:00:00 AM 1.9 35.42 0.169 7.24 1.75 13.61
1/12/2021 5:15:00 AM 1.86 35.348 0.169 7.25 0.83 13.62
1/12/2021 5:30:00 AM 1.83 35.294 0.169 7.25 0.67 13.64
1/12/2021 5:45:00 AM 1.78 35.204 0.169 7.22 1.2 13.64
1/12/2021 6:00:00 AM 1.74 35.132 0.169 7.25 2.27 13.67
1/12/2021 6:15:00 AM 1.7 35.06 0.169 7.25 2.5 13.69
1/12/2021 6:30:00 AM 1.66 34.988 0.169 7.24 3.1 13.71
1/12/2021 6:45:00 AM 1.61 34.898 0.169 7.25 2.21 13.73
1/12/2021 7:00:00 AM 1.57 34.826 0.169 7.24 1.63 13.75
1/12/2021 7:15:00 AM 1.52 34.736 0.169 7.24 1.95 13.77
1/12/2021 7:30:00 AM 1.48 34.664 0.169 7.22 2.86 13.77
1/12/2021 7:45:00 AM 1.43 34.574 0.169 7.22 1.9 13.81
1/12/2021 8:00:00 AM 1.39 34.502 0.169 7.21 1.11 13.85
1/12/2021 8:15:00 AM 1.35 34.43 0.169 7.23 1.64 13.88
1/12/2021 8:30:00 AM 1.32 34.376 0.169 7.2 1.17 13.93
1/12/2021 8:45:00 AM 1.3 34.34 0.169 7.21 1.63 13.97
1/12/2021 9:00:00 AM 1.28 34.304 0.169 7.25 2.2 14
1/12/2021 9:15:00 AM 1.27 34.286 0.169 7.22 0.8 14.03
1/12/2021 9:30:00 AM 1.26 34.268 0.169 7.22 0.99 14.05
1/12/2021 9:45:00 AM 1.26 34.268 0.169 7.24 0.93 14.09
1/12/2021 10:00:00 AM 1.28 34.304 0.169 7.25 1.95 14.13
1/12/2021 10:15:00 AM 1.32 34.376 0.169 7.24 0.93 14.16
1/12/2021 10:30:00 AM 1.38 34.484 0.169 7.22 1.37 14.16
1/12/2021 10:45:00 AM 1.46 34.628 0.169 7.2 0.97 14.18
1/12/2021 11:00:00 AM 1.57 34.826 0.169 7.23 1.92 14.17
1/12/2021 11:15:00 AM 1.71 35.078 0.169 7.25 0.94 14.18
1/12/2021 11:30:00 AM 1.85 35.33 0.169 7.25 1.62 14.2
1/12/2021 11:45:00 AM 1.99 35.582 0.169 7.24 1.95 14.18
1/12/2021 12:00:00 PM 2.12 35.816 0.168 7.22 1.02 14.17
1/12/2021 12:15:00 PM 2.24 36.032 0.168 7.25 1.01 14.14
1/12/2021 12:30:00 PM 2.38 36.284 0.168 7.25 0.89 14.12
1/12/2021 12:45:00 PM 2.51 36.518 0.168 7.25 1.15 14.09
1/12/2021 1:00:00 PM 2.68 36.824 0.168 7.26 1.3 14.05
1/12/2021 1:15:00 PM 2.8 37.04 0.168 7.24 0.95 14.03
1/12/2021 1:30:00 PM 2.93 37.274 0.168 7.24 0.75 14
1/12/2021 1:45:00 PM 3 37.4 0.168 7.25 0.72 13.95
1/12/2021 2:00:00 PM 3.07 37.526 0.168 7.22 1.17 13.94
1/12/2021 2:15:00 PM 3.09 37.562 0.168 7.25 1.43 13.94
1/12/2021 2:30:00 PM 3.09 37.562 0.168 7.27 1.12 13.89
1/12/2021 2:45:00 PM 3.09 37.562 0.168 7.25 1.28 13.84
1/12/2021 3:00:00 PM 3.09 37.562 0.168 7.21 1.37 13.84
1/12/2021 3:15:00 PM 3.06 37.508 0.168 7.26 1.34 13.81
1/12/2021 3:30:00 PM 3.02 37.436 0.168 7.26 0.67 13.78
1/12/2021 3:45:00 PM 2.98 37.364 0.168 7.28 0.85 13.76
1/12/2021 4:00:00 PM 2.94 37.292 0.168 7.28 0.93 13.74
1/12/2021 4:15:00 PM 2.9 37.22 0.168 7.29 0.71 13.73
1/12/2021 4:30:00 PM 2.86 37.148 0.168 7.24 1.45 13.72
1/12/2021 4:45:00 PM 2.81 37.058 0.168 7.29 1.26 13.69
1/12/2021 5:00:00 PM 2.77 36.986 0.168 7.27 0.83 13.67
1/12/2021 5:15:00 PM 2.73 36.914 0.168 7.29 0.98 13.65
1/12/2021 5:30:00 PM 2.69 36.842 0.168 7.27 0.87 13.61
1/12/2021 5:45:00 PM 2.65 36.77 0.168 7.28 0.64 13.58
1/12/2021 6:00:00 PM 2.62 36.716 0.168 7.29 1 13.58
1/12/2021 6:15:00 PM 2.59 36.662 0.168 7.3 0.66 13.55
1/12/2021 6:30:00 PM 2.56 36.608 0.168 7.27 0.81 13.54
1/12/2021 6:45:00 PM 2.53 36.554 0.168 7.29 0.86 13.53
1/12/2021 7:00:00 PM 2.51 36.518 0.168 7.26 0.6 13.52
1/12/2021 7:15:00 PM 2.48 36.464 0.168 7.26 1.36 13.52
1/12/2021 7:30:00 PM 2.46 36.428 0.168 7.28 2.39 13.51
1/12/2021 7:45:00 PM 2.44 36.392 0.168 7.25 1.65 13.5
1/12/2021 8:00:00 PM 2.42 36.356 0.168 7.28 1 13.5
1/12/2021 8:15:00 PM 2.4 36.32 0.168 7.26 1.04 13.5
1/12/2021 8:30:00 PM 2.38 36.284 0.168 7.27 1.32 13.47
1/12/2021 8:45:00 PM 2.36 36.248 0.168 7.28 1.1 13.48
1/12/2021 9:00:00 PM 2.35 36.23 0.168 7.28 0.81 13.48
1/12/2021 9:15:00 PM 2.33 36.194 0.168 7.27 1.2 13.46
1/12/2021 9:30:00 PM 2.31 36.158 0.168 7.29 5.44 13.47
1/12/2021 9:45:00 PM 2.29 36.122 0.168 7.27 1.58 13.48
1/12/2021 10:00:00 PM 2.28 36.104 0.168 7.28 0.61 13.47
1/12/2021 10:15:00 PM 2.26 36.068 0.168 7.26 1.03 13.48
1/12/2021 10:30:00 PM 2.25 36.05 0.168 7.23 1.27 13.49
1/12/2021 10:45:00 PM 2.24 36.032 0.168 7.23 1.23 13.48
1/12/2021 11:00:00 PM 2.23 36.014 0.168 7.27 1.24 13.48
1/12/2021 11:15:00 PM 2.22 35.996 0.168 7.28 1.52 13.47
1/12/2021 11:30:00 PM 2.2 35.96 0.168 7.25 1.86 13.5
1/12/2021 11:45:00 PM 2.19 35.942 0.168 7.25 2.33 13.48
1/13/2021 12:00:00 AM 2.17 35.906 0.168 7.26 2.13 13.48
1/13/2021 12:15:00 AM 2.16 35.888 0.168 7.27 1.49 13.49
1/13/2021 12:30:00 AM 2.14 35.852 0.168 7.26 0.58 13.51
1/13/2021 12:45:00 AM 2.13 35.834 0.168 7.26 1.11 13.5
1/13/2021 1:00:00 AM 2.1 35.78 0.168 7.24 1.35 13.51
1/13/2021 1:15:00 AM 2.08 35.744 0.168 7.25 0.79 13.52
1/13/2021 1:30:00 AM 2.06 35.708 0.168 7.26 1.19 13.51
1/13/2021 1:45:00 AM 2.04 35.672 0.168 7.26 1.75 13.52
1/13/2021 2:00:00 AM 2.02 35.636 0.168 7.24 1.41 13.52
1/13/2021 2:15:00 AM 1.99 35.582 0.169 7.24 1.22 13.54
1/13/2021 2:30:00 AM 1.97 35.546 0.169 7.24 1.44 13.55
1/13/2021 2:45:00 AM 1.94 35.492 0.169 7.23 1.87 13.56
1/13/2021 3:00:00 AM 1.92 35.456 0.169 7.25 1.91 13.55
1/13/2021 3:15:00 AM 1.89 35.402 0.169 7.25 1.95 13.6
1/13/2021 3:30:00 AM 1.85 35.33 0.169 7.23 1.56 13.61
1/13/2021 3:45:00 AM 1.83 35.294 0.169 7.24 1.12 13.61
1/13/2021 4:00:00 AM 1.79 35.222 0.169 7.24 2.26 13.63
1/13/2021 4:15:00 AM 1.77 35.186 0.169 7.27 1.83 13.65
1/13/2021 4:30:00 AM 1.73 35.114 0.169 7.25 1.77 13.66
1/13/2021 4:45:00 AM 1.7 35.06 0.169 7.21 1.57 13.67
1/13/2021 5:00:00 AM 1.68 35.024 0.169 7.25 1.35 13.67
1/13/2021 5:15:00 AM 1.65 34.97 0.169 7.23 3.08 13.68
1/13/2021 5:30:00 AM 1.63 34.934 0.17 7.25 2.76 13.71
1/13/2021 5:45:00 AM 1.6 34.88 0.169 7.25 2.19 13.73
1/13/2021 6:00:00 AM 1.57 34.826 0.169 7.25 2.45 13.74
1/13/2021 6:15:00 AM 1.54 34.772 0.169 7.23 1.57 13.75
1/13/2021 6:30:00 AM 1.5 34.7 0.17 7.23 1.93 13.75
1/13/2021 6:45:00 AM 1.48 34.664 0.17 7.26 1.7 13.79
1/13/2021 7:00:00 AM 1.44 34.592 0.17 7.25 4.26 13.79
1/13/2021 7:15:00 AM 1.4 34.52 0.17 7.25 1.88 13.81
1/13/2021 7:30:00 AM 1.37 34.466 0.17 7.24 1.37 13.82
1/13/2021 7:45:00 AM 1.35 34.43 0.17 7.25 1.62 13.85
1/13/2021 8:00:00 AM 1.34 34.412 0.17 7.25 0.74 13.86
1/13/2021 8:15:00 AM 1.34 34.412 0.17 7.23 1.19 13.88
1/13/2021 8:30:00 AM 1.35 34.43 0.17 7.22 1.22 13.92
1/13/2021 8:45:00 AM 1.36 34.448 0.17 7.25 1.23 13.97
1/13/2021 9:00:00 AM 1.39 34.502 0.17 7.25 1.19 14.03
1/13/2021 9:15:00 AM 1.44 34.592 0.169 7.23 1.2 14.07
1/13/2021 9:30:00 AM 1.48 34.664 0.169 7.27 0.66 14.08
1/13/2021 9:45:00 AM 1.54 34.772 0.169 7.23 1.17 14.09
1/13/2021 10:00:00 AM 1.61 34.898 0.169 7.26 2 14.12
1/13/2021 10:15:00 AM 1.71 35.078 0.169 7.23 1.01 14.13
1/13/2021 10:30:00 AM 1.81 35.258 0.169 7.22 2.55 14.14
1/13/2021 10:45:00 AM 1.91 35.438 0.169 7.26 0.96 14.12
1/13/2021 11:00:00 AM 2.03 35.654 0.169 7.26 1.03 14.12
1/13/2021 11:15:00 AM 2.15 35.87 0.169 7.26 1.42 14.09
1/13/2021 11:30:00 AM 2.28 36.104 0.169 7.24 1.16 14.09
1/13/2021 11:45:00 AM 2.41 36.338 0.169 7.24 1.05 14.06
1/13/2021 12:00:00 PM 2.51 36.518 0.169 7.24 1.39 14.06
1/13/2021 12:15:00 PM 2.6 36.68 0.168 7.26 0.98 14.01
1/13/2021 12:30:00 PM 2.73 36.914 0.168 7.26 1.12 13.98
1/13/2021 12:45:00 PM 2.87 37.166 0.168 7.26 0.97 13.94
1/13/2021 1:00:00 PM 3.06 37.508 0.168 7.28 1.3 13.9
1/13/2021 1:15:00 PM 3.19 37.742 0.168 7.25 2.13 13.87
1/13/2021 1:30:00 PM 3.33 37.994 0.168 7.26 5.6 13.83
1/13/2021 1:45:00 PM 3.42 38.156 0.168 7.22 1.69 13.78
1/13/2021 2:00:00 PM 3.5 38.3 0.168 7.27 1.06 13.77
1/13/2021 2:15:00 PM 3.51 38.318 0.168 7.26 0.94 13.72
1/13/2021 2:30:00 PM 3.51 38.318 0.168 7.25 0.73 13.7
1/13/2021 2:45:00 PM 3.55 38.39 0.168 7.24 1.05 13.65
1/13/2021 3:00:00 PM 3.57 38.426 0.167 7.27 1.29 13.63
1/13/2021 3:15:00 PM 3.55 38.39 0.168 7.26 0.91 13.6
1/13/2021 3:30:00 PM 3.52 38.336 0.168 7.26 1.59 13.55
1/13/2021 3:45:00 PM 3.5 38.3 0.168 7.3 1.1 13.54
1/13/2021 4:00:00 PM 3.46 38.228 0.168 7.26 0.46 13.5
1/13/2021 4:15:00 PM 3.42 38.156 0.168 7.29 1.26 13.48
1/13/2021 4:30:00 PM 3.39 38.102 0.168 7.31 1.25 13.42
1/13/2021 4:45:00 PM 3.35 38.03 0.168 7.28 0.66 13.42
1/13/2021 5:00:00 PM 3.31 37.958 0.168 7.3 0.99 13.38
1/13/2021 5:15:00 PM 3.28 37.904 0.168 7.29 1.02 13.36
1/13/2021 5:30:00 PM 3.24 37.832 0.168 7.28 1.41 13.33
1/13/2021 5:45:00 PM 3.21 37.778 0.168 7.27 1.4 13.3
1/13/2021 6:00:00 PM 3.17 37.706 0.168 7.29 0.63 13.28
1/13/2021 6:15:00 PM 3.14 37.652 0.168 7.29 1.01 13.27
1/13/2021 6:30:00 PM 3.1 37.58 0.168 7.3 0.89 13.25
1/13/2021 6:45:00 PM 3.08 37.544 0.168 7.3 0.86 13.23
1/13/2021 7:00:00 PM 3.05 37.49 0.168 7.26 0.78 13.21
1/13/2021 7:15:00 PM 3.03 37.454 0.168 7.28 0.57 13.21
1/13/2021 7:30:00 PM 3.01 37.418 0.168 7.28 1.09 13.21
1/13/2021 7:45:00 PM 2.99 37.382 0.168 7.28 0.8 13.19
1/13/2021 8:00:00 PM 2.97 37.346 0.168 7.29 0.64 13.18
1/13/2021 8:15:00 PM 2.95 37.31 0.168 7.28 0.83 13.18
1/13/2021 8:30:00 PM 2.93 37.274 0.168 7.28 2.2 13.17
1/13/2021 8:45:00 PM 2.92 37.256 0.168 7.29 0.95 13.15
1/13/2021 9:00:00 PM 2.89 37.202 0.168 7.26 1 13.16
1/13/2021 9:15:00 PM 2.87 37.166 0.168 7.29 1.55 13.14
1/13/2021 9:30:00 PM 2.85 37.13 0.168 7.28 1.02 13.15
1/13/2021 9:45:00 PM 2.84 37.112 0.168 7.26 1.41 13.14
1/13/2021 10:00:00 PM 2.82 37.076 0.168 7.25 1.29 13.15
1/13/2021 10:15:00 PM 2.8 37.04 0.168 7.27 1.34 13.15
1/13/2021 10:30:00 PM 2.79 37.022 0.168 7.29 1.34 13.16
1/13/2021 10:45:00 PM 2.77 36.986 0.168 7.28 1.21 13.14
1/13/2021 11:00:00 PM 2.75 36.95 0.168 7.29 1.14 13.15
1/13/2021 11:15:00 PM 2.74 36.932 0.168 7.25 0.81 13.16
1/13/2021 11:30:00 PM 2.73 36.914 0.168 7.28 0.93 13.14
1/13/2021 11:45:00 PM 2.71 36.878 0.168 7.24 1.14 13.16
1/14/2021 12:00:00 AM 2.7 36.86 0.168 7.28 1.33 13.16
1/14/2021 12:15:00 AM 2.68 36.824 0.168 7.23 1.8 13.14
1/14/2021 12:30:00 AM 2.67 36.806 0.168 7.25 1.03 13.17
1/14/2021 12:45:00 AM 2.65 36.77 0.167 7.28 1.04 13.18
1/14/2021 1:00:00 AM 2.63 36.734 0.168 7.26 1.57 13.17
1/14/2021 1:15:00 AM 2.62 36.716 0.168 7.25 1.55 13.19
1/14/2021 1:30:00 AM 2.6 36.68 0.168 7.27 1.7 13.19
1/14/2021 1:45:00 AM 2.58 36.644 0.168 7.23 1.53 13.19
1/14/2021 2:00:00 AM 2.56 36.608 0.168 7.23 1.07 13.2
1/14/2021 2:15:00 AM 2.54 36.572 0.168 7.27 1.9 13.21
1/14/2021 2:30:00 AM 2.52 36.536 0.168 7.23 1.52 13.23
1/14/2021 2:45:00 AM 2.49 36.482 0.169 7.27 1.58 13.23
1/14/2021 3:00:00 AM 2.48 36.464 0.169 7.24 1.45 13.24
1/14/2021 3:15:00 AM 2.47 36.446 0.169 7.26 1.35 13.24
1/14/2021 3:30:00 AM 2.45 36.41 0.169 7.24 1.64 13.26
1/14/2021 3:45:00 AM 2.44 36.392 0.169 7.24 2.58 13.25
1/14/2021 4:00:00 AM 2.42 36.356 0.169 7.25 1.56 13.26
1/14/2021 4:15:00 AM 2.4 36.32 0.169 7.23 1.61 13.27
1/14/2021 4:30:00 AM 2.38 36.284 0.169 7.26 1.6 13.29
1/14/2021 4:45:00 AM 2.37 36.266 0.169 7.26 1.64 13.29
1/14/2021 5:00:00 AM 2.36 36.248 0.169 7.22 1.82 13.3
1/14/2021 5:15:00 AM 2.35 36.23 0.169 7.27 2.16 13.31
1/14/2021 5:30:00 AM 2.34 36.212 0.169 7.26 1.84 13.3
1/14/2021 5:45:00 AM 2.34 36.212 0.169 7.26 1.57 13.33
1/14/2021 6:00:00 AM 2.33 36.194 0.169 7.26 3.33 13.31
1/14/2021 6:15:00 AM 2.32 36.176 0.169 7.27 1.64 13.34
1/14/2021 6:30:00 AM 2.3 36.14 0.169 7.26 2.12 13.34
1/14/2021 6:45:00 AM 2.29 36.122 0.169 7.26 2.87 13.34
1/14/2021 7:00:00 AM 2.26 36.068 0.169 7.23 1.78 13.34
1/14/2021 7:15:00 AM 2.24 36.032 0.169 7.25 1.68 13.36
1/14/2021 7:30:00 AM 2.21 35.978 0.169 7.25 1.6 13.37
1/14/2021 7:45:00 AM 2.19 35.942 0.169 7.26 1.98 13.39
1/14/2021 8:00:00 AM 2.18 35.924 0.169 7.26 2.17 13.42
1/14/2021 8:15:00 AM 2.19 35.942 0.169 7.25 1.54 13.47
1/14/2021 8:30:00 AM 2.21 35.978 0.169 7.27 1.48 13.51
1/14/2021 8:45:00 AM 2.24 36.032 0.169 7.23 1.79 13.55
1/14/2021 9:00:00 AM 2.27 36.086 0.169 7.25 1.39 13.56
1/14/2021 9:15:00 AM 2.3 36.14 0.169 7.25 1.53 13.59
1/14/2021 9:30:00 AM 2.34 36.212 0.169 7.27 1.05 13.62
1/14/2021 9:45:00 AM 2.38 36.284 0.169 7.23 0.88 13.64
1/14/2021 10:00:00 AM 2.43 36.374 0.169 7.27 1.36 13.64
1/14/2021 10:15:00 AM 2.51 36.518 0.169 7.26 1.26 13.66
1/14/2021 10:30:00 AM 2.59 36.662 0.169 7.23 2.2 13.68
1/14/2021 10:45:00 AM 2.7 36.86 0.169 7.24 1.04 13.68
1/14/2021 11:00:00 AM 2.8 37.04 0.168 7.24 1.44 13.68
1/14/2021 11:15:00 AM 2.89 37.202 0.168 7.29 0.74 13.66
1/14/2021 11:30:00 AM 3 37.4 0.168 7.26 1.31 13.66
1/14/2021 11:45:00 AM 3.13 37.634 0.168 7.28 1.18 13.64
1/14/2021 12:00:00 PM 3.27 37.886 0.168 7.26 0.99 13.62
1/14/2021 12:15:00 PM 3.42 38.156 0.168 7.24 1.03 13.61
1/14/2021 12:30:00 PM 3.57 38.426 0.168 7.28 1.87 13.59
1/14/2021 12:45:00 PM 3.66 38.588 0.168 7.28 0.94 13.55
1/14/2021 1:00:00 PM 3.73 38.714 0.168 7.28 1.23 13.54
1/14/2021 1:15:00 PM 3.8 38.84 0.168 7.28 1.61 13.52
1/14/2021 1:30:00 PM 3.87 38.966 0.167 7.29 1.22 13.46
1/14/2021 1:45:00 PM 3.97 39.146 0.167 7.28 0.54 13.43
1/14/2021 2:00:00 PM 4.09 39.362 0.167 7.27 1.19 13.39
1/14/2021 2:15:00 PM 4.21 39.578 0.167 7.28 1.14 13.37
1/14/2021 2:30:00 PM 4.32 39.776 0.167 7.28 1.03 13.34
1/14/2021 2:45:00 PM 4.37 39.866 0.167 7.29 0.64 13.32
1/14/2021 3:00:00 PM 4.4 39.92 0.167 7.3 0.69 13.31
1/14/2021 3:15:00 PM 4.41 39.938 0.167 7.3 1.11 13.27
1/14/2021 3:30:00 PM 4.44 39.992 0.167 7.27 1.04 13.24
1/14/2021 3:45:00 PM 4.47 40.046 0.167 7.29 1.59 13.2
1/14/2021 4:00:00 PM 4.49 40.082 0.167 7.26 1.11 13.16
1/14/2021 4:15:00 PM 4.49 40.082 0.167 7.28 1.5 13.12
1/14/2021 4:30:00 PM 4.48 40.064 0.167 7.28 1.18 13.07
1/14/2021 4:45:00 PM 4.47 40.046 0.167 7.3 0.69 13.02
1/14/2021 5:00:00 PM 4.46 40.028 0.167 7.3 1.34 12.96
1/14/2021 5:15:00 PM 4.45 40.01 0.167 7.29 1.18 12.91
1/14/2021 5:30:00 PM 4.44 39.992 0.167 7.27 1.52 12.88
1/14/2021 5:45:00 PM 4.44 39.992 0.167 7.31 0.83 12.84
1/14/2021 6:00:00 PM 4.43 39.974 0.167 7.28 1.01 12.8
1/14/2021 6:15:00 PM 4.41 39.938 0.167 7.3 0.79 12.78
1/14/2021 6:30:00 PM 4.38 39.884 0.167 7.32 0.9 12.75
1/14/2021 6:45:00 PM 4.34 39.812 0.167 7.31 0.77 12.72
1/14/2021 7:00:00 PM 4.31 39.758 0.167 7.32 0.62 12.72
1/14/2021 7:15:00 PM 4.29 39.722 0.167 7.3 1.71 12.71
1/14/2021 7:30:00 PM 4.26 39.668 0.167 7.3 1.02 12.69
1/14/2021 7:45:00 PM 4.24 39.632 0.167 7.32 0.88 12.68
1/14/2021 8:00:00 PM 4.22 39.596 0.167 7.31 1.21 12.66
1/14/2021 8:15:00 PM 4.19 39.542 0.167 7.3 1.12 12.65
1/14/2021 8:30:00 PM 4.17 39.506 0.167 7.28 0.94 12.64
1/14/2021 8:45:00 PM 4.14 39.452 0.167 7.32 1.34 12.63
1/14/2021 9:00:00 PM 4.12 39.416 0.167 7.31 1.82 12.63
1/14/2021 9:15:00 PM 4.1 39.38 0.167 7.32 1.03 12.63
1/14/2021 9:30:00 PM 4.09 39.362 0.167 7.29 1.14 12.64
1/14/2021 9:45:00 PM 4.08 39.344 0.167 7.27 1.22 12.62
1/14/2021 10:00:00 PM 4.07 39.326 0.167 7.31 1.64 12.63
1/14/2021 10:15:00 PM 4.06 39.308 0.167 7.29 1.89 12.62
1/14/2021 10:30:00 PM 4.04 39.272 0.167 7.31 1.3 12.62
1/14/2021 10:45:00 PM 4.02 39.236 0.167 7.3 1.13 12.63
1/14/2021 11:00:00 PM 4.01 39.218 0.167 7.29 1.37 12.63
1/14/2021 11:15:00 PM 3.99 39.182 0.167 7.28 1.26 12.63
1/14/2021 11:30:00 PM 3.97 39.146 0.167 7.3 1.43 12.64
1/14/2021 11:45:00 PM 3.96 39.128 0.167 7.27 1.41 12.64
1/15/2021 12:00:00 AM 3.96 39.128 0.168 7.29 2.53 12.64
1/15/2021 12:15:00 AM 3.94 39.092 0.168 7.25 1.7 12.65
1/15/2021 12:30:00 AM 3.94 39.092 0.168 7.29 1.13 12.65
1/15/2021 12:45:00 AM 3.92 39.056 0.168 7.3 1.57 12.64
1/15/2021 1:00:00 AM 3.9 39.02 0.168 7.28 1.18 12.67
1/15/2021 1:15:00 AM 3.87 38.966 0.168 7.29 0.83 12.68
1/15/2021 1:30:00 AM 3.84 38.912 0.168 7.27 1.11 12.68
1/15/2021 1:45:00 AM 3.82 38.876 0.168 7.27 2.3 12.69
1/15/2021 2:00:00 AM 3.8 38.84 0.168 7.29 1.15 12.7
1/15/2021 2:15:00 AM 3.77 38.786 0.168 7.25 1.75 12.71
1/15/2021 2:30:00 AM 3.74 38.732 0.168 7.27 7.77 12.73
1/15/2021 2:45:00 AM 3.72 38.696 0.168 7.25 1.48 12.74
1/15/2021 3:00:00 AM 3.69 38.642 0.168 7.29 1.61 12.73
1/15/2021 3:15:00 AM 3.66 38.588 0.168 7.28 2.5 12.75
1/15/2021 3:30:00 AM 3.63 38.534 0.168 7.26 2.27 12.77
1/15/2021 3:45:00 AM 3.6 38.48 0.168 7.26 1.79 12.78
1/15/2021 4:00:00 AM 3.58 38.444 0.168 7.27 1.97 12.8
1/15/2021 4:15:00 AM 3.54 38.372 0.168 7.27 1.49 12.81
1/15/2021 4:30:00 AM 3.51 38.318 0.168 7.28 1.75 12.81
1/15/2021 4:45:00 AM 3.48 38.264 0.169 7.27 1.83 12.83
1/15/2021 5:00:00 AM 3.45 38.21 0.168 7.24 3.67 12.84
1/15/2021 5:15:00 AM 3.42 38.156 0.169 7.28 2.98 12.84
1/15/2021 5:30:00 AM 3.38 38.084 0.169 7.27 1.11 12.86
1/15/2021 5:45:00 AM 3.35 38.03 0.169 7.25 2.36 12.88
1/15/2021 6:00:00 AM 3.31 37.958 0.169 7.26 2.62 12.9
1/15/2021 6:15:00 AM 3.28 37.904 0.169 7.28 2.2 12.91
1/15/2021 6:30:00 AM 3.24 37.832 0.169 7.28 2.81 12.92
1/15/2021 6:45:00 AM 3.2 37.76 0.169 7.26 1.76 12.94
1/15/2021 7:00:00 AM 3.17 37.706 0.169 7.27 2.13 12.95
1/15/2021 7:15:00 AM 3.15 37.67 0.169 7.26 2.5 12.96
1/15/2021 7:30:00 AM 3.12 37.616 0.169 7.27 1.42 12.97
1/15/2021 7:45:00 AM 3.1 37.58 0.169 7.28 1.4 12.98
1/15/2021 8:00:00 AM 3.08 37.544 0.169 7.25 1.69 13.02
1/15/2021 8:15:00 AM 3.07 37.526 0.169 7.26 2.11 13.05
1/15/2021 8:30:00 AM 3.06 37.508 0.169 7.27 1.28 13.1
1/15/2021 8:45:00 AM 3.06 37.508 0.169 7.26 1.15 13.13
1/15/2021 9:00:00 AM 3.07 37.526 0.169 7.27 1.74 13.18
1/15/2021 9:15:00 AM 3.09 37.562 0.169 7.26 1.98 13.23
1/15/2021 9:30:00 AM 3.13 37.634 0.169 7.23 0.87 13.28
1/15/2021 9:45:00 AM 3.17 37.706 0.169 7.28 1.82 13.31
1/15/2021 10:00:00 AM 3.21 37.778 0.169 7.27 1.05 13.33
1/15/2021 10:15:00 AM 3.26 37.868 0.169 7.3 1.19 13.34
1/15/2021 10:30:00 AM 3.3 37.94 0.169 7.25 0.85 13.36
1/15/2021 10:45:00 AM 3.34 38.012 0.169 7.27 1.28 13.36
1/15/2021 11:00:00 AM 3.39 38.102 0.169 7.28 0.97 13.36
1/15/2021 11:15:00 AM 3.45 38.21 0.168 7.27 2 13.37
1/15/2021 11:30:00 AM 3.52 38.336 0.168 7.28 1.18 13.38
1/15/2021 11:45:00 AM 3.58 38.444 0.168 7.3 0.7 13.38
1/15/2021 12:00:00 PM 3.67 38.606 0.168 7.28 1.99 13.39
1/15/2021 12:15:00 PM 3.78 38.804 0.168 7.29 1.05 13.39
1/15/2021 12:30:00 PM 3.89 39.002 0.168 7.31 1.62 13.38
1/15/2021 12:45:00 PM 4.02 39.236 0.168 7.28 1.59 13.39
1/15/2021 1:00:00 PM 4.11 39.398 0.168 7.28 1.34 13.38
1/15/2021 1:15:00 PM 4.25 39.65 0.168 7.27 0.83 13.36
1/15/2021 1:30:00 PM 4.37 39.866 0.168 7.3 1.98 13.35
1/15/2021 1:45:00 PM 4.44 39.992 0.168 7.27 1.16 13.31
1/15/2021 2:00:00 PM 4.49 40.082 0.168 7.3 1.53 13.3
1/15/2021 2:15:00 PM 4.54 40.172 0.167 7.31 0.67 13.26
1/15/2021 2:30:00 PM 4.59 40.262 0.167 7.3 0.87 13.21
1/15/2021 2:45:00 PM 4.62 40.316 0.167 7.31 0.89 13.18
1/15/2021 3:00:00 PM 4.65 40.37 0.167 7.32 1.07 13.14
1/15/2021 3:15:00 PM 4.67 40.406 0.167 7.31 0.89 13.1
1/15/2021 3:30:00 PM 4.69 40.442 0.167 7.32 1.74 13.05
1/15/2021 3:45:00 PM 4.7 40.46 0.167 7.32 2.19 13.02
1/15/2021 4:00:00 PM 4.71 40.478 0.167 7.29 1.01 12.97
1/15/2021 4:15:00 PM 4.71 40.478 0.167 7.3 0.85 12.93
1/15/2021 4:30:00 PM 4.71 40.478 0.167 7.3 2.62 12.88
1/15/2021 4:45:00 PM 4.71 40.478 0.167 7.31 0.74 12.85
1/15/2021 5:00:00 PM 4.71 40.478 0.167 7.31 1.22 12.79
1/15/2021 5:15:00 PM 4.71 40.478 0.167 7.29 0.8 12.75
1/15/2021 5:30:00 PM 4.7 40.46 0.167 7.3 0.98 12.73
1/15/2021 5:45:00 PM 4.7 40.46 0.167 7.34 0.68 12.67
1/15/2021 6:00:00 PM 4.7 40.46 0.167 7.33 2.42 12.66
1/15/2021 6:15:00 PM 4.7 40.46 0.167 7.29 66.05 12.61
1/15/2021 6:30:00 PM 4.71 40.478 0.167 7.32 0.96 12.54
1/15/2021 6:45:00 PM 4.72 40.496 0.167 7.32 0.43 12.57
1/15/2021 7:00:00 PM 4.74 40.532 0.167 7.32 0.59 12.56
1/15/2021 7:15:00 PM 4.76 40.568 0.167 7.31 0.63 12.54
1/15/2021 7:30:00 PM 4.78 40.604 0.167 7.31 0.57 12.51
1/15/2021 7:45:00 PM 4.81 40.658 0.167 7.29 1.37 12.47
1/15/2021 8:00:00 PM 4.83 40.694 0.167 7.32 0.79 12.45
1/15/2021 8:15:00 PM 4.85 40.73 0.167 7.27 1.17 12.43
1/15/2021 8:30:00 PM 4.86 40.748 0.166 7.3 2.41 12.41
1/15/2021 8:45:00 PM 4.88 40.784 0.166 7.31 2.44 12.38
1/15/2021 9:00:00 PM 4.91 40.838 0.166 7.31 1.96 12.36
1/15/2021 9:15:00 PM 4.93 40.874 0.166 7.28 1.82 12.36
1/15/2021 9:30:00 PM 4.96 40.928 0.165 7.31 2.06 12.35
1/15/2021 9:45:00 PM 4.98 40.964 0.165 7.3 1.54 12.32
1/15/2021 10:00:00 PM 5.01 41.018 0.165 7.28 1.08 12.3
1/15/2021 10:15:00 PM 5.04 41.072 0.165 7.3 1.71 12.3
1/15/2021 10:30:00 PM 5.07 41.126 0.164 7.3 2.52 12.25
1/15/2021 10:45:00 PM 5.09 41.162 0.164 7.29 2.87 12.25
1/15/2021 11:00:00 PM 5.12 41.216 0.164 7.31 2.07 12.24
1/15/2021 11:15:00 PM 5.14 41.252 0.164 7.28 2.08 12.24
1/15/2021 11:30:00 PM 5.17 41.306 0.164 7.26 2.48 12.22
1/15/2021 11:45:00 PM 5.19 41.342 0.164 7.26 2.57 12.21
1/16/2021 12:00:00 AM 5.22 41.396 0.164 7.24 1.79 12.2
1/16/2021 12:15:00 AM 5.24 41.432 0.164 7.24 3.57 12.18
1/16/2021 12:30:00 AM 5.27 41.486 0.164 7.24 2.59 12.17
1/16/2021 12:45:00 AM 5.29 41.522 0.164 7.25 3.82 12.16
1/16/2021 1:00:00 AM 5.31 41.558 0.164 7.24 2.6 12.15
1/16/2021 1:15:00 AM 5.33 41.594 0.163 7.24 2.27 12.14
1/16/2021 1:30:00 AM 5.35 41.63 0.163 7.25 3.1 12.13
1/16/2021 1:45:00 AM 5.37 41.666 0.163 7.27 2.02 12.12
1/16/2021 2:00:00 AM 5.39 41.702 0.163 7.25 3.13 12.11
1/16/2021 2:15:00 AM 5.41 41.738 0.163 7.26 4.17 12.1
1/16/2021 2:30:00 AM 5.43 41.774 0.163 7.23 2.95 12.09
1/16/2021 2:45:00 AM 5.45 41.81 0.163 7.25 4.36 12.07
1/16/2021 3:00:00 AM 5.46 41.828 0.163 7.23 4.48 12.06
1/16/2021 3:15:00 AM 5.48 41.864 0.164 7.25 3.29 12.06
1/16/2021 3:30:00 AM 5.5 41.9 0.164 7.24 4.58 12.04
1/16/2021 3:45:00 AM 5.52 41.936 0.164 7.25 5.07 12.05
1/16/2021 4:00:00 AM 5.54 41.972 0.164 7.25 4.23 12.04
1/16/2021 4:15:00 AM 5.55 41.99 0.163 7.26 5.4 12.03
1/16/2021 4:30:00 AM 5.57 42.026 0.163 7.23 3.2 12.03
1/16/2021 4:45:00 AM 5.57 42.026 0.163 7.26 9.17 12
1/16/2021 5:00:00 AM 5.58 42.044 0.163 7.26 3.36 12.01
1/16/2021 5:15:00 AM 5.57 42.026 0.163 7.26 2.88 12.01
1/16/2021 5:30:00 AM 5.55 41.99 0.163 7.24 5.41 12
1/16/2021 5:45:00 AM 5.54 41.972 0.164 7.24 2.56 12
1/16/2021 6:00:00 AM 5.52 41.936 0.164 7.26 18.4 11.98
1/16/2021 6:15:00 AM 5.5 41.9 0.164 7.28 6.34 12
1/16/2021 6:30:00 AM 5.46 41.828 0.164 7.26 3.87 11.99
1/16/2021 6:45:00 AM 5.43 41.774 0.164 7.24 3.47 12
1/16/2021 7:00:00 AM 5.4 41.72 0.164 7.24 2.8 12
1/16/2021 7:15:00 AM 5.36 41.648 0.164 7.25 2.98 12.01
1/16/2021 7:30:00 AM 5.32 41.576 0.164 7.28 4.35 12
1/16/2021 7:45:00 AM 5.29 41.522 0.164 7.25 3.44 12.04
1/16/2021 8:00:00 AM 5.25 41.45 0.164 7.23 2.47 12.05
1/16/2021 8:15:00 AM 5.21 41.378 0.164 7.24 2.95 12.08
1/16/2021 8:30:00 AM 5.19 41.342 0.164 7.25 4.04 12.09
1/16/2021 8:45:00 AM 5.16 41.288 0.164 7.27 2.56 12.13
1/16/2021 9:00:00 AM 5.14 41.252 0.164 7.26 5.97 12.14
1/16/2021 9:15:00 AM 5.12 41.216 0.164 7.27 3.9 12.17
1/16/2021 9:30:00 AM 5.1 41.18 0.164 7.26 4.06 12.2
1/16/2021 9:45:00 AM 5.11 41.198 0.164 7.27 4.61 12.24
1/16/2021 10:00:00 AM 5.14 41.252 0.164 7.28 4.23 12.29
1/16/2021 10:15:00 AM 5.18 41.324 0.164 7.28 3.47 12.36
1/16/2021 10:30:00 AM 5.24 41.432 0.164 7.25 3.92 12.4
1/16/2021 10:45:00 AM 5.33 41.594 0.164 7.25 3.25 12.42
1/16/2021 11:00:00 AM 5.39 41.702 0.164 7.26 4.75 12.44
1/16/2021 11:15:00 AM 5.47 41.846 0.164 7.28 3.5 12.47
1/16/2021 11:30:00 AM 5.57 42.026 0.164 7.26 2.71 12.48
1/16/2021 11:45:00 AM 5.66 42.188 0.164 7.27 4.74 12.5
1/16/2021 12:00:00 PM 5.72 42.296 0.164 7.29 4.14 12.51
1/16/2021 12:15:00 PM 5.77 42.386 0.164 7.28 1.8 12.52
1/16/2021 12:30:00 PM 5.87 42.566 0.164 7.29 2.71 12.5
1/16/2021 12:45:00 PM 5.97 42.746 0.164 7.3 2.64 12.51
1/16/2021 1:00:00 PM 6.08 42.944 0.164 7.31 2.7 12.49
1/16/2021 1:15:00 PM 6.21 43.178 0.164 7.3 2.43 12.5
1/16/2021 1:30:00 PM 6.29 43.322 0.164 7.32 2.63 12.47
1/16/2021 1:45:00 PM 6.37 43.466 0.164 7.31 1.87 12.49
1/16/2021 2:00:00 PM 6.38 43.484 0.164 7.32 3.24 12.48
1/16/2021 2:15:00 PM 6.35 43.43 0.164 7.27 2.56 12.46
1/16/2021 2:30:00 PM 6.31 43.358 0.164 7.34 2.31 12.44
1/16/2021 2:45:00 PM 6.31 43.358 0.164 7.33 2.34 12.43
1/16/2021 3:00:00 PM 6.28 43.304 0.164 7.31 2.07 12.43
1/16/2021 3:15:00 PM 6.25 43.25 0.164 7.34 2.11 12.41
1/16/2021 3:30:00 PM 6.22 43.196 0.164 7.34 3.45 12.41
1/16/2021 3:45:00 PM 6.19 43.142 0.165 7.35 5.16 12.39
1/16/2021 4:00:00 PM 6.15 43.07 0.165 7.36 2.26 12.39
1/16/2021 4:15:00 PM 6.1 42.98 0.165 7.36 2.18 12.35
1/16/2021 4:30:00 PM 6.04 42.872 0.165 7.36 3.96 12.35
1/16/2021 4:45:00 PM 6 42.8 0.165 7.37 1.78 12.31
1/16/2021 5:00:00 PM 5.95 42.71 0.165 7.36 2.97 12.27
1/16/2021 5:15:00 PM 5.9 42.62 0.166 7.37 2.31 12.22
1/16/2021 5:30:00 PM 5.87 42.566 0.166 7.36 2.1 12.19
1/16/2021 5:45:00 PM 5.82 42.476 0.166 7.36 2.58 12.17
1/16/2021 6:00:00 PM 5.77 42.386 0.166 7.37 2.26 12.13
1/16/2021 6:15:00 PM 5.74 42.332 0.166 7.35 2.79 12.12
1/16/2021 6:30:00 PM 5.69 42.242 0.166 7.37 1.78 12.11
1/16/2021 6:45:00 PM 5.66 42.188 0.166 7.37 2.5 12.07
1/16/2021 7:00:00 PM 5.62 42.116 0.166 7.31 2.62 12.06
1/16/2021 7:15:00 PM 5.58 42.044 0.166 7.38 1.89 12.07
1/16/2021 7:30:00 PM 5.54 41.972 0.166 7.38 2.31 12.06
1/16/2021 7:45:00 PM 5.51 41.918 0.166 7.34 2.38 12.05
1/16/2021 8:00:00 PM 5.48 41.864 0.166 7.32 1.81 12.04
1/16/2021 8:15:00 PM 5.45 41.81 0.166 7.36 1.5 12.05
1/16/2021 8:30:00 PM 5.43 41.774 0.166 7.38 2.35 12.03
1/16/2021 8:45:00 PM 5.4 41.72 0.166 7.37 2.11 12.02
1/16/2021 9:00:00 PM 5.37 41.666 0.166 7.36 1.29 12.02
1/16/2021 9:15:00 PM 5.32 41.576 0.166 7.36 2.09 12.03
1/16/2021 9:30:00 PM 5.28 41.504 0.166 7.37 1.57 12.04
1/16/2021 9:45:00 PM 5.24 41.432 0.166 7.36 1.33 12.03
1/16/2021 10:00:00 PM 5.19 41.342 0.166 7.35 1.97 12.05
1/16/2021 10:15:00 PM 5.16 41.288 0.166 7.35 3.97 12.05
1/16/2021 10:30:00 PM 5.13 41.234 0.166 7.36 1.62 12.07
1/16/2021 10:45:00 PM 5.09 41.162 0.165 7.35 2.74 12.08
1/16/2021 11:00:00 PM 5.05 41.09 0.165 7.37 1.95 12.07
1/16/2021 11:15:00 PM 5.01 41.018 0.165 7.33 2.55 12.08
1/16/2021 11:30:00 PM 4.97 40.946 0.165 7.35 1.46 12.1
1/16/2021 11:45:00 PM 4.93 40.874 0.165 7.37 2.31 12.1
1/17/2021 12:00:00 AM 4.89 40.802 0.165 7.33 1.66 12.11
1/17/2021 12:15:00 AM 4.84 40.712 0.165 7.34 1.42 12.13
1/17/2021 12:30:00 AM 4.8 40.64 0.165 7.34 1.55 12.16
1/17/2021 12:45:00 AM 4.76 40.568 0.165 7.35 2.46 12.17
1/17/2021 1:00:00 AM 4.72 40.496 0.165 7.33 13.39 12.19
1/17/2021 1:15:00 AM 4.67 40.406 0.165 7.36 4.07 12.18
1/17/2021 1:30:00 AM 4.63 40.334 0.165 7.34 3.64 12.21
1/17/2021 1:45:00 AM 4.58 40.244 0.165 7.34 3.1 12.23
1/17/2021 2:00:00 AM 4.53 40.154 0.166 7.35 1.24 12.25
1/17/2021 2:15:00 AM 4.49 40.082 0.166 7.35 2.55 12.28
1/17/2021 2:30:00 AM 4.44 39.992 0.166 7.34 1.16 12.29
1/17/2021 2:45:00 AM 4.39 39.902 0.166 7.33 1.66 12.31
1/17/2021 3:00:00 AM 4.34 39.812 0.166 7.32 1.37 12.33
1/17/2021 3:15:00 AM 4.3 39.74 0.166 7.32 6.36 12.36
1/17/2021 3:30:00 AM 4.25 39.65 0.166 7.32 1.64 12.36
1/17/2021 3:45:00 AM 4.22 39.596 0.166 7.36 1.8 12.37
1/17/2021 4:00:00 AM 4.17 39.506 0.166 7.34 2.38 12.4
1/17/2021 4:15:00 AM 4.13 39.434 0.166 7.35 1.35 12.43
1/17/2021 4:30:00 AM 4.09 39.362 0.166 7.33 2.2 12.44
1/17/2021 4:45:00 AM 4.04 39.272 0.167 7.34 1.52 12.46
1/17/2021 5:00:00 AM 3.99 39.182 0.167 7.29 1.48 12.47
1/17/2021 5:15:00 AM 3.95 39.11 0.167 7.34 1.81 12.49
1/17/2021 5:30:00 AM 3.92 39.056 0.167 7.34 2.32 12.53
1/17/2021 5:45:00 AM 3.9 39.02 0.167 7.34 2.06 12.53
1/17/2021 6:00:00 AM 3.88 38.984 0.167 7.32 2.52 12.55
1/17/2021 6:15:00 AM 3.87 38.966 0.167 7.32 2.93 12.58
1/17/2021 6:30:00 AM 3.85 38.93 0.167 7.33 2.78 12.58
1/17/2021 6:45:00 AM 3.84 38.912 0.167 7.34 4.19 12.59
1/17/2021 7:00:00 AM 3.83 38.894 0.167 7.28 1.61 12.61
1/17/2021 7:15:00 AM 3.82 38.876 0.167 7.34 2.28 12.6
1/17/2021 7:30:00 AM 3.81 38.858 0.167 7.35 1.57 12.63
1/17/2021 7:45:00 AM 3.79 38.822 0.167 7.31 2.4 12.63
1/17/2021 8:00:00 AM 3.79 38.822 0.167 7.3 1.43 12.65
1/17/2021 8:15:00 AM 3.79 38.822 0.167 7.31 2.89 12.68
1/17/2021 8:30:00 AM 3.79 38.822 0.167 7.34 2.07 12.72
1/17/2021 8:45:00 AM 3.79 38.822 0.167 7.32 1.47 12.75
1/17/2021 9:00:00 AM 3.8 38.84 0.167 7.33 2.44 12.8
1/17/2021 9:15:00 AM 3.82 38.876 0.167 7.35 1.48 12.85
1/17/2021 9:30:00 AM 3.82 38.876 0.167 7.3 1.1 12.9
1/17/2021 9:45:00 AM 3.85 38.93 0.167 7.33 1.36 12.93
1/17/2021 10:00:00 AM 3.9 39.02 0.167 7.31 1.45 12.99
1/17/2021 10:15:00 AM 3.95 39.11 0.167 7.32 1.13 13.04
1/17/2021 10:30:00 AM 3.98 39.164 0.167 7.33 2.02 13.07
1/17/2021 10:45:00 AM 4.04 39.272 0.167 7.35 1.3 13.08
1/17/2021 11:00:00 AM 4.09 39.362 0.167 7.32 1.55 13.09
1/17/2021 11:15:00 AM 4.14 39.452 0.167 7.3 0.57 13.1
1/17/2021 11:30:00 AM 4.22 39.596 0.167 7.29 2.76 13.13
1/17/2021 11:45:00 AM 4.3 39.74 0.167 7.34 1.06 13.14
1/17/2021 12:00:00 PM 4.4 39.92 0.167 7.35 2.21 13.16
1/17/2021 12:15:00 PM 4.49 40.082 0.167 7.35 1.15 13.16
1/17/2021 12:30:00 PM 4.57 40.226 0.167 7.35 1.28 13.17
1/17/2021 12:45:00 PM 4.64 40.352 0.166 7.31 0.79 13.15
1/17/2021 1:00:00 PM 4.72 40.496 0.166 7.37 1.69 13.17
1/17/2021 1:15:00 PM 4.8 40.64 0.166 7.34 1.37 13.16
1/17/2021 1:30:00 PM 4.9 40.82 0.166 7.29 1.75 13.15
1/17/2021 1:45:00 PM 4.96 40.928 0.166 7.38 1.21 13.14
1/17/2021 2:00:00 PM 5.01 41.018 0.166 7.36 1 13.12
1/17/2021 2:15:00 PM 5.06 41.108 0.166 7.34 1.7 13.11
1/17/2021 2:30:00 PM 5.04 41.072 0.166 7.36 0.77 13.08
1/17/2021 2:45:00 PM 5.04 41.072 0.166 7.39 1.99 13.04
1/17/2021 3:00:00 PM 5.05 41.09 0.166 7.39 1.4 13.03
1/17/2021 3:15:00 PM 5.07 41.126 0.166 7.37 0.9 12.96
1/17/2021 3:30:00 PM 5.07 41.126 0.166 7.38 1.53 12.97
1/17/2021 3:45:00 PM 5.07 41.126 0.166 7.37 1.72 12.94
1/17/2021 4:00:00 PM 5.06 41.108 0.166 7.4 0.99 12.9
1/17/2021 4:15:00 PM 5.04 41.072 0.166 7.34 1.21 12.86
1/17/2021 4:30:00 PM 5.02 41.036 0.166 7.4 3.24 12.82
1/17/2021 4:45:00 PM 5 41 0.167 7.39 1.31 12.78
1/17/2021 5:00:00 PM 4.98 40.964 0.167 7.41 1.17 12.73
1/17/2021 5:15:00 PM 4.96 40.928 0.167 7.38 0.97 12.7
1/17/2021 5:30:00 PM 4.95 40.91 0.167 7.39 1.23 12.66
1/17/2021 5:45:00 PM 4.93 40.874 0.167 7.39 1.07 12.62
1/17/2021 6:00:00 PM 4.9 40.82 0.167 7.4 1.53 12.58
1/17/2021 6:15:00 PM 4.86 40.748 0.167 7.4 1.94 12.54
1/17/2021 6:30:00 PM 4.83 40.694 0.167 7.4 0.85 12.53
1/17/2021 6:45:00 PM 4.81 40.658 0.167 7.38 1.21 12.52
1/17/2021 7:00:00 PM 4.8 40.64 0.167 7.38 0.67 12.5
1/17/2021 7:15:00 PM 4.78 40.604 0.167 7.38 2.54 12.5
1/17/2021 7:30:00 PM 4.77 40.586 0.167 7.4 2.1 12.48
1/17/2021 7:45:00 PM 4.74 40.532 0.167 7.38 1.2 12.44
1/17/2021 8:00:00 PM 4.72 40.496 0.167 7.39 1.13 12.43
1/17/2021 8:15:00 PM 4.7 40.46 0.167 7.37 1.35 12.43
1/17/2021 8:30:00 PM 4.69 40.442 0.167 7.38 1.34 12.42
1/17/2021 8:45:00 PM 4.68 40.424 0.167 7.38 0.86 12.42
1/17/2021 9:00:00 PM 4.67 40.406 0.167 7.36 0.65 12.4
1/17/2021 9:15:00 PM 4.66 40.388 0.167 7.37 0.9 12.41
1/17/2021 9:30:00 PM 4.64 40.352 0.167 7.37 1.05 12.39
1/17/2021 9:45:00 PM 4.64 40.352 0.167 7.36 0.91 12.38
1/17/2021 10:00:00 PM 4.63 40.334 0.167 7.38 2.47 12.38
1/17/2021 10:15:00 PM 4.62 40.316 0.167 7.37 2.41 12.38
1/17/2021 10:30:00 PM 4.62 40.316 0.167 7.35 1.24 12.39
1/17/2021 10:45:00 PM 4.61 40.298 0.167 7.37 1.24 12.38
1/17/2021 11:00:00 PM 4.61 40.298 0.167 7.33 1.1 12.39
1/17/2021 11:15:00 PM 4.6 40.28 0.167 7.35 1.32 12.38
1/17/2021 11:30:00 PM 4.6 40.28 0.167 7.36 1.28 12.38
1/17/2021 11:45:00 PM 4.59 40.262 0.167 7.35 1.59 12.38
1/18/2021 12:00:00 AM 4.59 40.262 0.167 7.34 1.88 12.38
1/18/2021 12:15:00 AM 4.59 40.262 0.167 7.36 1.21 12.37
1/18/2021 12:30:00 AM 4.58 40.244 0.167 7.36 1.85 12.38
1/18/2021 12:45:00 AM 4.57 40.226 0.167 7.33 1.08 12.39
1/18/2021 1:00:00 AM 4.56 40.208 0.167 7.33 1.08 12.38
1/18/2021 1:15:00 AM 4.54 40.172 0.167 7.35 1.36 12.38
1/18/2021 1:30:00 AM 4.53 40.154 0.167 7.34 1.45 12.39
1/18/2021 1:45:00 AM 4.52 40.136 0.167 7.34 1.82 12.39
1/18/2021 2:00:00 AM 4.5 40.1 0.167 7.32 2.28 12.39
1/18/2021 2:15:00 AM 4.49 40.082 0.167 7.35 1.52 12.39
1/18/2021 2:30:00 AM 4.47 40.046 0.167 7.32 1.28 12.4
1/18/2021 2:45:00 AM 4.45 40.01 0.168 7.34 0.87 12.41
1/18/2021 3:00:00 AM 4.42 39.956 0.168 7.33 0.98 12.43
1/18/2021 3:15:00 AM 4.38 39.884 0.168 7.32 1.25 12.42
1/18/2021 3:30:00 AM 4.34 39.812 0.168 7.28 1.29 12.43
1/18/2021 3:45:00 AM 4.31 39.758 0.168 7.3 0.93 12.46
1/18/2021 4:00:00 AM 4.26 39.668 0.168 7.33 2.14 12.45
1/18/2021 4:15:00 AM 4.22 39.596 0.168 7.32 1.23 12.47
1/18/2021 4:30:00 AM 4.17 39.506 0.168 7.27 1.7 12.47
1/18/2021 4:45:00 AM 4.13 39.434 0.168 7.32 1.32 12.49
1/18/2021 5:00:00 AM 4.08 39.344 0.168 7.33 1.07 12.5
1/18/2021 5:15:00 AM 4.04 39.272 0.168 7.33 1.85 12.52
1/18/2021 5:30:00 AM 3.99 39.182 0.168 7.28 1.34 12.53
1/18/2021 5:45:00 AM 3.95 39.11 0.168 7.33 2.03 12.56
1/18/2021 6:00:00 AM 3.91 39.038 0.169 7.3 1.1 12.58
1/18/2021 6:15:00 AM 3.86 38.948 0.169 7.32 1.12 12.59
1/18/2021 6:30:00 AM 3.82 38.876 0.169 7.29 3.35 12.59
1/18/2021 6:45:00 AM 3.78 38.804 0.169 7.31 1.32 12.61
1/18/2021 7:00:00 AM 3.73 38.714 0.169 7.31 2.34 12.63
1/18/2021 7:15:00 AM 3.69 38.642 0.169 7.3 1.4 12.66
1/18/2021 7:30:00 AM 3.63 38.534 0.169 7.32 2.89 12.67
1/18/2021 7:45:00 AM 3.6 38.48 0.169 7.28 2.02 12.69
1/18/2021 8:00:00 AM 3.56 38.408 0.169 7.32 1.43 12.72
1/18/2021 8:15:00 AM 3.52 38.336 0.169 7.32 1.3 12.76
1/18/2021 8:30:00 AM 3.48 38.264 0.169 7.31 1.57 12.81
1/18/2021 8:45:00 AM 3.45 38.21 0.169 7.3 0.95 12.86
1/18/2021 9:00:00 AM 3.44 38.192 0.169 7.31 1.96 12.9
1/18/2021 9:15:00 AM 3.43 38.174 0.169 7.31 1.14 12.95
1/18/2021 9:30:00 AM 3.42 38.156 0.169 7.33 0.99 13
1/18/2021 9:45:00 AM 3.43 38.174 0.169 7.32 1.99 13.04
1/18/2021 10:00:00 AM 3.45 38.21 0.169 7.33 1.07 13.08
1/18/2021 10:15:00 AM 3.48 38.264 0.169 7.32 2.03 13.12
1/18/2021 10:30:00 AM 3.53 38.354 0.169 7.32 1.47 13.15
1/18/2021 10:45:00 AM 3.59 38.462 0.168 7.32 1.69 13.2
1/18/2021 11:00:00 AM 3.69 38.642 0.168 7.29 0.7 13.25
1/18/2021 11:15:00 AM 3.76 38.768 0.168 7.33 1.29 13.27
1/18/2021 11:30:00 AM 3.92 39.056 0.168 7.33 0.79 13.3
1/18/2021 11:45:00 AM 4.06 39.308 0.168 7.33 0.91 13.31
1/18/2021 12:00:00 PM 4.17 39.506 0.168 7.3 1.02 13.31
1/18/2021 12:15:00 PM 4.25 39.65 0.168 7.34 0.54 13.3
1/18/2021 12:30:00 PM 4.34 39.812 0.168 7.32 0.78 13.32
1/18/2021 12:45:00 PM 4.43 39.974 0.168 7.36 1.29 13.32
1/18/2021 1:00:00 PM 4.52 40.136 0.168 7.36 0.84 13.32
1/18/2021 1:15:00 PM 4.62 40.316 0.167 7.34 1.57 13.29
1/18/2021 1:30:00 PM 4.7 40.46 0.167 7.36 0.91 13.29
1/18/2021 1:45:00 PM 4.75 40.55 0.167 7.37 1.14 13.27
1/18/2021 2:00:00 PM 4.77 40.586 0.167 7.34 0.9 13.25
1/18/2021 2:15:00 PM 4.8 40.64 0.167 7.33 0.95 13.23
1/18/2021 2:30:00 PM 4.84 40.712 0.167 7.36 3 13.21
1/18/2021 2:45:00 PM 4.88 40.784 0.167 7.38 0.84 13.2
1/18/2021 3:00:00 PM 4.88 40.784 0.167 7.35 1.16 13.18
1/18/2021 3:15:00 PM 4.83 40.694 0.167 7.38 1.95 13.15
1/18/2021 3:30:00 PM 4.79 40.622 0.167 7.4 0.97 13.11
1/18/2021 3:45:00 PM 4.78 40.604 0.167 7.38 0.4 13.11
1/18/2021 4:00:00 PM 4.74 40.532 0.167 7.39 0.83 13.05
1/18/2021 4:15:00 PM 4.71 40.478 0.167 7.37 1.22 13.05
1/18/2021 4:30:00 PM 4.68 40.424 0.167 7.39 0.79 13.02
1/18/2021 4:45:00 PM 4.65 40.37 0.167 7.4 0.65 12.97
1/18/2021 5:00:00 PM 4.6 40.28 0.167 7.36 1.02 12.96
1/18/2021 5:15:00 PM 4.56 40.208 0.167 7.4 0.68 12.94
1/18/2021 5:30:00 PM 4.51 40.118 0.168 7.39 1.12 12.92
1/18/2021 5:45:00 PM 4.45 40.01 0.168 7.39 0.57 12.87
1/18/2021 6:00:00 PM 4.38 39.884 0.168 7.41 0.77 12.83
1/18/2021 6:15:00 PM 4.33 39.794 0.168 7.41 0.58 12.83
1/18/2021 6:30:00 PM 4.28 39.704 0.168 7.41 0.48 12.79
1/18/2021 6:45:00 PM 4.23 39.614 0.168 7.38 0.71 12.8
1/18/2021 7:00:00 PM 4.19 39.542 0.168 7.4 0.64 12.78
1/18/2021 7:15:00 PM 4.14 39.452 0.168 7.39 0.47 12.76
1/18/2021 7:30:00 PM 4.1 39.38 0.168 7.39 0.65 12.77
1/18/2021 7:45:00 PM 4.05 39.29 0.168 7.39 0.82 12.75
1/18/2021 8:00:00 PM 4.01 39.218 0.168 7.37 0.93 12.75
1/18/2021 8:15:00 PM 3.96 39.128 0.168 7.36 0.56 12.76
1/18/2021 8:30:00 PM 3.92 39.056 0.168 7.37 1.4 12.73
1/18/2021 8:45:00 PM 3.86 38.948 0.168 7.39 1.03 12.76
1/18/2021 9:00:00 PM 3.82 38.876 0.169 7.38 0.97 12.75
1/18/2021 9:15:00 PM 3.78 38.804 0.169 7.36 4.7 12.77
1/18/2021 9:30:00 PM 3.74 38.732 0.169 7.4 1.08 12.78
1/18/2021 9:45:00 PM 3.71 38.678 0.169 7.39 1.02 12.78
1/18/2021 10:00:00 PM 3.67 38.606 0.169 7.39 0.99 12.79
1/18/2021 10:15:00 PM 3.64 38.552 0.169 7.4 0.65 12.79
1/18/2021 10:30:00 PM 3.6 38.48 0.169 7.39 1.3 12.81
1/18/2021 10:45:00 PM 3.57 38.426 0.169 7.37 0.82 12.8
1/18/2021 11:00:00 PM 3.53 38.354 0.169 7.39 0.88 12.81
1/18/2021 11:15:00 PM 3.5 38.3 0.169 7.36 1.38 12.83
1/18/2021 11:30:00 PM 3.47 38.246 0.169 7.37 0.88 12.83
1/18/2021 11:45:00 PM 3.44 38.192 0.169 7.37 0.8 12.85
1/19/2021 12:00:00 AM 3.41 38.138 0.169 7.36 1.06 12.86
1/19/2021 12:15:00 AM 3.38 38.084 0.169 7.36 2.9 12.87
1/19/2021 12:30:00 AM 3.35 38.03 0.169 7.35 1.49 12.88
1/19/2021 12:45:00 AM 3.33 37.994 0.169 7.36 1.07 12.89
1/19/2021 1:00:00 AM 3.29 37.922 0.169 7.35 1.33 12.92
1/19/2021 1:15:00 AM 3.27 37.886 0.169 7.36 0.92 12.93
1/19/2021 1:30:00 AM 3.23 37.814 0.169 7.36 1.07 12.94
1/19/2021 1:45:00 AM 3.2 37.76 0.169 7.36 1.11 12.96
1/19/2021 2:00:00 AM 3.16 37.688 0.169 7.36 0.96 12.98
1/19/2021 2:15:00 AM 3.12 37.616 0.169 7.36 1.33 12.98
1/19/2021 2:30:00 AM 3.08 37.544 0.169 7.34 1.89 13.01
1/19/2021 2:45:00 AM 3.04 37.472 0.169 7.35 0.62 13.01
1/19/2021 3:00:00 AM 3 37.4 0.169 7.34 1.8 13.04
1/19/2021 3:15:00 AM 2.97 37.346 0.169 7.36 0.73 13.06
1/19/2021 3:30:00 AM 2.93 37.274 0.169 7.3 0.74 13.08
1/19/2021 3:45:00 AM 2.89 37.202 0.169 7.31 0.68 13.1
1/19/2021 4:00:00 AM 2.85 37.13 0.169 7.34 1.69 13.11
1/19/2021 4:15:00 AM 2.81 37.058 0.17 7.33 1.54 13.13
1/19/2021 4:30:00 AM 2.78 37.004 0.17 7.35 1.33 13.15
1/19/2021 4:45:00 AM 2.73 36.914 0.17 7.31 1.18 13.16
1/19/2021 5:00:00 AM 2.7 36.86 0.17 7.35 1.6 13.19
1/19/2021 5:15:00 AM 2.66 36.788 0.17 7.33 2.25 13.21
1/19/2021 5:30:00 AM 2.64 36.752 0.17 7.33 1.55 13.23
1/19/2021 5:45:00 AM 2.6 36.68 0.17 7.32 0.97 13.25
1/19/2021 6:00:00 AM 2.56 36.608 0.17 7.35 1.08 13.25
1/19/2021 6:15:00 AM 2.53 36.554 0.17 7.34 1.42 13.26
1/19/2021 6:30:00 AM 2.49 36.482 0.17 7.35 1.07 13.29
1/19/2021 6:45:00 AM 2.46 36.428 0.17 7.35 1.61 13.32
1/19/2021 7:00:00 AM 2.43 36.374 0.17 7.35 1.77 13.33
1/19/2021 7:15:00 AM 2.4 36.32 0.17 7.32 4 13.35
1/19/2021 7:30:00 AM 2.37 36.266 0.17 7.33 1.57 13.37
1/19/2021 7:45:00 AM 2.35 36.23 0.17 7.34 1.56 13.39
1/19/2021 8:00:00 AM 2.33 36.194 0.17 7.33 2.66 13.41
1/19/2021 8:15:00 AM 2.33 36.194 0.17 7.27 1.3 13.45
1/19/2021 8:30:00 AM 2.34 36.212 0.17 7.32 1.03 13.5
1/19/2021 8:45:00 AM 2.35 36.23 0.17 7.28 1.17 13.55
1/19/2021 9:00:00 AM 2.37 36.266 0.17 7.27 1.15 13.61
1/19/2021 9:15:00 AM 2.41 36.338 0.17 7.33 0.61 13.67
1/19/2021 9:30:00 AM 2.46 36.428 0.17 7.34 0.9 13.72
1/19/2021 9:45:00 AM 2.53 36.554 0.17 7.32 1.82 13.79
1/19/2021 10:00:00 AM 2.59 36.662 0.17 7.33 1.28 13.8
1/19/2021 10:15:00 AM 2.66 36.788 0.17 7.34 3.28 13.86
1/19/2021 10:30:00 AM 2.74 36.932 0.169 7.33 0.51 13.86
1/19/2021 10:45:00 AM 2.83 37.094 0.169 7.32 0.73 13.89
1/19/2021 11:00:00 AM 2.91 37.238 0.169 7.35 0.74 13.9
1/19/2021 11:15:00 AM 3.01 37.418 0.169 7.36 0.65 13.89
1/19/2021 11:30:00 AM 3.08 37.544 0.169 7.34 0.59 13.91
1/19/2021 11:45:00 AM 3.16 37.688 0.169 7.36 1.78 13.89
1/19/2021 12:00:00 PM 3.26 37.868 0.169 7.35 0.89 13.88
1/19/2021 12:15:00 PM 3.35 38.03 0.169 7.38 0.76 13.86
1/19/2021 12:30:00 PM 3.45 38.21 0.169 7.37 5.62 13.88
1/19/2021 12:45:00 PM 3.51 38.318 0.169 7.36 0.67 13.87
1/19/2021 1:00:00 PM 3.59 38.462 0.168 7.38 0.93 13.85
1/19/2021 1:15:00 PM 3.78 38.804 0.168 7.38 3.83 13.84
1/19/2021 1:30:00 PM 4 39.2 0.168 7.37 1.63 13.81
1/19/2021 1:45:00 PM 4.09 39.362 0.168 7.38 1.3 13.79
1/19/2021 2:00:00 PM 4.11 39.398 0.168 7.38 0.94 13.8
1/19/2021 2:15:00 PM 4.14 39.452 0.168 7.38 0.62 13.76
1/19/2021 2:30:00 PM 4.14 39.452 0.168 7.38 0.55 13.72
1/19/2021 2:45:00 PM 4.17 39.506 0.168 7.38 0.73 13.7
1/19/2021 3:00:00 PM 4.18 39.524 0.168 7.39 1.42 13.66
1/19/2021 3:15:00 PM 4.18 39.524 0.168 7.4 0.58 13.62
1/19/2021 3:30:00 PM 4.15 39.47 0.168 7.39 1.02 13.59
1/19/2021 3:45:00 PM 4.12 39.416 0.168 7.4 0.71 13.54
1/19/2021 4:00:00 PM 4.09 39.362 0.168 7.38 0.69 13.51
1/19/2021 4:15:00 PM 4.03 39.254 0.168 7.4 1.32 13.49
1/19/2021 4:30:00 PM 3.98 39.164 0.168 7.41 0.75 13.45
1/19/2021 4:45:00 PM 3.91 39.038 0.168 7.41 1.31 13.43
1/19/2021 5:00:00 PM 3.86 38.948 0.168 7.41 0.93 13.39
1/19/2021 5:15:00 PM 3.8 38.84 0.168 7.41 1.02 13.36
1/19/2021 5:30:00 PM 3.74 38.732 0.168 7.41 0.34 13.32
1/19/2021 5:45:00 PM 3.69 38.642 0.168 7.41 0.66 13.3
1/19/2021 6:00:00 PM 3.63 38.534 0.168 7.41 2.35 13.25
1/19/2021 6:15:00 PM 3.58 38.444 0.168 7.42 0.6 13.23
1/19/2021 6:30:00 PM 3.52 38.336 0.168 7.39 0.59 13.2
1/19/2021 6:45:00 PM 3.47 38.246 0.168 7.41 0.4 13.21
1/19/2021 7:00:00 PM 3.42 38.156 0.168 7.34 0.53 13.18
1/19/2021 7:15:00 PM 3.38 38.084 0.169 7.42 0.84 13.18
1/19/2021 7:30:00 PM 3.34 38.012 0.169 7.41 0.68 13.14
1/19/2021 7:45:00 PM 3.29 37.922 0.169 7.37 0.46 13.16
1/19/2021 8:00:00 PM 3.24 37.832 0.169 7.42 0.43 13.16
1/19/2021 8:15:00 PM 3.2 37.76 0.169 7.41 0.64 13.14
1/19/2021 8:30:00 PM 3.15 37.67 0.169 7.32 0.74 13.15
1/19/2021 8:45:00 PM 3.11 37.598 0.169 7.4 0.63 13.16
1/19/2021 9:00:00 PM 3.07 37.526 0.169 7.39 1.24 13.14
1/19/2021 9:15:00 PM 3.03 37.454 0.169 7.4 0.5 13.16
1/19/2021 9:30:00 PM 2.99 37.382 0.169 7.4 0.61 13.17
1/19/2021 9:45:00 PM 2.96 37.328 0.169 7.4 0.85 13.16
1/19/2021 10:00:00 PM 2.91 37.238 0.169 7.39 0.36 13.17
1/19/2021 10:15:00 PM 2.88 37.184 0.169 7.4 0.55 13.17
1/19/2021 10:30:00 PM 2.84 37.112 0.169 7.39 0.75 13.19
1/19/2021 10:45:00 PM 2.82 37.076 0.169 7.38 0.42 13.19
1/19/2021 11:00:00 PM 2.79 37.022 0.169 7.37 0.71 13.2
1/19/2021 11:15:00 PM 2.78 37.004 0.169 7.39 0.81 13.2
1/19/2021 11:30:00 PM 2.76 36.968 0.169 7.37 0.73 13.18
1/19/2021 11:45:00 PM 2.75 36.95 0.169 7.38 0.68 13.21
1/20/2021 12:00:00 AM 2.74 36.932 0.169 7.38 0.51 13.21
1/20/2021 12:15:00 AM 2.74 36.932 0.169 7.36 0.82 13.22
1/20/2021 12:30:00 AM 2.74 36.932 0.169 7.33 0.65 13.22
1/20/2021 12:45:00 AM 2.74 36.932 0.169 7.37 0.65 13.19
1/20/2021 1:00:00 AM 2.74 36.932 0.169 7.36 1.04 13.2
1/20/2021 1:15:00 AM 2.74 36.932 0.169 7.34 1.97 13.19
1/20/2021 1:30:00 AM 2.74 36.932 0.169 7.31 1.28 13.2
1/20/2021 1:45:00 AM 2.74 36.932 0.169 7.35 1.22 13.2
1/20/2021 2:00:00 AM 2.74 36.932 0.169 7.36 1.24 13.21
1/20/2021 2:15:00 AM 2.75 36.95 0.169 7.35 1.14 13.2
1/20/2021 2:30:00 AM 2.75 36.95 0.169 7.35 1.44 13.19
1/20/2021 2:45:00 AM 2.75 36.95 0.169 7.35 3.42 13.2
1/20/2021 3:00:00 AM 2.75 36.95 0.169 7.34 1.26 13.18
1/20/2021 3:15:00 AM 2.74 36.932 0.169 7.34 1 13.19
1/20/2021 3:30:00 AM 2.74 36.932 0.169 7.34 1.16 13.2
1/20/2021 3:45:00 AM 2.74 36.932 0.169 7.34 1.37 13.19
1/20/2021 4:00:00 AM 2.74 36.932 0.169 7.33 0.74 13.2
1/20/2021 4:15:00 AM 2.74 36.932 0.169 7.34 0.77 13.2
1/20/2021 4:30:00 AM 2.74 36.932 0.17 7.33 0.72 13.2
1/20/2021 4:45:00 AM 2.73 36.914 0.17 7.34 0.66 13.19
1/20/2021 5:00:00 AM 2.73 36.914 0.17 7.31 0.97 13.2
1/20/2021 5:15:00 AM 2.73 36.914 0.17 7.34 0.79 13.17
1/20/2021 5:30:00 AM 2.72 36.896 0.17 7.32 1.45 13.19
1/20/2021 5:45:00 AM 2.73 36.914 0.17 7.32 1.62 13.2
1/20/2021 6:00:00 AM 2.73 36.914 0.17 7.3 1.57 13.2
1/20/2021 6:15:00 AM 2.72 36.896 0.17 7.32 0.81 13.19
1/20/2021 6:30:00 AM 2.7 36.86 0.17 7.31 1.78 13.2
1/20/2021 6:45:00 AM 2.69 36.842 0.17 7.31 1.09 13.2
1/20/2021 7:00:00 AM 2.67 36.806 0.17 7.32 0.72 13.21
1/20/2021 7:15:00 AM 2.65 36.77 0.17 7.31 0.9 13.2
1/20/2021 7:30:00 AM 2.63 36.734 0.17 7.3 4.75 13.22
1/20/2021 7:45:00 AM 2.61 36.698 0.17 7.32 1.64 13.25
1/20/2021 8:00:00 AM 2.59 36.662 0.17 7.31 1.53 13.25
1/20/2021 8:15:00 AM 2.57 36.626 0.17 7.31 2.4 13.31
1/20/2021 8:30:00 AM 2.56 36.608 0.17 7.32 2.45 13.34
1/20/2021 8:45:00 AM 2.55 36.59 0.17 7.31 1.22 13.4
1/20/2021 9:00:00 AM 2.55 36.59 0.17 7.32 0.84 13.44
1/20/2021 9:15:00 AM 2.55 36.59 0.17 7.33 0.59 13.52
1/20/2021 9:30:00 AM 2.55 36.59 0.17 7.32 1.14 13.57
1/20/2021 9:45:00 AM 2.54 36.572 0.17 7.34 0.7 13.62
1/20/2021 10:00:00 AM 2.57 36.626 0.17 7.34 0.88 13.63
1/20/2021 10:15:00 AM 2.61 36.698 0.17 7.32 0.94 13.68
1/20/2021 10:30:00 AM 2.67 36.806 0.17 7.34 1.57 13.72
1/20/2021 10:45:00 AM 2.74 36.932 0.17 7.3 1.34 13.75
1/20/2021 11:00:00 AM 2.83 37.094 0.169 7.34 0.7 13.77
1/20/2021 11:15:00 AM 2.97 37.346 0.169 7.33 1.71 13.78
1/20/2021 11:30:00 AM 3.09 37.562 0.169 7.35 0.53 13.79
1/20/2021 11:45:00 AM 3.24 37.832 0.169 7.34 1.06 13.78
1/20/2021 12:00:00 PM 3.28 37.904 0.169 7.33 0.99 13.78
1/20/2021 12:15:00 PM 3.37 38.066 0.169 7.35 1.06 13.77
1/20/2021 12:30:00 PM 3.55 38.39 0.169 7.36 0.74 13.77
1/20/2021 12:45:00 PM 3.75 38.75 0.169 7.37 0.78 13.77
1/20/2021 1:00:00 PM 3.96 39.128 0.168 7.33 0.44 13.74
1/20/2021 1:15:00 PM 4.09 39.362 0.168 7.36 0.66 13.71
1/20/2021 1:30:00 PM 4.05 39.29 0.169 7.35 1.21 13.68
1/20/2021 1:45:00 PM 4 39.2 0.169 7.39 1.4 13.65
1/20/2021 2:00:00 PM 4.09 39.362 0.168 7.38 0.38 13.6
1/20/2021 2:15:00 PM 4.15 39.47 0.168 7.38 0.65 13.6
1/20/2021 2:30:00 PM 4.15 39.47 0.168 7.39 0.68 13.62
1/20/2021 2:45:00 PM 4.12 39.416 0.168 7.39 0.66 13.59
1/20/2021 3:00:00 PM 4.09 39.362 0.168 7.4 1.64 13.58
1/20/2021 3:15:00 PM 4.05 39.29 0.168 7.4 0.67 13.58
1/20/2021 3:30:00 PM 4 39.2 0.168 7.41 0.62 13.55
1/20/2021 3:45:00 PM 3.93 39.074 0.168 7.35 0.49 13.52
1/20/2021 4:00:00 PM 3.87 38.966 0.168 7.39 0.5 13.52
1/20/2021 4:15:00 PM 3.8 38.84 0.168 7.36 0.78 13.49
1/20/2021 4:30:00 PM 3.71 38.678 0.169 7.42 0.43 13.47
1/20/2021 4:45:00 PM 3.63 38.534 0.169 7.41 0.41 13.45
1/20/2021 5:00:00 PM 3.55 38.39 0.169 7.42 0.65 13.44
1/20/2021 5:15:00 PM 3.46 38.228 0.169 7.42 0.77 13.43
1/20/2021 5:30:00 PM 3.38 38.084 0.169 7.43 0.6 13.4
1/20/2021 5:45:00 PM 3.29 37.922 0.169 7.42 0.4 13.38
1/20/2021 6:00:00 PM 3.23 37.814 0.169 7.43 0.63 13.36
1/20/2021 6:15:00 PM 3.16 37.688 0.169 7.42 0.69 13.34
1/20/2021 6:30:00 PM 3.1 37.58 0.169 7.42 0.74 13.32
1/20/2021 6:45:00 PM 3.05 37.49 0.169 7.43 1.07 13.31
1/20/2021 7:00:00 PM 2.99 37.382 0.169 7.43 0.57 13.3
1/20/2021 7:15:00 PM 2.94 37.292 0.169 7.42 0.67 13.3
1/20/2021 7:30:00 PM 2.9 37.22 0.169 7.42 0.58 13.29
1/20/2021 7:45:00 PM 2.85 37.13 0.169 7.41 0.57 13.28
1/20/2021 8:00:00 PM 2.8 37.04 0.169 7.43 0.99 13.29
1/20/2021 8:15:00 PM 2.75 36.95 0.17 7.43 0.6 13.29
1/20/2021 8:30:00 PM 2.7 36.86 0.17 7.43 1.26 13.3
1/20/2021 8:45:00 PM 2.66 36.788 0.169 7.43 0.73 13.29
1/20/2021 9:00:00 PM 2.61 36.698 0.17 7.42 0.61 13.32
1/20/2021 9:15:00 PM 2.56 36.608 0.169 7.36 0.61 13.3
1/20/2021 9:30:00 PM 2.51 36.518 0.17 7.41 0.64 13.32
1/20/2021 9:45:00 PM 2.46 36.428 0.17 7.41 0.77 13.32
1/20/2021 10:00:00 PM 2.41 36.338 0.17 7.41 0.54 13.34
1/20/2021 10:15:00 PM 2.36 36.248 0.17 7.41 1.01 13.35
1/20/2021 10:30:00 PM 2.31 36.158 0.17 7.41 2.3 13.39
1/20/2021 10:45:00 PM 2.27 36.086 0.17 7.4 0.46 13.38
1/20/2021 11:00:00 PM 2.2 35.96 0.17 7.38 1.19 13.39
1/20/2021 11:15:00 PM 2.16 35.888 0.17 7.4 0.59 13.42
1/20/2021 11:30:00 PM 2.11 35.798 0.17 7.4 1.35 13.41
1/20/2021 11:45:00 PM 2.07 35.726 0.17 7.39 0.39 13.44
1/21/2021 12:00:00 AM 2.02 35.636 0.17 7.4 1.65 13.45
1/21/2021 12:15:00 AM 1.97 35.546 0.17 7.33 0.71 13.47
1/21/2021 12:30:00 AM 1.93 35.474 0.17 7.38 0.87 13.48
1/21/2021 12:45:00 AM 1.88 35.384 0.17 7.39 1.03 13.51
1/21/2021 1:00:00 AM 1.84 35.312 0.17 7.39 0.86 13.52
1/21/2021 1:15:00 AM 1.79 35.222 0.17 7.39 0.55 13.52
1/21/2021 1:30:00 AM 1.75 35.15 0.17 7.37 0.78 13.54
1/21/2021 1:45:00 AM 1.71 35.078 0.17 7.34 0.88 13.54
1/21/2021 2:00:00 AM 1.66 34.988 0.17 7.38 1.02 13.57
1/21/2021 2:15:00 AM 1.62 34.916 0.17 7.39 0.79 13.59
1/21/2021 2:30:00 AM 1.57 34.826 0.17 7.36 0.95 13.6
1/21/2021 2:45:00 AM 1.52 34.736 0.17 7.38 0.55 13.6
1/21/2021 3:00:00 AM 1.48 34.664 0.171 7.37 0.75 13.64
1/21/2021 3:15:00 AM 1.43 34.574 0.171 7.35 0.96 13.66
1/21/2021 3:30:00 AM 1.38 34.484 0.171 7.37 1.3 13.67
1/21/2021 3:45:00 AM 1.33 34.394 0.171 7.37 0.82 13.7
1/21/2021 4:00:00 AM 1.28 34.304 0.171 7.38 0.84 13.72
1/21/2021 4:15:00 AM 1.23 34.214 0.171 7.37 1.32 13.74
1/21/2021 4:30:00 AM 1.19 34.142 0.171 7.37 1.01 13.76
1/21/2021 4:45:00 AM 1.14 34.052 0.171 7.37 1.16 13.79
1/21/2021 5:00:00 AM 1.08 33.944 0.171 7.36 1.66 13.8
1/21/2021 5:15:00 AM 1.03 33.854 0.171 7.35 0.82 13.83
1/21/2021 5:30:00 AM 0.99 33.782 0.171 7.36 0.97 13.85
1/21/2021 5:45:00 AM 0.96 33.728 0.171 7.34 0.81 13.86
1/21/2021 6:00:00 AM 0.93 33.674 0.171 7.35 1.1 13.87
1/21/2021 6:15:00 AM 0.91 33.638 0.171 7.35 1.28 13.88
1/21/2021 6:30:00 AM 0.89 33.602 0.171 7.34 1.05 13.91
1/21/2021 6:45:00 AM 0.87 33.566 0.171 7.36 1.35 13.92
1/21/2021 7:00:00 AM 0.86 33.548 0.171 7.36 1.4 13.93
1/21/2021 7:15:00 AM 0.85 33.53 0.172 7.35 1.3 13.94
1/21/2021 7:30:00 AM 0.84 33.512 0.172 7.33 1.27 13.95
1/21/2021 7:45:00 AM 0.83 33.494 0.172 7.34 1.1 13.97
1/21/2021 8:00:00 AM 0.82 33.476 0.172 7.34 1.17 13.99
1/21/2021 8:15:00 AM 0.82 33.476 0.172 7.31 1.22 14.03
1/21/2021 8:30:00 AM 0.83 33.494 0.172 7.33 1.04 14.08
1/21/2021 8:45:00 AM 0.85 33.53 0.172 7.34 1.45 14.13
1/21/2021 9:00:00 AM 0.88 33.584 0.171 7.32 0.6 14.19
1/21/2021 9:15:00 AM 0.9 33.62 0.171 7.34 2.94 14.24
1/21/2021 9:30:00 AM 0.91 33.638 0.171 7.33 0.88 14.28
1/21/2021 9:45:00 AM 0.92 33.656 0.171 7.34 0.6 14.29
1/21/2021 10:00:00 AM 0.94 33.692 0.171 7.34 0.69 14.31
1/21/2021 10:15:00 AM 0.97 33.746 0.171 7.33 0.72 14.32
1/21/2021 10:30:00 AM 1.03 33.854 0.171 7.35 0.75 14.34
1/21/2021 10:45:00 AM 1.1 33.98 0.171 7.32 0.49 14.37
1/21/2021 11:00:00 AM 1.22 34.196 0.171 7.35 0.71 14.38
1/21/2021 11:15:00 AM 1.34 34.412 0.171 7.34 1.77 14.39
1/21/2021 11:30:00 AM 1.51 34.718 0.17 7.34 0.42 14.4
1/21/2021 11:45:00 AM 1.67 35.006 0.17 7.34 0.46 14.39
1/21/2021 12:00:00 PM 1.82 35.276 0.17 7.29 0.59 14.37
1/21/2021 12:15:00 PM 1.97 35.546 0.17 7.35 0.75 14.35
1/21/2021 12:30:00 PM 2.15 35.87 0.17 7.35 0.53 14.31
1/21/2021 12:45:00 PM 2.3 36.14 0.169 7.35 0.43 14.3
1/21/2021 1:00:00 PM 2.58 36.644 0.169 7.34 1.1 14.23
1/21/2021 1:15:00 PM 2.78 37.004 0.169 7.34 0.4 14.2
1/21/2021 1:30:00 PM 2.95 37.31 0.169 7.34 0.67 14.17
1/21/2021 1:45:00 PM 3.07 37.526 0.169 7.35 0.92 14.12
1/21/2021 2:00:00 PM 3.19 37.742 0.169 7.34 0.45 14.08
1/21/2021 2:15:00 PM 3.28 37.904 0.169 7.35 0.54 14.04
1/21/2021 2:30:00 PM 3.33 37.994 0.169 7.34 1.17 14
1/21/2021 2:45:00 PM 3.37 38.066 0.169 7.35 0.54 13.95
1/21/2021 3:00:00 PM 3.39 38.102 0.169 7.38 0.56 13.93
1/21/2021 3:15:00 PM 3.4 38.12 0.169 7.36 0.71 13.88
1/21/2021 3:30:00 PM 3.36 38.048 0.169 7.37 0.57 13.85
1/21/2021 3:45:00 PM 3.32 37.976 0.169 7.37 1 13.79
1/21/2021 4:00:00 PM 3.29 37.922 0.169 7.37 0.44 13.76
1/21/2021 4:15:00 PM 3.25 37.85 0.169 7.39 0.61 13.74
1/21/2021 4:30:00 PM 3.21 37.778 0.169 7.35 0.55 13.68
1/21/2021 4:45:00 PM 3.16 37.688 0.169 7.38 0.74 13.67
1/21/2021 5:00:00 PM 3.1 37.58 0.169 7.38 0.74 13.63
1/21/2021 5:15:00 PM 3.04 37.472 0.169 7.38 0.39 13.59
1/21/2021 5:30:00 PM 2.96 37.328 0.169 7.4 0.56 13.54
1/21/2021 5:45:00 PM 2.91 37.238 0.169 7.38 0.47 13.51
1/21/2021 6:00:00 PM 2.84 37.112 0.169 7.37 0.47 13.47
1/21/2021 6:15:00 PM 2.76 36.968 0.169 7.37 1.89 13.44
1/21/2021 6:30:00 PM 2.71 36.878 0.169 7.38 0.51 13.41
1/21/2021 6:45:00 PM 2.66 36.788 0.169 7.41 1.05 13.39
1/21/2021 7:00:00 PM 2.62 36.716 0.169 7.36 0.3 13.37
1/21/2021 7:15:00 PM 2.57 36.626 0.169 7.38 0.39 13.34
1/21/2021 7:30:00 PM 2.53 36.554 0.169 7.41 0.5 13.33
1/21/2021 7:45:00 PM 2.49 36.482 0.169 7.39 0.56 13.31
1/21/2021 8:00:00 PM 2.46 36.428 0.169 7.4 1.05 13.31
1/21/2021 8:15:00 PM 2.42 36.356 0.169 7.4 0.49 13.29
1/21/2021 8:30:00 PM 2.4 36.32 0.169 7.38 0.51 13.29
1/21/2021 8:45:00 PM 2.36 36.248 0.169 7.4 1.06 13.28
1/21/2021 9:00:00 PM 2.33 36.194 0.169 7.4 0.44 13.28
1/21/2021 9:15:00 PM 2.3 36.14 0.17 7.39 0.89 13.26
1/21/2021 9:30:00 PM 2.27 36.086 0.17 7.39 0.52 13.28
1/21/2021 9:45:00 PM 2.24 36.032 0.17 7.38 0.94 13.28
1/21/2021 10:00:00 PM 2.21 35.978 0.17 7.37 0.49 13.28
1/21/2021 10:15:00 PM 2.18 35.924 0.17 7.39 0.61 13.27
1/21/2021 10:30:00 PM 2.15 35.87 0.17 7.39 1.06 13.28
1/21/2021 10:45:00 PM 2.12 35.816 0.17 7.39 1.94 13.27
1/21/2021 11:00:00 PM 2.1 35.78 0.17 7.38 1.08 13.29
1/21/2021 11:15:00 PM 2.08 35.744 0.17 7.37 0.43 13.29
1/21/2021 11:30:00 PM 2.05 35.69 0.17 7.38 1.07 13.29
1/21/2021 11:45:00 PM 2.03 35.654 0.17 7.38 0.5 13.3
1/22/2021 12:00:00 AM 2.01 35.618 0.17 7.37 0.42 13.31
1/22/2021 12:15:00 AM 2.01 35.618 0.17 7.36 0.57 13.31
1/22/2021 12:30:00 AM 2 35.6 0.17 7.37 2.07 13.31
1/22/2021 12:45:00 AM 2.01 35.618 0.17 7.36 0.58 13.31
1/22/2021 1:00:00 AM 2.02 35.636 0.17 7.36 1.15 13.31
1/22/2021 1:15:00 AM 2.04 35.672 0.17 7.36 1.37 13.31
1/22/2021 1:30:00 AM 2.05 35.69 0.17 7.36 0.35 13.3
1/22/2021 1:45:00 AM 2.07 35.726 0.169 7.36 0.69 13.3
1/22/2021 2:00:00 AM 2.08 35.744 0.17 7.36 0.65 13.3
1/22/2021 2:15:00 AM 2.1 35.78 0.17 7.36 1 13.3
1/22/2021 2:30:00 AM 2.11 35.798 0.17 7.31 1.09 13.31
1/22/2021 2:45:00 AM 2.1 35.78 0.17 7.36 0.34 13.3
1/22/2021 3:00:00 AM 2.1 35.78 0.17 7.33 0.59 13.3
1/22/2021 3:15:00 AM 2.1 35.78 0.17 7.35 0.61 13.3
1/22/2021 3:30:00 AM 2.09 35.762 0.17 7.32 0.95 13.31
1/22/2021 3:45:00 AM 2.07 35.726 0.17 7.32 0.58 13.3
1/22/2021 4:00:00 AM 2.05 35.69 0.17 7.33 0.46 13.31
1/22/2021 4:15:00 AM 2.04 35.672 0.17 7.31 0.91 13.32
1/22/2021 4:30:00 AM 2.02 35.636 0.17 7.34 0.51 13.33
1/22/2021 4:45:00 AM 2 35.6 0.17 7.34 1.18 13.32
1/22/2021 5:00:00 AM 1.98 35.564 0.17 7.34 1.24 13.34
1/22/2021 5:15:00 AM 1.96 35.528 0.17 7.35 0.71 13.35
1/22/2021 5:30:00 AM 1.93 35.474 0.17 7.34 0.94 13.35
1/22/2021 5:45:00 AM 1.9 35.42 0.17 7.33 0.79 13.35
1/22/2021 6:00:00 AM 1.87 35.366 0.17 7.31 1.5 13.37
1/22/2021 6:15:00 AM 1.84 35.312 0.17 7.33 0.74 13.36
1/22/2021 6:30:00 AM 1.81 35.258 0.171 7.33 1.1 13.39
1/22/2021 6:45:00 AM 1.78 35.204 0.171 7.33 1.1 13.42
1/22/2021 7:00:00 AM 1.76 35.168 0.171 7.29 1.68 13.42
1/22/2021 7:15:00 AM 1.75 35.15 0.171 7.31 1.42 13.43
1/22/2021 7:30:00 AM 1.75 35.15 0.171 7.33 0.98 13.44
1/22/2021 7:45:00 AM 1.75 35.15 0.171 7.29 1.19 13.44
1/22/2021 8:00:00 AM 1.76 35.168 0.171 7.32 1.37 13.47
1/22/2021 8:15:00 AM 1.78 35.204 0.171 7.29 1.29 13.46
1/22/2021 8:30:00 AM 1.8 35.24 0.171 7.3 1.15 13.53
1/22/2021 8:45:00 AM 1.83 35.294 0.17 7.32 1.12 13.59
1/22/2021 9:00:00 AM 1.87 35.366 0.17 7.28 1.13 13.62
1/22/2021 9:15:00 AM 1.93 35.474 0.17 7.28 1.44 13.68
1/22/2021 9:30:00 AM 1.98 35.564 0.17 7.33 1.83 13.72
1/22/2021 9:45:00 AM 2.06 35.708 0.17 7.3 1.07 13.8
1/22/2021 10:00:00 AM 2.14 35.852 0.17 7.32 0.82 13.83
1/22/2021 10:15:00 AM 2.21 35.978 0.17 7.33 0.6 13.86
1/22/2021 10:30:00 AM 2.26 36.068 0.17 7.32 0.65 13.9
1/22/2021 10:45:00 AM 2.33 36.194 0.17 7.32 1.25 13.9
1/22/2021 11:00:00 AM 2.38 36.284 0.17 7.33 0.82 13.9
1/22/2021 11:15:00 AM 2.5 36.5 0.17 7.34 0.53 13.91
1/22/2021 11:30:00 AM 2.61 36.698 0.17 7.35 1.61 13.93
1/22/2021 11:45:00 AM 2.7 36.86 0.169 7.33 0.48 13.92
1/22/2021 12:00:00 PM 2.78 37.004 0.169 7.34 0.47 13.91
1/22/2021 12:15:00 PM 2.88 37.184 0.169 7.36 0.53 13.9
1/22/2021 12:30:00 PM 2.98 37.364 0.169 7.33 0.5 13.9
1/22/2021 12:45:00 PM 3.11 37.598 0.169 7.34 0.49 13.85
1/22/2021 1:00:00 PM 3.22 37.796 0.169 7.36 0.4 13.85
1/22/2021 1:15:00 PM 3.38 38.084 0.169 7.37 0.75 13.86
1/22/2021 1:30:00 PM 3.62 38.516 0.168 7.36 0.33 13.85
1/22/2021 1:45:00 PM 3.72 38.696 0.168 7.38 1.68 13.86
1/22/2021 2:00:00 PM 3.73 38.714 0.168 7.35 0.46 13.81
1/22/2021 2:15:00 PM 3.72 38.696 0.168 7.38 0.45 13.77
1/22/2021 2:30:00 PM 3.77 38.786 0.168 7.39 0.72 13.74
1/22/2021 2:45:00 PM 3.86 38.948 0.168 7.36 0.55 13.72
1/22/2021 3:00:00 PM 3.92 39.056 0.168 7.39 1.63 13.68
1/22/2021 3:15:00 PM 3.97 39.146 0.168 7.39 0.29 13.67
1/22/2021 3:30:00 PM 3.96 39.128 0.168 7.4 0.97 13.62
1/22/2021 3:45:00 PM 3.98 39.164 0.168 7.39 0.72 13.56
1/22/2021 4:00:00 PM 3.97 39.146 0.168 7.34 0.5 13.54
1/22/2021 4:15:00 PM 3.95 39.11 0.168 7.37 0.81 13.51
1/22/2021 4:30:00 PM 3.93 39.074 0.168 7.36 0.64 13.5
1/22/2021 4:45:00 PM 3.91 39.038 0.168 7.37 0.23 13.46
1/22/2021 5:00:00 PM 3.87 38.966 0.168 7.42 0.43 13.42
1/22/2021 5:15:00 PM 3.83 38.894 0.168 7.43 0.63 13.33
1/22/2021 5:30:00 PM 3.81 38.858 0.168 7.41 0.69 13.27
1/22/2021 5:45:00 PM 3.76 38.768 0.168 7.4 0.46 13.23
1/22/2021 6:00:00 PM 3.71 38.678 0.168 7.4 0.22 13.19
1/22/2021 6:15:00 PM 3.65 38.57 0.168 7.4 1.09 13.15
1/22/2021 6:30:00 PM 3.6 38.48 0.168 7.42 0.62 13.14
1/22/2021 6:45:00 PM 3.56 38.408 0.168 7.42 0.41 13.11
1/22/2021 7:00:00 PM 3.54 38.372 0.168 7.42 0.52 13.06
1/22/2021 7:15:00 PM 3.52 38.336 0.168 7.41 0.48 13.06
1/22/2021 7:30:00 PM 3.5 38.3 0.168 7.42 1.47 13.05
1/22/2021 7:45:00 PM 3.48 38.264 0.168 7.4 0.48 13.02
1/22/2021 8:00:00 PM 3.46 38.228 0.169 7.41 0.65 13
1/22/2021 8:15:00 PM 3.43 38.174 0.169 7.4 1 12.99
1/22/2021 8:30:00 PM 3.42 38.156 0.169 7.38 0.74 12.99
1/22/2021 8:45:00 PM 3.41 38.138 0.169 7.39 0.88 12.97
1/22/2021 9:00:00 PM 3.41 38.138 0.168 7.38 0.48 12.97
1/22/2021 9:15:00 PM 3.41 38.138 0.168 7.4 0.32 12.95
1/22/2021 9:30:00 PM 3.41 38.138 0.168 7.39 0.71 12.94
1/22/2021 9:45:00 PM 3.41 38.138 0.168 7.4 0.94 12.94
1/22/2021 10:00:00 PM 3.41 38.138 0.168 7.38 0.61 12.92
1/22/2021 10:15:00 PM 3.4 38.12 0.168 7.39 0.57 12.92
1/22/2021 10:30:00 PM 3.4 38.12 0.168 7.4 0.44 12.92
1/22/2021 10:45:00 PM 3.4 38.12 0.168 7.39 0.56 12.91
1/22/2021 11:00:00 PM 3.4 38.12 0.168 7.38 0.33 12.9
1/22/2021 11:15:00 PM 3.4 38.12 0.168 7.33 1.21 12.9
1/22/2021 11:30:00 PM 3.4 38.12 0.168 7.39 0.86 12.91
1/22/2021 11:45:00 PM 3.4 38.12 0.168 7.4 2.01 12.91
1/23/2021 12:00:00 AM 3.39 38.102 0.168 7.39 0.46 12.9
1/23/2021 12:15:00 AM 3.36 38.048 0.168 7.38 0.75 12.9
1/23/2021 12:30:00 AM 3.35 38.03 0.168 7.37 2.46 12.9
1/23/2021 12:45:00 AM 3.33 37.994 0.168 7.36 0.89 12.91
1/23/2021 1:00:00 AM 3.29 37.922 0.169 7.36 0.8 12.92
1/23/2021 1:15:00 AM 3.26 37.868 0.169 7.37 0.37 12.9
1/23/2021 1:30:00 AM 3.21 37.778 0.169 7.37 0.71 12.93
1/23/2021 1:45:00 AM 3.17 37.706 0.169 7.36 0.39 12.93
1/23/2021 2:00:00 AM 3.13 37.634 0.169 7.37 0.78 12.95
1/23/2021 2:15:00 AM 3.1 37.58 0.169 7.38 1.6 12.96
1/23/2021 2:30:00 AM 3.07 37.526 0.169 7.36 1.2 12.96
1/23/2021 2:45:00 AM 3.05 37.49 0.169 7.36 0.96 12.98
1/23/2021 3:00:00 AM 3.03 37.454 0.169 7.35 1.31 13
1/23/2021 3:15:00 AM 3 37.4 0.169 7.33 0.86 13.03
1/23/2021 3:30:00 AM 2.96 37.328 0.169 7.35 0.73 13.04
1/23/2021 3:45:00 AM 2.91 37.238 0.169 7.37 0.88 13.05
1/23/2021 4:00:00 AM 2.86 37.148 0.169 7.37 0.62 13.07
1/23/2021 4:15:00 AM 2.82 37.076 0.17 7.34 0.74 13.08
1/23/2021 4:30:00 AM 2.79 37.022 0.17 7.35 0.73 13.1
1/23/2021 4:45:00 AM 2.76 36.968 0.17 7.33 0.72 13.12
1/23/2021 5:00:00 AM 2.74 36.932 0.17 7.34 1.3 13.13
1/23/2021 5:15:00 AM 2.71 36.878 0.17 7.36 1.22 13.13
1/23/2021 5:30:00 AM 2.67 36.806 0.17 7.34 0.79 13.17
1/23/2021 5:45:00 AM 2.63 36.734 0.17 7.34 5.27 13.2
1/23/2021 6:00:00 AM 2.6 36.68 0.17 7.32 1.2 13.21
1/23/2021 6:15:00 AM 2.57 36.626 0.17 7.34 1.49 13.23
1/23/2021 6:30:00 AM 2.52 36.536 0.17 7.33 0.74 13.25
1/23/2021 6:45:00 AM 2.47 36.446 0.17 7.32 1.41 13.27
1/23/2021 7:00:00 AM 2.4 36.32 0.17 7.28 1.23 13.3
1/23/2021 7:15:00 AM 2.36 36.248 0.17 7.32 0.94 13.29
1/23/2021 7:30:00 AM 2.32 36.176 0.171 7.3 2.36 13.34
1/23/2021 7:45:00 AM 2.26 36.068 0.171 7.27 0.86 13.36
1/23/2021 8:00:00 AM 2.21 35.978 0.171 7.29 1.13 13.39
1/23/2021 8:15:00 AM 2.17 35.906 0.171 7.31 0.75 13.46
1/23/2021 8:30:00 AM 2.13 35.834 0.171 7.32 0.97 13.54
1/23/2021 8:45:00 AM 2.09 35.762 0.171 7.35 1.44 13.6
1/23/2021 9:00:00 AM 2.04 35.672 0.171 7.35 0.75 13.67
1/23/2021 9:15:00 AM 1.98 35.564 0.171 7.34 1.14 13.75
1/23/2021 9:30:00 AM 1.91 35.438 0.171 7.33 1.15 13.82
1/23/2021 9:45:00 AM 1.87 35.366 0.171 7.34 5.2 13.87
1/23/2021 10:00:00 AM 1.85 35.33 0.171 7.34 1.46 13.95
1/23/2021 10:15:00 AM 1.85 35.33 0.171 7.33 0.89 14
1/23/2021 10:30:00 AM 1.86 35.348 0.171 7.31 0.9 14.07
1/23/2021 10:45:00 AM 1.92 35.456 0.171 7.36 1.71 14.11
1/23/2021 11:00:00 AM 1.95 35.51 0.171 7.35 0.79 14.16
1/23/2021 11:15:00 AM 1.98 35.564 0.171 7.37 1.28 14.21
1/23/2021 11:30:00 AM 2.04 35.672 0.17 7.37 0.75 14.24
1/23/2021 11:45:00 AM 2.16 35.888 0.17 7.37 0.78 14.25
1/23/2021 12:00:00 PM 2.28 36.104 0.17 7.39 0.65 14.28
1/23/2021 12:15:00 PM 2.38 36.284 0.17 7.36 1.18 14.29
1/23/2021 12:30:00 PM 2.46 36.428 0.17 7.4 0.59 14.31
1/23/2021 12:45:00 PM 2.54 36.572 0.17 7.37 0.69 14.33
1/23/2021 1:00:00 PM 2.63 36.734 0.17 7.37 0.49 14.32
1/23/2021 1:15:00 PM 2.7 36.86 0.169 7.37 0.58 14.33
1/23/2021 1:30:00 PM 2.78 37.004 0.169 7.39 0.38 14.27
1/23/2021 1:45:00 PM 2.87 37.166 0.169 7.4 1.37 14.29
1/23/2021 2:00:00 PM 2.87 37.166 0.169 7.4 0.48 14.28
1/23/2021 2:15:00 PM 2.83 37.094 0.169 7.41 0.73 14.25
1/23/2021 2:30:00 PM 2.79 37.022 0.169 7.36 0.63 14.24
1/23/2021 2:45:00 PM 2.76 36.968 0.169 7.43 0.45 14.23
1/23/2021 3:00:00 PM 2.74 36.932 0.169 7.4 1.11 14.2
1/23/2021 3:15:00 PM 2.71 36.878 0.169 7.41 0.86 14.2
1/23/2021 3:30:00 PM 2.59 36.662 0.169 7.38 0.54 14.22
1/23/2021 3:45:00 PM 2.5 36.5 0.169 7.41 0.43 14.21
1/23/2021 4:00:00 PM 2.42 36.356 0.169 7.44 0.69 14.2
1/23/2021 4:15:00 PM 2.31 36.158 0.17 7.44 0.81 14.2
1/23/2021 4:30:00 PM 2.2 35.96 0.17 7.41 0.47 14.17
1/23/2021 4:45:00 PM 2.14 35.852 0.17 7.44 0.59 14.19
1/23/2021 5:00:00 PM 2.06 35.708 0.17 7.46 0.73 14.18
1/23/2021 5:15:00 PM 1.96 35.528 0.17 7.45 0.54 14.16
1/23/2021 5:30:00 PM 1.89 35.402 0.17 7.46 0.43 14.14
1/23/2021 5:45:00 PM 1.78 35.204 0.17 7.43 0.41 14.13
1/23/2021 6:00:00 PM 1.68 35.024 0.17 7.45 0.79 14.12
1/23/2021 6:15:00 PM 1.61 34.898 0.17 7.45 0.58 14.11
1/23/2021 6:30:00 PM 1.52 34.736 0.17 7.46 0.51 14.1
1/23/2021 6:45:00 PM 1.44 34.592 0.17 7.44 0.52 14.1
1/23/2021 7:00:00 PM 1.37 34.466 0.17 7.42 0.57 14.11
1/23/2021 7:15:00 PM 1.31 34.358 0.17 7.43 0.63 14.1
1/23/2021 7:30:00 PM 1.28 34.304 0.17 7.44 0.33 14.1
1/23/2021 7:45:00 PM 1.23 34.214 0.17 7.45 0.53 14.09
1/23/2021 8:00:00 PM 1.17 34.106 0.17 7.42 0.87 14.07
1/23/2021 8:15:00 PM 1.12 34.016 0.17 7.4 0.46 14.1
1/23/2021 8:30:00 PM 1.06 33.908 0.17 7.45 0.4 14.12
1/23/2021 8:45:00 PM 1.02 33.836 0.171 7.41 0.34 14.14
1/23/2021 9:00:00 PM 0.98 33.764 0.171 7.42 1 14.14
1/23/2021 9:15:00 PM 0.95 33.71 0.171 7.4 0.59 14.13
1/23/2021 9:30:00 PM 0.91 33.638 0.171 7.44 0.43 14.14
1/23/2021 9:45:00 PM 0.87 33.566 0.171 7.44 0.4 14.16
1/23/2021 10:00:00 PM 0.85 33.53 0.171 7.41 0.94 14.13
1/23/2021 10:15:00 PM 0.81 33.458 0.171 7.38 0.74 14.16
1/23/2021 10:30:00 PM 0.79 33.422 0.171 7.42 1.01 14.17
1/23/2021 10:45:00 PM 0.75 33.35 0.171 7.41 0.67 14.18
1/23/2021 11:00:00 PM 0.71 33.278 0.171 7.39 0.48 14.2
1/23/2021 11:15:00 PM 0.69 33.242 0.171 7.41 0.33 14.2
1/23/2021 11:30:00 PM 0.67 33.206 0.171 7.42 0.5 14.2
1/23/2021 11:45:00 PM 0.65 33.17 0.171 7.41 0.36 14.2
1/24/2021 12:00:00 AM 0.62 33.116 0.171 7.41 0.5 14.22
1/24/2021 12:15:00 AM 0.61 33.098 0.171 7.42 0.52 14.24
1/24/2021 12:30:00 AM 0.59 33.062 0.171 7.42 0.47 14.26
1/24/2021 12:45:00 AM 0.58 33.044 0.171 7.39 0.61 14.27
1/24/2021 1:00:00 AM 0.58 33.044 0.171 7.39 0.72 14.25
1/24/2021 1:15:00 AM 0.57 33.026 0.171 7.41 0.54 14.26
1/24/2021 1:30:00 AM 0.56 33.008 0.171 7.4 1.4 14.27
1/24/2021 1:45:00 AM 0.55 32.99 0.171 7.37 0.3 14.28
1/24/2021 2:00:00 AM 0.54 32.972 0.171 7.41 0.71 14.27
1/24/2021 2:15:00 AM 0.52 32.936 0.171 7.38 0.2 14.29
1/24/2021 2:30:00 AM 0.51 32.918 0.171 7.38 0.7 14.28
1/24/2021 2:45:00 AM 0.5 32.9 0.171 7.37 0.77 14.3
1/24/2021 3:00:00 AM 0.48 32.864 0.171 7.38 0.53 14.3
1/24/2021 3:15:00 AM 0.47 32.846 0.171 7.37 0.68 14.3
1/24/2021 3:30:00 AM 0.46 32.828 0.171 7.4 0.42 14.3
1/24/2021 3:45:00 AM 0.45 32.81 0.171 7.38 0.31 14.33
1/24/2021 4:00:00 AM 0.44 32.792 0.171 7.37 1.27 14.33
1/24/2021 4:15:00 AM 0.42 32.756 0.171 7.39 1.32 14.34
1/24/2021 4:30:00 AM 0.41 32.738 0.172 7.37 0.6 14.36
1/24/2021 4:45:00 AM 0.38 32.684 0.172 7.38 0.6 14.35
1/24/2021 5:00:00 AM 0.36 32.648 0.172 7.37 0.44 14.35
1/24/2021 5:15:00 AM 0.35 32.63 0.172 7.39 0.39 14.37
1/24/2021 5:30:00 AM 0.32 32.576 0.172 7.34 0.7 14.38
1/24/2021 5:45:00 AM 0.3 32.54 0.172 7.38 0.8 14.39
1/24/2021 6:00:00 AM 0.26 32.468 0.172 7.35 0.64 14.4
1/24/2021 6:15:00 AM 0.23 32.414 0.172 7.36 0.93 14.41
1/24/2021 6:30:00 AM 0.2 32.36 0.172 7.35 0.82 14.43
1/24/2021 6:45:00 AM 0.16 32.288 0.172 7.37 0.88 14.43
1/24/2021 7:00:00 AM 0.13 32.234 0.172 7.34 0.57 14.46
1/24/2021 7:15:00 AM 0.09 32.162 0.172 7.33 1.04 14.47
1/24/2021 7:30:00 AM 0.08 32.144 0.172 7.37 1.24 14.48
1/24/2021 7:45:00 AM 0.04 32.072 0.172 7.35 1.18 14.51
1/24/2021 8:00:00 AM 0.03 32.054 0.173 7.36 0.78 14.55
1/24/2021 8:15:00 AM 0 32 0.173 7.34 0.59 14.59
1/24/2021 8:30:00 AM -0.01 31.982 0.173 7.33 0.62 14.64
1/24/2021 8:45:00 AM -0.01 31.982 0.173 7.37 0.84 14.71
1/24/2021 9:00:00 AM -0.02 31.964 0.173 7.33 0.52 14.74
1/24/2021 9:15:00 AM -0.03 31.946 0.173 7.36 0.59 14.82
1/24/2021 9:30:00 AM -0.02 31.964 0.173 7.35 0.42 14.86
1/24/2021 9:45:00 AM -0.02 31.964 0.173 7.35 1.86 14.92
1/24/2021 10:00:00 AM 0 32 0.173 7.38 0.96 14.98
1/24/2021 10:15:00 AM 0.01 32.018 0.172 7.36 0.49 14.98
1/24/2021 10:30:00 AM 0.04 32.072 0.172 7.37 0.9 15.06
1/24/2021 10:45:00 AM 0.11 32.198 0.172 7.37 0.57 15.08
1/24/2021 11:00:00 AM 0.2 32.36 0.172 7.38 0.5 15.13
1/24/2021 11:15:00 AM 0.29 32.522 0.172 7.35 0.93 15.15
1/24/2021 11:30:00 AM 0.42 32.756 0.172 7.31 1.36 15.16
1/24/2021 11:45:00 AM 0.56 33.008 0.172 7.37 0.65 15.13
1/24/2021 12:00:00 PM 0.7 33.26 0.171 7.38 0.45 15.13
1/24/2021 12:15:00 PM 0.83 33.494 0.171 7.4 0.56 15.12
1/24/2021 12:30:00 PM 0.94 33.692 0.171 7.36 1.18 15.12
1/24/2021 12:45:00 PM 1.01 33.818 0.171 7.34 1.59 15.09
1/24/2021 1:00:00 PM 1.16 34.088 0.171 7.38 0.74 15.04
1/24/2021 1:15:00 PM 1.36 34.448 0.17 7.39 0.68 14.98
1/24/2021 1:30:00 PM 1.54 34.772 0.17 7.38 0.5 14.96
1/24/2021 1:45:00 PM 1.66 34.988 0.17 7.39 0.29 14.94
1/24/2021 2:00:00 PM 1.79 35.222 0.17 7.36 0.67 14.91
1/24/2021 2:15:00 PM 1.84 35.312 0.17 7.36 0.55 14.92
1/24/2021 2:30:00 PM 1.88 35.384 0.17 7.36 0.41 14.88
1/24/2021 2:45:00 PM 1.88 35.384 0.17 7.36 0.36 14.82
1/24/2021 3:00:00 PM 1.9 35.42 0.17 7.35 0.71 14.81
1/24/2021 3:15:00 PM 1.87 35.366 0.17 7.4 0.33 14.78
1/24/2021 3:30:00 PM 1.85 35.33 0.17 7.41 0.56 14.74
1/24/2021 3:45:00 PM 1.83 35.294 0.17 7.38 0.52 14.72
1/24/2021 4:00:00 PM 1.8 35.24 0.17 7.4 0.89 14.68
1/24/2021 4:15:00 PM 1.77 35.186 0.17 7.42 0.86 14.69
1/24/2021 4:30:00 PM 1.72 35.096 0.17 7.41 0.76 14.66
1/24/2021 4:45:00 PM 1.68 35.024 0.17 7.36 0.78 14.61
1/24/2021 5:00:00 PM 1.63 34.934 0.17 7.42 0.24 14.58
1/24/2021 5:15:00 PM 1.57 34.826 0.17 7.4 0.39 14.54
1/24/2021 5:30:00 PM 1.52 34.736 0.17 7.4 0.66 14.49
1/24/2021 5:45:00 PM 1.49 34.682 0.17 7.43 0.46 14.45
1/24/2021 6:00:00 PM 1.44 34.592 0.17 7.41 0.74 14.4
1/24/2021 6:15:00 PM 1.4 34.52 0.17 7.42 0.4 14.37
1/24/2021 6:30:00 PM 1.38 34.484 0.17 7.41 0.27 14.32
1/24/2021 6:45:00 PM 1.36 34.448 0.17 7.42 0.69 14.3
1/24/2021 7:00:00 PM 1.35 34.43 0.17 7.4 0.36 14.28
1/24/2021 7:15:00 PM 1.35 34.43 0.17 7.41 0.28 14.24
1/24/2021 7:30:00 PM 1.34 34.412 0.17 7.41 0.41 14.21
1/24/2021 7:45:00 PM 1.34 34.412 0.17 7.41 0.49 14.19
1/24/2021 8:00:00 PM 1.33 34.394 0.17 7.41 0.33 14.16
1/24/2021 8:15:00 PM 1.33 34.394 0.17 7.41 2.55 14.16
1/24/2021 8:30:00 PM 1.33 34.394 0.17 7.43 2.55 14.13
1/24/2021 8:45:00 PM 1.33 34.394 0.17 7.4 0.43 14.11
1/24/2021 9:00:00 PM 1.33 34.394 0.17 7.4 0.23 14.09
1/24/2021 9:15:00 PM 1.34 34.412 0.17 7.4 0.5 14.07
1/24/2021 9:30:00 PM 1.35 34.43 0.17 7.4 0.56 14.05
1/24/2021 9:45:00 PM 1.35 34.43 0.17 7.39 0.26 14.04
1/24/2021 10:00:00 PM 1.35 34.43 0.17 7.39 0.13 14.02
1/24/2021 10:15:00 PM 1.36 34.448 0.17 7.4 0.31 14.01
1/24/2021 10:30:00 PM 1.36 34.448 0.17 7.41 0.27 13.99
1/24/2021 10:45:00 PM 1.36 34.448 0.17 7.37 0.55 13.98
1/24/2021 11:00:00 PM 1.37 34.466 0.17 7.39 0.66 13.97
1/24/2021 11:15:00 PM 1.38 34.484 0.17 7.4 0.16 13.95
1/24/2021 11:30:00 PM 1.38 34.484 0.17 7.38 0.36 13.96
1/24/2021 11:45:00 PM 1.39 34.502 0.17 7.31 0.42 13.95
1/25/2021 12:00:00 AM 1.4 34.52 0.17 7.38 0.33 13.92
1/25/2021 12:15:00 AM 1.41 34.538 0.17 7.38 0.95 13.92
1/25/2021 12:30:00 AM 1.42 34.556 0.17 7.37 0.64 13.91
1/25/2021 12:45:00 AM 1.43 34.574 0.17 7.36 0.28 13.88
1/25/2021 1:00:00 AM 1.45 34.61 0.17 7.37 0.44 13.89
1/25/2021 1:15:00 AM 1.46 34.628 0.17 7.38 0.76 13.87
1/25/2021 1:30:00 AM 1.47 34.646 0.17 7.38 0.28 13.86
1/25/2021 1:45:00 AM 1.48 34.664 0.171 7.36 0.36 13.86
1/25/2021 2:00:00 AM 1.5 34.7 0.17 7.38 0.28 13.82
1/25/2021 2:15:00 AM 1.51 34.718 0.171 7.37 0.62 13.82
1/25/2021 2:30:00 AM 1.52 34.736 0.171 7.33 0.31 13.82
1/25/2021 2:45:00 AM 1.54 34.772 0.171 7.34 1.64 13.82
1/25/2021 3:00:00 AM 1.55 34.79 0.171 7.34 0.58 13.81
1/25/2021 3:15:00 AM 1.56 34.808 0.171 7.36 0.32 13.8
1/25/2021 3:30:00 AM 1.57 34.826 0.171 7.33 0.51 13.79
1/25/2021 3:45:00 AM 1.58 34.844 0.171 7.35 0.35 13.8
1/25/2021 4:00:00 AM 1.57 34.826 0.171 7.29 0.6 13.79
1/25/2021 4:15:00 AM 1.58 34.844 0.171 7.36 0.42 13.79
1/25/2021 4:30:00 AM 1.58 34.844 0.171 7.33 0.4 13.8
1/25/2021 4:45:00 AM 1.58 34.844 0.171 7.33 0.13 13.79
1/25/2021 5:00:00 AM 1.59 34.862 0.171 7.34 0.55 13.78
1/25/2021 5:15:00 AM 1.6 34.88 0.171 7.31 0.92 13.78
1/25/2021 5:30:00 AM 1.6 34.88 0.171 7.33 0.53 13.77
1/25/2021 5:45:00 AM 1.61 34.898 0.171 7.33 1.23 13.75
1/25/2021 6:00:00 AM 1.61 34.898 0.171 7.33 1.15 13.77
1/25/2021 6:15:00 AM 1.62 34.916 0.171 7.32 0.28 13.76
1/25/2021 6:30:00 AM 1.62 34.916 0.171 7.31 0.85 13.76
1/25/2021 6:45:00 AM 1.63 34.934 0.171 7.32 0.65 13.76
1/25/2021 7:00:00 AM 1.63 34.934 0.171 7.33 1.08 13.76
1/25/2021 7:15:00 AM 1.63 34.934 0.171 7.33 0.67 13.76
1/25/2021 7:30:00 AM 1.64 34.952 0.171 7.31 1.02 13.75
1/25/2021 7:45:00 AM 1.65 34.97 0.171 7.33 1.77 13.76
1/25/2021 8:00:00 AM 1.66 34.988 0.171 7.32 0.81 13.75
1/25/2021 8:15:00 AM 1.67 35.006 0.171 7.3 0.66 13.76
1/25/2021 8:30:00 AM 1.68 35.024 0.171 7.33 1.13 13.81
1/25/2021 8:45:00 AM 1.7 35.06 0.171 7.34 0.77 13.83
1/25/2021 9:00:00 AM 1.72 35.096 0.171 7.34 0.76 13.86
1/25/2021 9:15:00 AM 1.75 35.15 0.171 7.32 0.52 13.96
1/25/2021 9:30:00 AM 1.77 35.186 0.171 7.33 0.38 14
1/25/2021 9:45:00 AM 1.8 35.24 0.171 7.33 0.64 14.03
1/25/2021 10:00:00 AM 1.83 35.294 0.171 7.32 0.62 14.08
1/25/2021 10:15:00 AM 1.87 35.366 0.171 7.33 0.42 14.11
1/25/2021 10:30:00 AM 1.9 35.42 0.171 7.32 0.45 14.15
1/25/2021 10:45:00 AM 1.93 35.474 0.171 7.35 0.49 14.17
1/25/2021 11:00:00 AM 1.97 35.546 0.171 7.36 1.87 14.2
1/25/2021 11:15:00 AM 2 35.6 0.171 7.34 0.65 14.18
1/25/2021 11:30:00 AM 2.04 35.672 0.171 7.35 0.33 14.22
1/25/2021 11:45:00 AM 2.08 35.744 0.171 7.35 1.88 14.26
1/25/2021 12:00:00 PM 2.11 35.798 0.171 7.38 0.4 14.25
1/25/2021 12:15:00 PM 2.15 35.87 0.171 7.36 0.65 14.27
1/25/2021 12:30:00 PM 2.2 35.96 0.171 7.36 0.44 14.28
1/25/2021 12:45:00 PM 2.25 36.05 0.17 7.38 0.36 14.3
1/25/2021 1:00:00 PM 2.29 36.122 0.17 7.37 0.51 14.3
1/25/2021 1:15:00 PM 2.34 36.212 0.17 7.38 0.52 14.29
1/25/2021 1:30:00 PM 2.37 36.266 0.17 7.39 0.38 14.3
1/25/2021 1:45:00 PM 2.4 36.32 0.17 7.39 0.72 14.3
1/25/2021 2:00:00 PM 2.43 36.374 0.17 7.38 0.32 14.28
1/25/2021 2:15:00 PM 2.46 36.428 0.17 7.39 0.94 14.26
1/25/2021 2:30:00 PM 2.49 36.482 0.17 7.39 0.63 14.25
1/25/2021 2:45:00 PM 2.52 36.536 0.17 7.39 0.33 14.26
1/25/2021 3:00:00 PM 2.55 36.59 0.17 7.39 0.3 14.23
1/25/2021 3:15:00 PM 2.58 36.644 0.17 7.4 0.44 14.24
1/25/2021 3:30:00 PM 2.61 36.698 0.169 7.4 0.23 14.22
1/25/2021 3:45:00 PM 2.63 36.734 0.169 7.39 0.75 14.23
1/25/2021 4:00:00 PM 2.64 36.752 0.169 7.42 1.34 14.21
1/25/2021 4:15:00 PM 2.65 36.77 0.169 7.41 0.38 14.18
1/25/2021 4:30:00 PM 2.65 36.77 0.169 7.42 0.52 14.16
1/25/2021 4:45:00 PM 2.65 36.77 0.169 7.42 0.64 14.12
1/25/2021 5:00:00 PM 2.64 36.752 0.17 7.42 0.37 14.07
1/25/2021 5:15:00 PM 2.63 36.734 0.17 7.42 0.34 14
1/25/2021 5:30:00 PM 2.63 36.734 0.17 7.41 0.53 13.94
1/25/2021 5:45:00 PM 2.61 36.698 0.17 7.43 0.39 13.86
1/25/2021 6:00:00 PM 2.6 36.68 0.17 7.42 1.23 13.83
1/25/2021 6:15:00 PM 2.58 36.644 0.17 7.4 0.37 13.76
1/25/2021 6:30:00 PM 2.57 36.626 0.17 7.42 0.25 13.72
1/25/2021 6:45:00 PM 2.56 36.608 0.17 7.42 0.7 13.69
1/25/2021 7:00:00 PM 2.55 36.59 0.17 7.42 0.68 13.66
1/25/2021 7:15:00 PM 2.54 36.572 0.17 7.42 0.71 13.64
1/25/2021 7:30:00 PM 2.53 36.554 0.17 7.39 0.55 13.61
1/25/2021 7:45:00 PM 2.52 36.536 0.17 7.41 0.28 13.58
1/25/2021 8:00:00 PM 2.51 36.518 0.17 7.41 0.24 13.56
1/25/2021 8:15:00 PM 2.5 36.5 0.17 7.42 0.38 13.55
1/25/2021 8:30:00 PM 2.49 36.482 0.17 7.42 1.06 13.52
1/25/2021 8:45:00 PM 2.48 36.464 0.17 7.42 0.36 13.5
1/25/2021 9:00:00 PM 2.47 36.446 0.17 7.41 0.39 13.5
1/25/2021 9:15:00 PM 2.46 36.428 0.17 7.42 0.53 13.48
1/25/2021 9:30:00 PM 2.43 36.374 0.17 7.4 0.52 13.48
1/25/2021 9:45:00 PM 2.39 36.302 0.17 7.41 0.79 13.48
1/25/2021 10:00:00 PM 2.35 36.23 0.17 7.41 0.36 13.47
1/25/2021 10:15:00 PM 2.33 36.194 0.17 7.39 0.1 13.46
1/25/2021 10:30:00 PM 2.31 36.158 0.17 7.39 0.27 13.46
1/25/2021 10:45:00 PM 2.32 36.176 0.17 7.4 0.26 13.46
1/25/2021 11:00:00 PM 2.32 36.176 0.17 7.39 0.21 13.46
1/25/2021 11:15:00 PM 2.32 36.176 0.17 7.36 0.5 13.44
1/25/2021 11:30:00 PM 2.31 36.158 0.17 7.4 0.63 13.43
1/25/2021 11:45:00 PM 2.3 36.14 0.17 7.4 1.51 13.44
1/26/2021 12:00:00 AM 2.28 36.104 0.17 7.4 0.57 13.44
1/26/2021 12:15:00 AM 2.26 36.068 0.17 7.39 0.47 13.43
1/26/2021 12:30:00 AM 2.25 36.05 0.17 7.4 0.71 13.43
1/26/2021 12:45:00 AM 2.24 36.032 0.17 7.39 0.74 13.42
1/26/2021 1:00:00 AM 2.23 36.014 0.17 7.39 0.61 13.43
1/26/2021 1:15:00 AM 2.23 36.014 0.17 7.38 1.13 13.44
1/26/2021 1:30:00 AM 2.22 35.996 0.169 7.38 0.62 13.44
1/26/2021 1:45:00 AM 2.23 36.014 0.169 7.37 0.59 13.43
1/26/2021 2:00:00 AM 2.23 36.014 0.169 7.37 0.55 13.44
1/26/2021 2:15:00 AM 2.23 36.014 0.169 7.37 0.27 13.44
1/26/2021 2:30:00 AM 2.24 36.032 0.169 7.37 0.33 13.43
1/26/2021 2:45:00 AM 2.24 36.032 0.17 7.36 0.18 13.44
1/26/2021 3:00:00 AM 2.24 36.032 0.17 7.36 0.36 13.44
1/26/2021 3:15:00 AM 2.24 36.032 0.17 7.35 0.75 13.43
1/26/2021 3:30:00 AM 2.24 36.032 0.17 7.36 0.38 13.44
1/26/2021 3:45:00 AM 2.24 36.032 0.17 7.36 0.27 13.42
1/26/2021 4:00:00 AM 2.23 36.014 0.17 7.36 0.34 13.43
1/26/2021 4:15:00 AM 2.23 36.014 0.17 7.33 0.28 13.43
1/26/2021 4:30:00 AM 2.24 36.032 0.17 7.35 0.37 13.42
1/26/2021 4:45:00 AM 2.24 36.032 0.17 7.33 0.34 13.43
1/26/2021 5:00:00 AM 2.25 36.05 0.17 7.36 1.07 13.43
1/26/2021 5:15:00 AM 2.25 36.05 0.17 7.33 0.49 13.43
1/26/2021 5:30:00 AM 2.25 36.05 0.17 7.33 0.42 13.42
1/26/2021 5:45:00 AM 2.24 36.032 0.17 7.34 0.32 13.42
1/26/2021 6:00:00 AM 2.24 36.032 0.17 7.32 0.45 13.42
1/26/2021 6:15:00 AM 2.24 36.032 0.17 7.33 0.41 13.42
1/26/2021 6:30:00 AM 2.24 36.032 0.17 7.34 0.21 13.43
1/26/2021 6:45:00 AM 2.24 36.032 0.17 7.34 0.56 13.42
1/26/2021 7:00:00 AM 2.24 36.032 0.17 7.33 0.63 13.43
1/26/2021 7:15:00 AM 2.23 36.014 0.17 7.31 0.52 13.42
1/26/2021 7:30:00 AM 2.23 36.014 0.17 7.34 1.26 13.42
1/26/2021 7:45:00 AM 2.23 36.014 0.17 7.34 0.45 13.45
1/26/2021 8:00:00 AM 2.23 36.014 0.17 7.34 0.33 13.44
1/26/2021 8:15:00 AM 2.24 36.032 0.17 7.31 0.38 13.46
1/26/2021 8:30:00 AM 2.24 36.032 0.17 7.33 0.59 13.48
1/26/2021 8:45:00 AM 2.25 36.05 0.17 7.32 0.27 13.51
1/26/2021 9:00:00 AM 2.26 36.068 0.17 7.34 0.53 13.58
1/26/2021 9:15:00 AM 2.27 36.086 0.17 7.32 0.47 13.61
1/26/2021 9:30:00 AM 2.28 36.104 0.17 7.35 0.59 13.66
1/26/2021 9:45:00 AM 2.29 36.122 0.17 7.34 0.45 13.66
1/26/2021 10:00:00 AM 2.3 36.14 0.17 7.34 0.99 13.72
1/26/2021 10:15:00 AM 2.32 36.176 0.17 7.34 0.59 13.75
1/26/2021 10:30:00 AM 2.34 36.212 0.17 7.34 0.38 13.79
1/26/2021 10:45:00 AM 2.36 36.248 0.17 7.33 0.97 13.82
1/26/2021 11:00:00 AM 2.38 36.284 0.17 7.35 0.18 13.84
1/26/2021 11:15:00 AM 2.4 36.32 0.169 7.34 0.42 13.88
1/26/2021 11:30:00 AM 2.43 36.374 0.169 7.35 0.3 13.9
1/26/2021 11:45:00 AM 2.45 36.41 0.169 7.36 0.41 13.9
1/26/2021 12:00:00 PM 2.47 36.446 0.169 7.36 0.38 13.95
1/26/2021 12:15:00 PM 2.5 36.5 0.169 7.36 0.35 13.96
1/26/2021 12:30:00 PM 2.52 36.536 0.169 7.37 0.23 13.97
1/26/2021 12:45:00 PM 2.55 36.59 0.169 7.35 0.29 13.98
1/26/2021 1:00:00 PM 2.57 36.626 0.169 7.36 0.29 14
1/26/2021 1:15:00 PM 2.6 36.68 0.169 7.39 0.4 13.99
1/26/2021 1:30:00 PM 2.62 36.716 0.169 7.38 0.27 13.98
1/26/2021 1:45:00 PM 2.66 36.788 0.168 7.37 0.82 13.98
1/26/2021 2:00:00 PM 2.68 36.824 0.168 7.38 10.19 13.97
1/26/2021 2:15:00 PM 2.72 36.896 0.168 7.39 0.98 13.98
1/26/2021 2:30:00 PM 2.75 36.95 0.168 7.38 0.51 13.99
1/26/2021 2:45:00 PM 2.77 36.986 0.168 7.4 1.22 13.98
1/26/2021 3:00:00 PM 2.79 37.022 0.168 7.4 0.78 13.97
1/26/2021 3:15:00 PM 2.81 37.058 0.168 7.39 0.5 13.94
1/26/2021 3:30:00 PM 2.83 37.094 0.168 7.4 0.51 13.92
1/26/2021 3:45:00 PM 2.85 37.13 0.168 7.39 1.17 13.91
1/26/2021 4:00:00 PM 2.86 37.148 0.168 7.41 0.61 13.87
1/26/2021 4:15:00 PM 2.87 37.166 0.168 7.4 1.29 13.84
1/26/2021 4:30:00 PM 2.88 37.184 0.168 7.42 1.06 13.8
1/26/2021 4:45:00 PM 2.89 37.202 0.168 7.42 0.5 13.75
1/26/2021 5:00:00 PM 2.9 37.22 0.168 7.41 0.53 13.72
1/26/2021 5:15:00 PM 2.9 37.22 0.168 7.42 0.74 13.67
1/26/2021 5:30:00 PM 2.91 37.238 0.168 7.41 0.51 13.61
1/26/2021 5:45:00 PM 2.91 37.238 0.168 7.42 0.69 13.56
1/26/2021 6:00:00 PM 2.91 37.238 0.168 7.4 0.45 13.51
1/26/2021 6:15:00 PM 2.91 37.238 0.168 7.41 0.52 13.48
1/26/2021 6:30:00 PM 2.92 37.256 0.168 7.41 1.08 13.45
1/26/2021 6:45:00 PM 2.92 37.256 0.168 7.4 0.5 13.4
1/26/2021 7:00:00 PM 2.92 37.256 0.168 7.41 0.51 13.38
1/26/2021 7:15:00 PM 2.92 37.256 0.168 7.41 0.89 13.34
1/26/2021 7:30:00 PM 2.92 37.256 0.168 7.41 0.52 13.33
1/26/2021 7:45:00 PM 2.92 37.256 0.168 7.41 0.32 13.31
1/26/2021 8:00:00 PM 2.93 37.274 0.168 7.4 0.2 13.26
1/26/2021 8:15:00 PM 2.93 37.274 0.168 7.39 0.35 13.26
1/26/2021 8:30:00 PM 2.93 37.274 0.168 7.32 0.77 13.23
1/26/2021 8:45:00 PM 2.93 37.274 0.168 7.4 0.56 13.23
1/26/2021 9:00:00 PM 2.94 37.292 0.168 7.4 0.62 13.2
1/26/2021 9:15:00 PM 2.94 37.292 0.168 7.39 0.61 13.19
1/26/2021 9:30:00 PM 2.94 37.292 0.168 7.39 0.48 13.17
1/26/2021 9:45:00 PM 2.94 37.292 0.168 7.38 0.63 13.17
1/26/2021 10:00:00 PM 2.95 37.31 0.169 7.36 0.96 13.14
1/26/2021 10:15:00 PM 2.95 37.31 0.169 7.36 0.42 13.14
1/26/2021 10:30:00 PM 2.96 37.328 0.169 7.37 0.42 13.13
1/26/2021 10:45:00 PM 2.96 37.328 0.169 7.37 0.45 13.12
1/26/2021 11:00:00 PM 2.97 37.346 0.169 7.37 0.52 13.12
1/26/2021 11:15:00 PM 2.97 37.346 0.169 7.37 0.5 13.11
1/26/2021 11:30:00 PM 2.98 37.364 0.169 7.36 0.53 13.11
1/26/2021 11:45:00 PM 2.98 37.364 0.169 7.37 0.94 13.09
1/27/2021 12:00:00 AM 2.99 37.382 0.169 7.36 0.46 13.09
1/27/2021 12:15:00 AM 2.99 37.382 0.169 7.34 0.31 13.08
1/27/2021 12:30:00 AM 2.99 37.382 0.169 7.34 0.73 13.07
1/27/2021 12:45:00 AM 3 37.4 0.169 7.35 0.55 13.07
1/27/2021 1:00:00 AM 3 37.4 0.169 7.35 0.95 13.07
1/27/2021 1:15:00 AM 3 37.4 0.169 7.35 0.47 13.07
1/27/2021 1:30:00 AM 3 37.4 0.169 7.34 0.94 13.06
1/27/2021 1:45:00 AM 3 37.4 0.169 7.34 0.36 13.07
1/27/2021 2:00:00 AM 3 37.4 0.169 7.34 0.51 13.07
1/27/2021 2:15:00 AM 3 37.4 0.169 7.35 0.89 13.06
1/27/2021 2:30:00 AM 3 37.4 0.169 7.35 0.48 13.05
1/27/2021 2:45:00 AM 3 37.4 0.169 7.34 0.75 13.05
1/27/2021 3:00:00 AM 3 37.4 0.169 7.34 0.66 13.07
1/27/2021 3:15:00 AM 3 37.4 0.17 7.35 0.67 13.06
1/27/2021 3:30:00 AM 2.99 37.382 0.17 7.34 1.13 13.06
1/27/2021 3:45:00 AM 2.98 37.364 0.17 7.33 0.7 13.06
1/27/2021 4:00:00 AM 2.96 37.328 0.17 7.34 0.29 13.07
1/27/2021 4:15:00 AM 2.96 37.328 0.17 7.33 0.5 13.05
1/27/2021 4:30:00 AM 2.95 37.31 0.17 7.33 0.49 13.07
1/27/2021 4:45:00 AM 2.95 37.31 0.17 7.33 0.47 13.08
1/27/2021 5:00:00 AM 2.95 37.31 0.17 7.33 0.24 13.08
1/27/2021 5:15:00 AM 2.95 37.31 0.17 7.33 0.32 13.09
1/27/2021 5:30:00 AM 2.94 37.292 0.17 7.32 0.94 13.07
1/27/2021 5:45:00 AM 2.94 37.292 0.171 7.33 0.69 13.08
1/27/2021 6:00:00 AM 2.94 37.292 0.171 7.31 0.35 13.09
1/27/2021 6:15:00 AM 2.93 37.274 0.171 7.33 0.38 13.1
1/27/2021 6:30:00 AM 2.94 37.292 0.171 7.31 0.72 13.09
1/27/2021 6:45:00 AM 2.94 37.292 0.171 7.32 0.33 13.1
1/27/2021 7:00:00 AM 2.94 37.292 0.171 7.29 0.66 13.1
1/27/2021 7:15:00 AM 2.94 37.292 0.171 7.32 1.98 13.11
1/27/2021 7:30:00 AM 2.94 37.292 0.171 7.32 0.43 13.12
1/27/2021 7:45:00 AM 2.94 37.292 0.171 7.28 0.72 13.11
1/27/2021 8:00:00 AM 2.95 37.31 0.172 7.32 4.69 13.13
1/27/2021 8:15:00 AM 2.96 37.328 0.172 7.32 0.4 13.15
1/27/2021 8:30:00 AM 2.97 37.346 0.172 7.3 0.51 13.18
1/27/2021 8:45:00 AM 2.99 37.382 0.172 7.31 1.97 13.23
1/27/2021 9:00:00 AM 3 37.4 0.172 7.32 1.52 13.27
1/27/2021 9:15:00 AM 3.03 37.454 0.172 7.3 1.58 13.34
1/27/2021 9:30:00 AM 3.06 37.508 0.172 7.32 0.89 13.37
1/27/2021 9:45:00 AM 3.12 37.616 0.172 7.32 0.73 13.44
1/27/2021 10:00:00 AM 3.17 37.706 0.171 7.33 0.69 13.53
1/27/2021 10:15:00 AM 3.23 37.814 0.171 7.33 0.61 13.6
1/27/2021 10:30:00 AM 3.26 37.868 0.171 7.34 0.46 13.67
1/27/2021 10:45:00 AM 3.33 37.994 0.171 7.32 0.56 13.71
1/27/2021 11:00:00 AM 3.38 38.084 0.171 7.35 0.51 13.74
1/27/2021 11:15:00 AM 3.43 38.174 0.171 7.35 0.38 13.76
1/27/2021 11:30:00 AM 3.49 38.282 0.171 7.35 0.51 13.77
1/27/2021 11:45:00 AM 3.58 38.444 0.171 7.35 0.68 13.78
1/27/2021 12:00:00 PM 3.66 38.588 0.171 7.36 0.8 13.81
1/27/2021 12:15:00 PM 3.69 38.642 0.171 7.36 0.45 13.83
1/27/2021 12:30:00 PM 3.77 38.786 0.171 7.36 0.84 13.83
1/27/2021 12:45:00 PM 3.86 38.948 0.171 7.36 0.55 13.82
1/27/2021 1:00:00 PM 3.91 39.038 0.171 7.37 0.48 13.83
1/27/2021 1:15:00 PM 3.98 39.164 0.171 7.37 0.32 13.8
1/27/2021 1:30:00 PM 4.06 39.308 0.171 7.37 0.44 13.82
1/27/2021 1:45:00 PM 4.23 39.614 0.171 7.39 0.42 13.8
1/27/2021 2:00:00 PM 4.44 39.992 0.171 7.39 0.55 13.8
1/27/2021 2:15:00 PM 4.51 40.118 0.171 7.39 3.04 13.81
1/27/2021 2:30:00 PM 4.56 40.208 0.171 7.41 0.65 13.82
1/27/2021 2:45:00 PM 4.54 40.172 0.171 7.4 1 13.77
1/27/2021 3:00:00 PM 4.58 40.244 0.171 7.4 0.56 13.73
1/27/2021 3:15:00 PM 4.58 40.244 0.171 7.43 0.47 13.73
1/27/2021 3:30:00 PM 4.6 40.28 0.171 7.43 0.59 13.69
1/27/2021 3:45:00 PM 4.61 40.298 0.171 7.44 0.32 13.67
1/27/2021 4:00:00 PM 4.59 40.262 0.171 7.44 0.59 13.65
1/27/2021 4:15:00 PM 4.58 40.244 0.171 7.43 0.63 13.6
1/27/2021 4:30:00 PM 4.56 40.208 0.171 7.44 0.87 13.56
1/27/2021 4:45:00 PM 4.51 40.118 0.171 7.45 0.48 13.52
1/27/2021 5:00:00 PM 4.46 40.028 0.171 7.45 0.27 13.47
1/27/2021 5:15:00 PM 4.4 39.92 0.171 7.44 0.61 13.43
1/27/2021 5:30:00 PM 4.34 39.812 0.172 7.47 0.39 13.36
1/27/2021 5:45:00 PM 4.27 39.686 0.172 7.46 0.58 13.31
1/27/2021 6:00:00 PM 4.21 39.578 0.172 7.46 0.51 13.24
1/27/2021 6:15:00 PM 4.14 39.452 0.172 7.45 0.54 13.18
1/27/2021 6:30:00 PM 4.07 39.326 0.172 7.46 0.62 13.14
1/27/2021 6:45:00 PM 4.02 39.236 0.172 7.46 0.49 13.12
1/27/2021 7:00:00 PM 3.96 39.128 0.173 7.47 0.5 13.09
1/27/2021 7:15:00 PM 3.9 39.02 0.173 7.46 0.33 13.08
1/27/2021 7:30:00 PM 3.86 38.948 0.173 7.47 0.33 13.04
1/27/2021 7:45:00 PM 3.82 38.876 0.173 7.46 0.77 13.04
1/27/2021 8:00:00 PM 3.79 38.822 0.173 7.42 0.62 13.01
1/27/2021 8:15:00 PM 3.76 38.768 0.173 7.45 0.92 13.02
1/27/2021 8:30:00 PM 3.73 38.714 0.174 7.45 0.87 13
1/27/2021 8:45:00 PM 3.71 38.678 0.174 7.45 0.71 12.98
1/27/2021 9:00:00 PM 3.68 38.624 0.174 7.45 0.45 12.99
1/27/2021 9:15:00 PM 3.65 38.57 0.174 7.43 0.58 12.96
1/27/2021 9:30:00 PM 3.63 38.534 0.175 7.44 0.69 12.94
1/27/2021 9:45:00 PM 3.61 38.498 0.175 7.44 0.78 12.95
1/27/2021 10:00:00 PM 3.57 38.426 0.175 7.44 0.8 12.95
1/27/2021 10:15:00 PM 3.54 38.372 0.175 7.42 0.47 12.96
1/27/2021 10:30:00 PM 3.52 38.336 0.176 7.43 0.34 12.95
1/27/2021 10:45:00 PM 3.5 38.3 0.176 7.43 0.74 12.95
1/27/2021 11:00:00 PM 3.47 38.246 0.176 7.43 0.68 12.95
1/27/2021 11:15:00 PM 3.45 38.21 0.176 7.41 0.38 12.94
1/27/2021 11:30:00 PM 3.43 38.174 0.177 7.43 0.65 12.95
1/27/2021 11:45:00 PM 3.41 38.138 0.177 7.41 0.36 12.96
1/28/2021 12:00:00 AM 3.38 38.084 0.177 7.41 1.55 12.96
1/28/2021 12:15:00 AM 3.35 38.03 0.177 7.41 0.43 12.96
1/28/2021 12:30:00 AM 3.33 37.994 0.177 7.39 0.57 12.97
1/28/2021 12:45:00 AM 3.3 37.94 0.177 7.4 0.3 12.96
1/28/2021 1:00:00 AM 3.27 37.886 0.177 7.4 0.88 12.96
1/28/2021 1:15:00 AM 3.24 37.832 0.177 7.4 0.6 12.99
1/28/2021 1:30:00 AM 3.2 37.76 0.177 7.4 0.87 12.99
1/28/2021 1:45:00 AM 3.16 37.688 0.178 7.35 0.67 13
1/28/2021 2:00:00 AM 3.14 37.652 0.177 7.38 0.56 13
1/28/2021 2:15:00 AM 3.1 37.58 0.178 7.39 0.64 13.01
1/28/2021 2:30:00 AM 3.05 37.49 0.178 7.38 0.29 13.02
1/28/2021 2:45:00 AM 3.02 37.436 0.177 7.38 0.38 13.04
1/28/2021 3:00:00 AM 2.98 37.364 0.177 7.39 0.39 13.05
1/28/2021 3:15:00 AM 2.94 37.292 0.177 7.38 0.73 13.06
1/28/2021 3:30:00 AM 2.9 37.22 0.177 7.38 1.5 13.07
1/28/2021 3:45:00 AM 2.86 37.148 0.177 7.37 0.52 13.08
1/28/2021 4:00:00 AM 2.82 37.076 0.177 7.38 0.26 13.1
1/28/2021 4:15:00 AM 2.79 37.022 0.177 7.36 0.43 13.12
1/28/2021 4:30:00 AM 2.77 36.986 0.177 7.37 0.44 13.11
1/28/2021 4:45:00 AM 2.75 36.95 0.177 7.37 0.7 13.13
1/28/2021 5:00:00 AM 2.71 36.878 0.177 7.35 1.21 13.13
1/28/2021 5:15:00 AM 2.68 36.824 0.177 7.37 0.88 13.16
1/28/2021 5:30:00 AM 2.64 36.752 0.177 7.38 0.55 13.19
1/28/2021 5:45:00 AM 2.59 36.662 0.177 7.34 1.04 13.2
1/28/2021 6:00:00 AM 2.56 36.608 0.177 7.34 0.75 13.22
1/28/2021 6:15:00 AM 2.51 36.518 0.177 7.37 0.82 13.22
1/28/2021 6:30:00 AM 2.46 36.428 0.177 7.36 0.61 13.26
1/28/2021 6:45:00 AM 2.41 36.338 0.177 7.36 0.71 13.28
1/28/2021 7:00:00 AM 2.35 36.23 0.177 7.37 0.53 13.32
1/28/2021 7:15:00 AM 2.3 36.14 0.177 7.36 1.98 13.32
1/28/2021 7:30:00 AM 2.25 36.05 0.177 7.35 1.45 13.35
1/28/2021 7:45:00 AM 2.2 35.96 0.177 7.35 1.03 13.38
1/28/2021 8:00:00 AM 2.14 35.852 0.177 7.35 1.43 13.41
1/28/2021 8:15:00 AM 2.11 35.798 0.177 7.32 0.69 13.47
1/28/2021 8:30:00 AM 2.07 35.726 0.177 7.36 0.83 13.57
1/28/2021 8:45:00 AM 2.05 35.69 0.177 7.37 0.56 13.64
1/28/2021 9:00:00 AM 2.01 35.618 0.177 7.36 0.76 13.75
1/28/2021 9:15:00 AM 1.97 35.546 0.177 7.35 1 13.82
1/28/2021 9:30:00 AM 1.95 35.51 0.176 7.38 0.66 13.96
1/28/2021 9:45:00 AM 1.92 35.456 0.176 7.38 1.98 14.02
1/28/2021 10:00:00 AM 1.85 35.33 0.176 7.39 0.78 14.09
1/28/2021 10:15:00 AM 1.81 35.258 0.176 7.37 0.77 14.15
1/28/2021 10:30:00 AM 1.8 35.24 0.176 7.4 0.7 14.19
1/28/2021 10:45:00 AM 1.8 35.24 0.176 7.4 0.42 14.25
1/28/2021 11:00:00 AM 1.83 35.294 0.176 7.42 0.55 14.32
1/28/2021 11:15:00 AM 1.88 35.384 0.176 7.4 0.53 14.33
1/28/2021 11:30:00 AM 1.97 35.546 0.176 7.4 0.47 14.37
1/28/2021 11:45:00 AM 2.04 35.672 0.176 7.42 0.81 14.41
1/28/2021 12:00:00 PM 2.18 35.924 0.175 7.41 0.5 14.41
1/28/2021 12:15:00 PM 2.28 36.104 0.175 7.39 0.64 14.42
1/28/2021 12:30:00 PM 2.43 36.374 0.175 7.41 0.52 14.43
1/28/2021 12:45:00 PM 2.51 36.518 0.175 7.43 0.78 14.42
1/28/2021 1:00:00 PM 2.7 36.86 0.174 7.43 0.38 14.39
1/28/2021 1:15:00 PM 2.89 37.202 0.174 7.37 0.35 14.4
1/28/2021 1:30:00 PM 3.06 37.508 0.174 7.42 0.64 14.4
1/28/2021 1:45:00 PM 3.15 37.67 0.174 7.42 0.52 14.41
1/28/2021 2:00:00 PM 3.17 37.706 0.174 7.43 0.82 14.36
1/28/2021 2:15:00 PM 3.13 37.634 0.174 7.43 0.47 14.35
1/28/2021 2:30:00 PM 3.13 37.634 0.173 7.44 0.35 14.31
1/28/2021 2:45:00 PM 3.11 37.598 0.173 7.45 0.38 14.28
1/28/2021 3:00:00 PM 3.08 37.544 0.173 7.41 0.39 14.29
1/28/2021 3:15:00 PM 3.08 37.544 0.173 7.43 0.36 14.28
1/28/2021 3:30:00 PM 2.99 37.382 0.173 7.44 0.74 14.22
1/28/2021 3:45:00 PM 2.85 37.13 0.173 7.47 0.43 14.22
1/28/2021 4:00:00 PM 2.76 36.968 0.174 7.45 0.47 14.2
1/28/2021 4:15:00 PM 2.67 36.806 0.174 7.47 0.4 14.17
1/28/2021 4:30:00 PM 2.54 36.572 0.174 7.44 1.09 14.19
1/28/2021 4:45:00 PM 2.45 36.41 0.174 7.45 0.57 14.18
1/28/2021 5:00:00 PM 2.31 36.158 0.174 7.48 0.53 14.17
1/28/2021 5:15:00 PM 2.21 35.978 0.174 7.49 0.67 14.16
1/28/2021 5:30:00 PM 2.14 35.852 0.174 7.49 0.63 14.14
1/28/2021 5:45:00 PM 2.06 35.708 0.174 7.5 0.49 14.11
1/28/2021 6:00:00 PM 1.9 35.42 0.174 7.44 0.52 14.09
1/28/2021 6:15:00 PM 1.82 35.276 0.174 7.5 0.43 14.06
1/28/2021 6:30:00 PM 1.73 35.114 0.174 7.51 0.56 14.06
1/28/2021 6:45:00 PM 1.6 34.88 0.174 7.47 0.49 14.06
1/28/2021 7:00:00 PM 1.52 34.736 0.174 7.5 0.51 14.06
1/28/2021 7:15:00 PM 1.39 34.502 0.174 7.49 0.41 14.05
1/28/2021 7:30:00 PM 1.32 34.376 0.174 7.5 0.58 14.08
1/28/2021 7:45:00 PM 1.27 34.286 0.174 7.48 0.56 14.07
1/28/2021 8:00:00 PM 1.18 34.124 0.174 7.48 0.57 14.08
1/28/2021 8:15:00 PM 1.12 34.016 0.174 7.45 4.83 14.08
1/28/2021 8:30:00 PM 1.06 33.908 0.174 7.46 0.52 14.08
1/28/2021 8:45:00 PM 1.02 33.836 0.174 7.49 1.08 14.09
1/28/2021 9:00:00 PM 0.93 33.674 0.174 7.47 0.2 14.11
1/28/2021 9:15:00 PM 0.84 33.512 0.174 7.47 0.34 14.13
1/28/2021 9:30:00 PM 0.8 33.44 0.174 7.48 0.38 14.15
1/28/2021 9:45:00 PM 0.76 33.368 0.174 7.48 0.63 14.14
1/28/2021 10:00:00 PM 0.7 33.26 0.174 7.48 0.52 14.16
1/28/2021 10:15:00 PM 0.62 33.116 0.174 7.48 0.43 14.18
1/28/2021 10:30:00 PM 0.56 33.008 0.175 7.46 0.5 14.2
1/28/2021 10:45:00 PM 0.5 32.9 0.175 7.45 0.47 14.22
1/28/2021 11:00:00 PM 0.46 32.828 0.175 7.48 0.68 14.25
1/28/2021 11:15:00 PM 0.42 32.756 0.175 7.47 0.46 14.26
1/28/2021 11:30:00 PM 0.38 32.684 0.175 7.46 0.64 14.26
1/28/2021 11:45:00 PM 0.33 32.594 0.175 7.46 0.57 14.29
1/29/2021 12:00:00 AM 0.29 32.522 0.175 7.43 0.41 14.32
1/29/2021 12:15:00 AM 0.25 32.45 0.175 7.44 0.2 14.33
1/29/2021 12:30:00 AM 0.23 32.414 0.175 7.44 0.27 14.35
1/29/2021 12:45:00 AM 0.21 32.378 0.175 7.44 0.34 14.36
1/29/2021 1:00:00 AM 0.17 32.306 0.175 7.44 0.31 14.38
1/29/2021 1:15:00 AM 0.12 32.216 0.175 7.44 0.58 14.4
1/29/2021 1:30:00 AM 0.06 32.108 0.175 7.44 0.6 14.41
1/29/2021 1:45:00 AM 0.01 32.018 0.175 7.44 0.52 14.43
1/29/2021 2:00:00 AM -0.02 31.964 0.175 7.44 0.47 14.45
1/29/2021 2:15:00 AM -0.04 31.928 0.175 7.42 0.4 14.45
1/29/2021 2:30:00 AM -0.05 31.91 0.175 7.4 0.47 14.47
1/29/2021 2:45:00 AM -0.06 31.892 0.175 7.42 0.53 14.48
1/29/2021 3:00:00 AM -0.07 31.874 0.175 7.43 0.62 14.49
1/29/2021 3:15:00 AM -0.08 31.856 0.175 7.43 0.24 14.48
1/29/2021 3:30:00 AM -0.07 31.874 0.175 7.43 0.73 14.5
1/29/2021 3:45:00 AM -0.06 31.892 0.175 7.42 0.2 14.52
1/29/2021 4:00:00 AM -0.06 31.892 0.175 7.4 1.05 14.54
1/29/2021 4:15:00 AM -0.04 31.928 0.175 7.41 0.6 14.54
1/29/2021 4:30:00 AM -0.04 31.928 0.175 7.4 0.54 14.55
1/29/2021 4:45:00 AM -0.04 31.928 0.175 7.4 0.5 14.57
1/29/2021 5:00:00 AM -0.03 31.946 0.175 7.4 0.54 14.57
1/29/2021 5:15:00 AM -0.03 31.946 0.176 7.39 0.43 14.57
1/29/2021 5:30:00 AM -0.03 31.946 0.176 7.41 0.64 14.57
1/29/2021 5:45:00 AM -0.02 31.964 0.176 7.4 0.47 14.6
1/29/2021 6:00:00 AM -0.02 31.964 0.176 7.39 0.57 14.59
1/29/2021 6:15:00 AM -0.02 31.964 0.176 7.39 0.67 14.59
1/29/2021 6:30:00 AM -0.02 31.964 0.176 7.39 0.59 14.61
1/29/2021 6:45:00 AM -0.02 31.964 0.176 7.39 1.05 14.62
1/29/2021 7:00:00 AM -0.01 31.982 0.176 7.41 1.38 14.64
1/29/2021 7:15:00 AM -0.01 31.982 0.176 7.39 0.51 14.62
1/29/2021 7:30:00 AM 0 32 0.176 7.39 0.52 14.63
1/29/2021 7:45:00 AM 0 32 0.177 7.38 0.71 14.64
1/29/2021 8:00:00 AM 0 32 0.177 7.38 1.75 14.62
1/29/2021 8:15:00 AM 0.01 32.018 0.177 7.39 0.72 14.66
1/29/2021 8:30:00 AM 0.01 32.018 0.177 7.37 1.46 14.7
1/29/2021 8:45:00 AM 0.02 32.036 0.177 7.38 0.68 14.76
1/29/2021 9:00:00 AM 0.02 32.036 0.177 7.39 0.39 14.83
1/29/2021 9:15:00 AM 0.03 32.054 0.177 7.37 0.6 14.88
1/29/2021 9:30:00 AM 0.03 32.054 0.177 7.38 0.47 14.92
1/29/2021 9:45:00 AM 0.04 32.072 0.177 7.38 0.52 15.01
1/29/2021 10:00:00 AM 0.04 32.072 0.177 7.37 2.36 15.06
1/29/2021 10:15:00 AM 0.04 32.072 0.178 7.38 1.29 15.12
1/29/2021 10:30:00 AM 0.05 32.09 0.178 7.39 0.76 15.17
1/29/2021 10:45:00 AM 0.06 32.108 0.178 7.39 0.88 15.24
1/29/2021 11:00:00 AM 0.08 32.144 0.177 7.41 1.21 15.3
1/29/2021 11:15:00 AM 0.08 32.144 0.177 7.38 0.73 15.35
1/29/2021 11:30:00 AM 0.1 32.18 0.177 7.4 0.86 15.33
1/29/2021 11:45:00 AM 0.1 32.18 0.176 7.37 0.83 15.35
1/29/2021 12:00:00 PM 0.11 32.198 0.176 7.4 1.15 15.34
1/29/2021 12:15:00 PM 0.14 32.252 0.175 7.39 1.38 15.32
1/29/2021 12:30:00 PM 0.14 32.252 0.175 7.41 1.14 15.31
1/29/2021 12:45:00 PM 0.15 32.27 0.175 7.4 1.93 15.29
1/29/2021 1:00:00 PM 0.16 32.288 0.174 7.39 1.06 15.29
1/29/2021 1:15:00 PM 0.18 32.324 0.174 7.41 1.23 15.29
1/29/2021 1:30:00 PM 0.17 32.306 0.173 7.42 0.91 15.31
1/29/2021 1:45:00 PM 0.18 32.324 0.173 7.43 4.47 15.29
1/29/2021 2:00:00 PM 0.21 32.378 0.172 7.43 0.8 15.27
1/29/2021 2:15:00 PM 0.21 32.378 0.172 7.42 1.17 15.26
1/29/2021 2:30:00 PM 0.25 32.45 0.172 7.44 2.76 15.28
1/29/2021 2:45:00 PM 0.31 32.558 0.172 7.43 1.46 15.28
1/29/2021 3:00:00 PM 0.36 32.648 0.171 7.44 3.35 15.26
1/29/2021 3:15:00 PM 0.39 32.702 0.171 7.44 1.58 15.26
1/29/2021 3:30:00 PM 0.39 32.702 0.172 7.45 1.15 15.24
1/29/2021 3:45:00 PM 0.4 32.72 0.172 7.45 1.02 15.21
1/29/2021 4:00:00 PM 0.4 32.72 0.173 7.44 0.9 15.17
1/29/2021 4:15:00 PM 0.4 32.72 0.173 7.45 1.96 15.16
1/29/2021 4:30:00 PM 0.42 32.756 0.173 7.45 1.01 15.16
1/29/2021 4:45:00 PM 0.41 32.738 0.174 7.44 1.09 15.12
1/29/2021 5:00:00 PM 0.41 32.738 0.174 7.44 1.07 15.1
1/29/2021 5:15:00 PM 0.39 32.702 0.175 7.44 1.01 15.07
1/29/2021 5:30:00 PM 0.39 32.702 0.175 7.46 1.19 15
1/29/2021 5:45:00 PM 0.37 32.666 0.175 7.45 1.09 14.96
1/29/2021 6:00:00 PM 0.33 32.594 0.175 7.44 0.93 14.89
1/29/2021 6:15:00 PM 0.31 32.558 0.175 7.46 1.34 14.88
1/29/2021 6:30:00 PM 0.28 32.504 0.175 7.44 0.65 14.84
1/29/2021 6:45:00 PM 0.27 32.486 0.175 7.44 1.35 14.81
1/29/2021 7:00:00 PM 0.26 32.468 0.175 7.44 0.6 14.79
1/29/2021 7:15:00 PM 0.25 32.45 0.175 7.46 1.28 14.75
1/29/2021 7:30:00 PM 0.22 32.396 0.175 7.44 0.62 14.72
1/29/2021 7:45:00 PM 0.22 32.396 0.175 7.45 0.82 14.72
1/29/2021 8:00:00 PM 0.19 32.342 0.175 7.44 0.97 14.7
1/29/2021 8:15:00 PM 0.19 32.342 0.174 7.45 0.98 14.7
1/29/2021 8:30:00 PM 0.16 32.288 0.174 7.43 0.61 14.68
1/29/2021 8:45:00 PM 0.16 32.288 0.174 7.46 0.64 14.67
1/29/2021 9:00:00 PM 0.14 32.252 0.174 7.44 1.29 14.66
1/29/2021 9:15:00 PM 0.13 32.234 0.174 7.45 2.6 14.65
1/29/2021 9:30:00 PM 0.1 32.18 0.174 7.43 1.59 14.62
1/29/2021 9:45:00 PM 0.08 32.144 0.174 7.42 1.2 14.63
1/29/2021 10:00:00 PM 0.07 32.126 0.174 7.42 0.8 14.62
1/29/2021 10:15:00 PM 0.06 32.108 0.174 7.44 0.96 14.63
1/29/2021 10:30:00 PM 0.05 32.09 0.174 7.44 0.88 14.62
1/29/2021 10:45:00 PM 0.02 32.036 0.174 7.42 1.08 14.61
1/29/2021 11:00:00 PM 0.02 32.036 0.174 7.43 1.22 14.62
1/29/2021 11:15:00 PM 0.01 32.018 0.175 7.43 0.64 14.61
1/29/2021 11:30:00 PM 0 32 0.175 7.42 0.57 14.62
1/29/2021 11:45:00 PM 0 32 0.175 7.43 1.04 14.61
1/30/2021 12:00:00 AM 0 32 0.175 7.42 0.91 14.6
1/30/2021 12:15:00 AM 0 32 0.175 7.43 0.8 14.61
1/30/2021 12:30:00 AM 0 32 0.175 7.41 2.97 14.6
1/30/2021 12:45:00 AM 0 32 0.175 7.41 0.51 14.63
1/30/2021 1:00:00 AM 0 32 0.175 7.41 0.56 14.62
1/30/2021 1:15:00 AM 0 32 0.175 7.41 0.52 14.62
1/30/2021 1:30:00 AM -0.01 31.982 0.175 7.38 1.08 14.62
1/30/2021 1:45:00 AM -0.02 31.964 0.175 7.41 1 14.63
1/30/2021 2:00:00 AM -0.01 31.982 0.174 7.39 0.46 14.62
1/30/2021 2:15:00 AM -0.01 31.982 0.174 7.39 1.61 14.62
1/30/2021 2:30:00 AM -0.02 31.964 0.174 7.37 0.86 14.61
1/30/2021 2:45:00 AM -0.02 31.964 0.174 7.39 1.34 14.61
1/30/2021 3:00:00 AM -0.03 31.946 0.174 7.38 0.78 14.59
1/30/2021 3:15:00 AM -0.04 31.928 0.174 7.36 0.57 14.59
1/30/2021 3:30:00 AM -0.04 31.928 0.174 7.39 0.6 14.61
1/30/2021 3:45:00 AM -0.04 31.928 0.174 7.37 0.88 14.62
1/30/2021 4:00:00 AM -0.03 31.946 0.174 7.39 0.95 14.65
1/30/2021 4:15:00 AM -0.03 31.946 0.174 7.39 0.76 14.65
1/30/2021 4:30:00 AM -0.02 31.964 0.174 7.39 1.12 14.64
1/30/2021 4:45:00 AM -0.02 31.964 0.174 7.36 0.72 14.65
1/30/2021 5:00:00 AM -0.02 31.964 0.174 7.38 0.85 14.65
1/30/2021 5:15:00 AM -0.02 31.964 0.174 7.38 0.99 14.65
1/30/2021 5:30:00 AM -0.02 31.964 0.174 7.39 1.35 14.65
1/30/2021 5:45:00 AM -0.02 31.964 0.174 7.37 0.99 14.66
1/30/2021 6:00:00 AM -0.02 31.964 0.174 7.38 1.06 14.67
1/30/2021 6:15:00 AM -0.02 31.964 0.174 7.37 3.56 14.67
1/30/2021 6:30:00 AM -0.02 31.964 0.174 7.36 1.09 14.68
1/30/2021 6:45:00 AM -0.02 31.964 0.174 7.37 0.46 14.69
1/30/2021 7:00:00 AM -0.02 31.964 0.174 7.37 0.65 14.68
1/30/2021 7:15:00 AM -0.02 31.964 0.174 7.38 0.89 14.7
1/30/2021 7:30:00 AM -0.02 31.964 0.175 7.38 0.66 14.72
1/30/2021 7:45:00 AM -0.01 31.982 0.175 7.36 1.04 14.74
1/30/2021 8:00:00 AM -0.01 31.982 0.175 7.36 0.75 14.77
1/30/2021 8:15:00 AM 0 32 0.175 7.36 1.01 14.78
1/30/2021 8:30:00 AM 0 32 0.175 7.35 2.27 14.84
1/30/2021 8:45:00 AM 0 32 0.175 7.37 0.91 14.86
1/30/2021 9:00:00 AM 0 32 0.175 7.37 0.52 14.93
1/30/2021 9:15:00 AM 0 32 0.175 7.38 0.57 14.98
1/30/2021 9:30:00 AM 0 32 0.175 7.35 1.28 15.04
1/30/2021 9:45:00 AM 0 32 0.175 7.38 0.86 15.06
1/30/2021 10:00:00 AM 0 32 0.176 7.38 0.56 15.11
1/30/2021 10:15:00 AM 0 32 0.176 7.36 0.69 15.15
1/30/2021 10:30:00 AM 0 32 0.176 7.37 0.7 15.19
1/30/2021 10:45:00 AM 0.01 32.018 0.176 7.36 0.59 15.21
1/30/2021 11:00:00 AM 0.02 32.036 0.175 7.38 0.71 15.26
1/30/2021 11:15:00 AM 0.04 32.072 0.175 7.36 0.58 15.28
1/30/2021 11:30:00 AM 0.06 32.108 0.175 7.4 1.04 15.28
1/30/2021 11:45:00 AM 0.09 32.162 0.175 7.41 3.6 15.29
1/30/2021 12:00:00 PM 0.15 32.27 0.174 7.38 0.79 15.28
1/30/2021 12:15:00 PM 0.17 32.306 0.174 7.38 1.35 15.29
1/30/2021 12:30:00 PM 0.19 32.342 0.173 7.4 1.93 15.29
1/30/2021 12:45:00 PM 0.22 32.396 0.173 7.4 1 15.29
1/30/2021 1:00:00 PM 0.28 32.504 0.172 7.39 0.64 15.27
1/30/2021 1:15:00 PM 0.42 32.756 0.172 7.39 1.19 15.25
1/30/2021 1:30:00 PM 0.59 33.062 0.171 7.39 0.96 15.21
1/30/2021 1:45:00 PM 0.77 33.386 0.171 7.37 0.77 15.21
1/30/2021 2:00:00 PM 0.93 33.674 0.171 7.38 0.7 15.19
1/30/2021 2:15:00 PM 1.01 33.818 0.171 7.4 1.27 15.19
1/30/2021 2:30:00 PM 1.12 34.016 0.171 7.41 0.64 15.16
1/30/2021 2:45:00 PM 1.18 34.124 0.171 7.4 2.85 15.1
1/30/2021 3:00:00 PM 1.26 34.268 0.171 7.36 0.58 15.04
1/30/2021 3:15:00 PM 1.33 34.394 0.171 7.39 0.8 15.02
1/30/2021 3:30:00 PM 1.33 34.394 0.171 7.43 1 14.97
1/30/2021 3:45:00 PM 1.33 34.394 0.171 7.42 2.74 14.9
1/30/2021 4:00:00 PM 1.32 34.376 0.171 7.44 2.23 14.84
1/30/2021 4:15:00 PM 1.3 34.34 0.171 7.44 0.93 14.81
1/30/2021 4:30:00 PM 1.28 34.304 0.171 7.43 1.14 14.78
1/30/2021 4:45:00 PM 1.23 34.214 0.172 7.45 0.49 14.77
1/30/2021 5:00:00 PM 1.18 34.124 0.172 7.45 1.11 14.74
1/30/2021 5:15:00 PM 1.13 34.034 0.172 7.45 0.86 14.7
1/30/2021 5:30:00 PM 1.06 33.908 0.172 7.46 4 14.69
1/30/2021 5:45:00 PM 0.98 33.764 0.172 7.45 0.24 14.66
1/30/2021 6:00:00 PM 0.9 33.62 0.172 7.47 0.56 14.63
1/30/2021 6:15:00 PM 0.83 33.494 0.172 7.44 0.45 14.6
1/30/2021 6:30:00 PM 0.76 33.368 0.172 7.46 0.59 14.58
1/30/2021 6:45:00 PM 0.67 33.206 0.172 7.47 0.88 14.57
1/30/2021 7:00:00 PM 0.6 33.08 0.172 7.44 0.45 14.56
1/30/2021 7:15:00 PM 0.55 32.99 0.172 7.44 0.62 14.57
1/30/2021 7:30:00 PM 0.49 32.882 0.172 7.44 0.41 14.54
1/30/2021 7:45:00 PM 0.42 32.756 0.173 7.44 3.36 14.55
1/30/2021 8:00:00 PM 0.38 32.684 0.172 7.44 0.51 14.55
1/30/2021 8:15:00 PM 0.34 32.612 0.172 7.44 1.11 14.53
1/30/2021 8:30:00 PM 0.28 32.504 0.173 7.45 0.5 14.55
1/30/2021 8:45:00 PM 0.24 32.432 0.173 7.44 0.81 14.56
1/30/2021 9:00:00 PM 0.2 32.36 0.173 7.45 0.88 14.57
1/30/2021 9:15:00 PM 0.16 32.288 0.173 7.44 0.47 14.55
1/30/2021 9:30:00 PM 0.12 32.216 0.173 7.43 0.51 14.55
1/30/2021 9:45:00 PM 0.07 32.126 0.173 7.41 0.47 14.57
1/30/2021 10:00:00 PM 0.06 32.108 0.173 7.43 0.44 14.57
1/30/2021 10:15:00 PM 0.03 32.054 0.173 7.43 0.54 14.56
1/30/2021 10:30:00 PM 0.01 32.018 0.173 7.42 0.42 14.57
1/30/2021 10:45:00 PM 0 32 0.173 7.41 0.34 14.57
1/30/2021 11:00:00 PM -0.01 31.982 0.173 7.42 1.89 14.61
1/30/2021 11:15:00 PM -0.02 31.964 0.173 7.4 0.31 14.58
1/30/2021 11:30:00 PM -0.03 31.946 0.173 7.42 0.4 14.57
1/30/2021 11:45:00 PM -0.04 31.928 0.173 7.4 8.73 14.6
1/31/2021 12:00:00 AM -0.04 31.928 0.173 7.41 1.31 14.58
1/31/2021 12:15:00 AM -0.03 31.946 0.173 7.41 0.6 14.61
1/31/2021 12:30:00 AM -0.04 31.928 0.173 7.38 1.07 14.61
1/31/2021 12:45:00 AM -0.04 31.928 0.173 7.38 0.48 14.61
1/31/2021 1:00:00 AM -0.03 31.946 0.173 7.39 0.39 14.61
1/31/2021 1:15:00 AM -0.03 31.946 0.173 7.38 0.39 14.62
1/31/2021 1:30:00 AM -0.03 31.946 0.173 7.38 0.36 14.61
1/31/2021 1:45:00 AM -0.02 31.964 0.173 7.37 0.21 14.61
1/31/2021 2:00:00 AM -0.01 31.982 0.173 7.38 0.46 14.59
1/31/2021 2:15:00 AM 0 32 0.173 7.35 0.39 14.6
1/31/2021 2:30:00 AM 0 32 0.173 7.38 0.8 14.56
1/31/2021 2:45:00 AM 0.01 32.018 0.173 7.37 0.18 14.58
1/31/2021 3:00:00 AM 0.03 32.054 0.173 7.32 0.87 14.56
1/31/2021 3:15:00 AM 0.04 32.072 0.173 7.34 0.81 14.56
1/31/2021 3:30:00 AM 0.05 32.09 0.173 7.37 0.91 14.54
1/31/2021 3:45:00 AM 0.06 32.108 0.173 7.38 1.95 14.53
1/31/2021 4:00:00 AM 0.08 32.144 0.173 7.38 0.76 14.51
1/31/2021 4:15:00 AM 0.09 32.162 0.173 7.37 0.98 14.52
1/31/2021 4:30:00 AM 0.1 32.18 0.173 7.36 0.79 14.53
1/31/2021 4:45:00 AM 0.12 32.216 0.173 7.37 1.7 14.54
1/31/2021 5:00:00 AM 0.12 32.216 0.173 7.37 1.21 14.52
1/31/2021 5:15:00 AM 0.13 32.234 0.173 7.35 0.12 14.52
1/31/2021 5:30:00 AM 0.13 32.234 0.173 7.33 0.63 14.51
1/31/2021 5:45:00 AM 0.14 32.252 0.173 7.33 0.49 14.51
1/31/2021 6:00:00 AM 0.15 32.27 0.173 7.34 0.6 14.51
1/31/2021 6:15:00 AM 0.15 32.27 0.173 7.34 0.45 14.49
1/31/2021 6:30:00 AM 0.16 32.288 0.173 7.34 0.3 14.48
1/31/2021 6:45:00 AM 0.17 32.306 0.173 7.35 1.15 14.5
1/31/2021 7:00:00 AM 0.17 32.306 0.173 7.33 1.06 14.51
1/31/2021 7:15:00 AM 0.17 32.306 0.173 7.33 0.68 14.5
1/31/2021 7:30:00 AM 0.18 32.324 0.173 7.34 0.95 14.49
1/31/2021 7:45:00 AM 0.18 32.324 0.173 7.34 0.28 14.49
1/31/2021 8:00:00 AM 0.19 32.342 0.173 7.35 0.18 14.51
1/31/2021 8:15:00 AM 0.2 32.36 0.174 7.31 0.39 14.53
1/31/2021 8:30:00 AM 0.22 32.396 0.173 7.34 0.58 14.55
1/31/2021 8:45:00 AM 0.24 32.432 0.173 7.34 0.38 14.63
1/31/2021 9:00:00 AM 0.26 32.468 0.173 7.34 0.44 14.71
1/31/2021 9:15:00 AM 0.28 32.504 0.173 7.34 0.46 14.74
1/31/2021 9:30:00 AM 0.3 32.54 0.173 7.33 0.77 14.79
1/31/2021 9:45:00 AM 0.32 32.576 0.173 7.35 0.58 14.81
1/31/2021 10:00:00 AM 0.32 32.576 0.173 7.35 0.59 14.86
1/31/2021 10:15:00 AM 0.33 32.594 0.173 7.33 0.56 14.89
1/31/2021 10:30:00 AM 0.34 32.612 0.173 7.35 0.25 14.93
1/31/2021 10:45:00 AM 0.33 32.594 0.173 7.36 0.61 14.97
1/31/2021 11:00:00 AM 0.34 32.612 0.173 7.36 0.22 14.99
1/31/2021 11:15:00 AM 0.35 32.63 0.173 7.36 0.52 15.02
1/31/2021 11:30:00 AM 0.37 32.666 0.173 7.34 0.24 15.03
1/31/2021 11:45:00 AM 0.38 32.684 0.173 7.35 0.38 15.03
1/31/2021 12:00:00 PM 0.39 32.702 0.173 7.35 0.3 15.07
1/31/2021 12:15:00 PM 0.4 32.72 0.173 7.37 0.67 15.05
1/31/2021 12:30:00 PM 0.4 32.72 0.173 7.36 0.39 15.06
1/31/2021 12:45:00 PM 0.4 32.72 0.172 7.38 0.34 15.11
1/31/2021 1:00:00 PM 0.4 32.72 0.172 7.38 0.39 15.11
1/31/2021 1:15:00 PM 0.39 32.702 0.172 7.39 0.42 15.13
1/31/2021 1:30:00 PM 0.38 32.684 0.172 7.39 0.31 15.13
1/31/2021 1:45:00 PM 0.36 32.648 0.172 7.42 0.66 15.13
1/31/2021 2:00:00 PM 0.34 32.612 0.172 7.41 0.23 15.15
1/31/2021 2:15:00 PM 0.29 32.522 0.172 7.41 0.45 15.14
1/31/2021 2:30:00 PM 0.23 32.414 0.171 7.42 0.38 15.13
1/31/2021 2:45:00 PM 0.17 32.306 0.171 7.43 0.47 15.13
1/31/2021 3:00:00 PM 0.13 32.234 0.171 7.42 0.4 15.13
1/31/2021 3:15:00 PM 0.11 32.198 0.171 7.43 0.33 15.16
1/31/2021 3:30:00 PM 0.11 32.198 0.171 7.42 0.61 15.16
1/31/2021 3:45:00 PM 0.1 32.18 0.17 7.4 0.92 15.19
1/31/2021 4:00:00 PM 0.1 32.18 0.17 7.43 0.42 15.18
1/31/2021 4:15:00 PM 0.07 32.126 0.17 7.44 0.57 15.18
1/31/2021 4:30:00 PM 0.04 32.072 0.17 7.43 1.17 15.18
1/31/2021 4:45:00 PM 0.02 32.036 0.17 7.43 0.31 15.14
1/31/2021 5:00:00 PM 0 32 0.17 7.45 0.9 15.14
1/31/2021 5:15:00 PM -0.01 31.982 0.17 7.43 0.78 15.09
1/31/2021 5:30:00 PM -0.01 31.982 0.17 7.45 0.56 15.08
1/31/2021 5:45:00 PM -0.01 31.982 0.17 7.38 0.43 15.03
1/31/2021 6:00:00 PM -0.01 31.982 0.17 7.43 0.61 14.98
1/31/2021 6:15:00 PM -0.01 31.982 0.17 7.44 0.68 14.94
1/31/2021 6:30:00 PM -0.01 31.982 0.17 7.44 1.04 14.92
1/31/2021 6:45:00 PM -0.01 31.982 0.17 7.44 0.81 14.9
1/31/2021 7:00:00 PM -0.02 31.964 0.17 7.44 0.65 14.87
1/31/2021 7:15:00 PM -0.01 31.982 0.17 7.43 0.61 14.86
1/31/2021 7:30:00 PM -0.01 31.982 0.17 7.44 0.23 14.84
1/31/2021 7:45:00 PM -0.01 31.982 0.17 7.44 0.89 14.82
1/31/2021 8:00:00 PM -0.01 31.982 0.17 7.42 0.7 14.77
1/31/2021 8:15:00 PM -0.01 31.982 0.17 7.42 1.07 14.76
1/31/2021 8:30:00 PM -0.02 31.964 0.17 7.43 0.52 14.76
1/31/2021 8:45:00 PM -0.02 31.964 0.17 7.43 0.72 14.71
1/31/2021 9:00:00 PM -0.01 31.982 0.17 7.42 0.51 14.72
1/31/2021 9:15:00 PM -0.01 31.982 0.17 7.41 0.49 14.69
1/31/2021 9:30:00 PM -0.01 31.982 0.17 7.41 0.78 14.66
1/31/2021 9:45:00 PM -0.01 31.982 0.17 7.43 0.46 14.67
1/31/2021 10:00:00 PM -0.01 31.982 0.17 7.44 0.68 14.63
1/31/2021 10:15:00 PM -0.01 31.982 0.17 7.41 0.5 14.63
1/31/2021 10:30:00 PM -0.02 31.964 0.17 7.42 4.48 14.59
1/31/2021 10:45:00 PM -0.01 31.982 0.17 7.41 0.57 14.59
1/31/2021 11:00:00 PM -0.01 31.982 0.17 7.41 0.78 14.59
1/31/2021 11:15:00 PM -0.01 31.982 0.169 7.4 0.65 14.59
1/31/2021 11:30:00 PM -0.01 31.982 0.169 7.39 0.74 14.55
1/31/2021 11:45:00 PM -0.01 31.982 0.169 7.41 0.3 14.55
2/1/2021 12:00:00 AM -0.01 31.982 0.169 7.42 0.73 14.54
2/1/2021 12:15:00 AM -0.01 31.982 0.169 7.42 0.49 14.53
2/1/2021 12:30:00 AM -0.01 31.982 0.169 7.42 0.44 14.51
2/1/2021 12:45:00 AM -0.01 31.982 0.169 7.4 0.38 14.53
2/1/2021 1:00:00 AM -0.01 31.982 0.169 7.39 1.08 14.53
2/1/2021 1:15:00 AM -0.01 31.982 0.169 7.37 0.66 14.51
2/1/2021 1:30:00 AM -0.01 31.982 0.169 7.37 0.45 14.5
2/1/2021 1:45:00 AM -0.01 31.982 0.169 7.38 0.38 14.5
2/1/2021 2:00:00 AM -0.01 31.982 0.169 7.36 0.63 14.49
2/1/2021 2:15:00 AM -0.01 31.982 0.169 7.37 1.2 14.5
2/1/2021 2:30:00 AM -0.01 31.982 0.169 7.35 0.45 14.5
2/1/2021 2:45:00 AM -0.01 31.982 0.169 7.37 1.08 14.47
2/1/2021 3:00:00 AM -0.01 31.982 0.169 7.37 1.1 14.49
2/1/2021 3:15:00 AM -0.01 31.982 0.169 7.35 0.5 14.48
2/1/2021 3:30:00 AM -0.01 31.982 0.169 7.36 0.46 14.47
2/1/2021 3:45:00 AM -0.01 31.982 0.169 7.35 0.35 14.48
2/1/2021 4:00:00 AM -0.01 31.982 0.169 7.35 0.59 14.47
2/1/2021 4:15:00 AM -0.01 31.982 0.169 7.33 0.84 14.46
2/1/2021 4:30:00 AM -0.01 31.982 0.169 7.34 0.58 14.44
2/1/2021 4:45:00 AM -0.01 31.982 0.169 7.35 0.57 14.44
2/1/2021 5:00:00 AM -0.01 31.982 0.169 7.35 1.15 14.47
2/1/2021 5:15:00 AM -0.01 31.982 0.169 7.34 0.68 14.46
2/1/2021 5:30:00 AM -0.01 31.982 0.169 7.32 0.58 14.45
2/1/2021 5:45:00 AM -0.01 31.982 0.169 7.34 0.49 14.46
2/1/2021 6:00:00 AM -0.01 31.982 0.169 7.34 0.94 14.43
2/1/2021 6:15:00 AM -0.01 31.982 0.169 7.32 1.01 14.45
2/1/2021 6:30:00 AM -0.01 31.982 0.169 7.32 0.9 14.44
2/1/2021 6:45:00 AM -0.01 31.982 0.169 7.32 0.5 14.44
2/1/2021 7:00:00 AM -0.01 31.982 0.169 7.33 0.65 14.43
2/1/2021 7:15:00 AM -0.01 31.982 0.169 7.32 0.64 14.4
2/1/2021 7:30:00 AM -0.02 31.964 0.169 7.33 2.51 14.42
2/1/2021 7:45:00 AM -0.02 31.964 0.169 7.32 1.26 14.42
2/1/2021 8:00:00 AM -0.01 31.982 0.169 7.32 2.65 14.43
2/1/2021 8:15:00 AM -0.01 31.982 0.169 7.32 1.63 14.45
2/1/2021 8:30:00 AM -0.01 31.982 0.169 7.32 1.47 14.47
2/1/2021 8:45:00 AM -0.01 31.982 0.169 7.31 2.36 14.49
2/1/2021 9:00:00 AM 0 32 0.169 7.31 0.71 14.5
2/1/2021 9:15:00 AM 0 32 0.169 7.33 1.1 14.58
2/1/2021 9:30:00 AM 0 32 0.169 7.32 1.04 14.64
2/1/2021 9:45:00 AM 0 32 0.168 7.33 1.65 14.69
2/1/2021 10:00:00 AM 0 32 0.168 7.33 0.62 14.73
2/1/2021 10:15:00 AM 0.01 32.018 0.168 7.33 0.97 14.79
2/1/2021 10:30:00 AM 0.01 32.018 0.168 7.3 0.51 14.81
2/1/2021 10:45:00 AM 0.01 32.018 0.168 7.34 1.7 14.87
2/1/2021 11:00:00 AM 0.02 32.036 0.168 7.34 0.67 14.91
2/1/2021 11:15:00 AM 0.02 32.036 0.167 7.34 0.86 14.94
2/1/2021 11:30:00 AM 0.03 32.054 0.167 7.35 2.63 14.99
2/1/2021 11:45:00 AM 0.03 32.054 0.167 7.35 0.73 15
2/1/2021 12:00:00 PM 0.03 32.054 0.167 7.34 1.42 15.02
2/1/2021 12:15:00 PM 0.03 32.054 0.167 7.37 0.72 15.03
2/1/2021 12:30:00 PM 0.02 32.036 0.167 7.37 0.99 15.07
2/1/2021 12:45:00 PM 0.02 32.036 0.166 7.37 1.04 15.07
2/1/2021 1:00:00 PM 0.02 32.036 0.166 7.37 1.77 15.09
2/1/2021 1:15:00 PM 0.03 32.054 0.166 7.36 1.54 15.11
2/1/2021 1:30:00 PM 0.02 32.036 0.166 7.37 0.8 15.12
2/1/2021 1:45:00 PM 0.02 32.036 0.166 7.38 0.64 15.15
2/1/2021 2:00:00 PM 0.03 32.054 0.166 7.39 1.18 15.16
2/1/2021 2:15:00 PM 0.04 32.072 0.165 7.37 1.17 15.18
2/1/2021 2:30:00 PM 0.04 32.072 0.165 7.39 1.18 15.21
2/1/2021 2:45:00 PM 0.04 32.072 0.165 7.38 0.95 15.2
2/1/2021 3:00:00 PM 0.04 32.072 0.165 7.4 1.27 15.2
2/1/2021 3:15:00 PM 0.02 32.036 0.165 7.39 0.85 15.2
2/1/2021 3:30:00 PM 0 32 0.165 7.4 2.81 15.19
2/1/2021 3:45:00 PM 0 32 0.165 7.4 0.87 15.14
2/1/2021 4:00:00 PM 0 32 0.165 7.41 1.06 15.13
2/1/2021 4:15:00 PM 0 32 0.165 7.41 2.15 15.09
2/1/2021 4:30:00 PM 0 32 0.165 7.42 0.78 15.07
2/1/2021 4:45:00 PM 0 32 0.164 7.41 0.62 15.06
2/1/2021 5:00:00 PM 0 32 0.164 7.43 0.62 15.05
2/1/2021 5:15:00 PM 0 32 0.164 7.43 0.62 15.03
2/1/2021 5:30:00 PM 0 32 0.164 7.42 0.64 14.99
2/1/2021 5:45:00 PM 0 32 0.164 7.4 0.68 14.96
2/1/2021 6:00:00 PM -0.01 31.982 0.164 7.42 1.21 14.9
2/1/2021 6:15:00 PM -0.01 31.982 0.164 7.41 1.13 14.84
2/1/2021 6:30:00 PM -0.01 31.982 0.164 7.42 4.26 14.82
2/1/2021 6:45:00 PM -0.01 31.982 0.164 7.42 2.14 14.78
2/1/2021 7:00:00 PM -0.01 31.982 0.164 7.37 1.53 14.74
2/1/2021 7:15:00 PM -0.01 31.982 0.164 7.41 7.86 14.73
2/1/2021 7:30:00 PM -0.01 31.982 0.164 7.41 0.85 14.71
2/1/2021 7:45:00 PM -0.01 31.982 0.165 7.41 1.54 14.67
2/1/2021 8:00:00 PM -0.01 31.982 0.165 7.41 1.45 14.64
2/1/2021 8:15:00 PM -0.01 31.982 0.165 7.41 1.04 14.63
2/1/2021 8:30:00 PM -0.01 31.982 0.165 7.41 1.18 14.62
2/1/2021 8:45:00 PM -0.01 31.982 0.165 7.4 0.94 14.59
2/1/2021 9:00:00 PM -0.01 31.982 0.165 7.37 1.57 14.57
2/1/2021 9:15:00 PM -0.02 31.964 0.165 7.39 0.73 14.54
2/1/2021 9:30:00 PM -0.01 31.982 0.165 7.41 0.9 14.52
2/1/2021 9:45:00 PM -0.01 31.982 0.165 7.4 1.29 14.48
2/1/2021 10:00:00 PM -0.02 31.964 0.165 7.39 0.58 14.46
2/1/2021 10:15:00 PM -0.02 31.964 0.165 7.39 1.29 14.46
2/1/2021 10:30:00 PM -0.02 31.964 0.165 7.39 1.41 14.45
2/1/2021 10:45:00 PM -0.02 31.964 0.165 7.4 1.12 14.44
2/1/2021 11:00:00 PM -0.02 31.964 0.165 7.39 0.91 14.41
2/1/2021 11:15:00 PM -0.02 31.964 0.164 7.39 0.86 14.39
2/1/2021 11:30:00 PM -0.02 31.964 0.164 7.39 1.24 14.38
2/1/2021 11:45:00 PM -0.02 31.964 0.164 7.38 1.86 14.37
2/2/2021 12:00:00 AM -0.02 31.964 0.164 7.38 2.48 14.36
2/2/2021 12:15:00 AM -0.02 31.964 0.164 7.38 1.92 14.35
2/2/2021 12:30:00 AM -0.02 31.964 0.164 7.37 2.13 14.33
2/2/2021 12:45:00 AM -0.02 31.964 0.164 7.35 1.68 14.33
2/2/2021 1:00:00 AM -0.02 31.964 0.164 7.38 0.83 14.33
2/2/2021 1:15:00 AM -0.02 31.964 0.164 7.35 0.82 14.32
2/2/2021 1:30:00 AM -0.02 31.964 0.164 7.32 1.26 14.29
2/2/2021 1:45:00 AM -0.02 31.964 0.164 7.35 2.64 14.31
2/2/2021 2:00:00 AM -0.02 31.964 0.164 7.36 0.87 14.3
2/2/2021 2:15:00 AM -0.02 31.964 0.164 7.35 1.57 14.29
2/2/2021 2:30:00 AM -0.02 31.964 0.164 7.33 0.86 14.3
2/2/2021 2:45:00 AM -0.02 31.964 0.164 7.34 1.92 14.29
2/2/2021 3:00:00 AM -0.02 31.964 0.164 7.33 0.84 14.29
2/2/2021 3:15:00 AM -0.02 31.964 0.164 7.34 1.31 14.27
2/2/2021 3:30:00 AM -0.02 31.964 0.164 7.34 1.25 14.28
2/2/2021 3:45:00 AM -0.02 31.964 0.164 7.35 1.43 14.28
2/2/2021 4:00:00 AM -0.02 31.964 0.164 7.33 0.55 14.29
2/2/2021 4:15:00 AM -0.02 31.964 0.164 7.34 0.75 14.27
2/2/2021 4:30:00 AM -0.02 31.964 0.164 7.32 1.14 14.28
2/2/2021 4:45:00 AM -0.02 31.964 0.164 7.32 1.13 14.27
2/2/2021 5:00:00 AM -0.02 31.964 0.164 7.32 0.96 14.26
2/2/2021 5:15:00 AM -0.02 31.964 0.164 7.32 0.81 14.27
2/2/2021 5:30:00 AM -0.02 31.964 0.164 7.32 1.34 14.27
2/2/2021 5:45:00 AM -0.02 31.964 0.165 7.33 1.81 14.27
2/2/2021 6:00:00 AM -0.02 31.964 0.165 7.3 1.24 14.26
2/2/2021 6:15:00 AM -0.02 31.964 0.165 7.31 1.67 14.26
2/2/2021 6:30:00 AM -0.02 31.964 0.165 7.33 0.96 14.25
2/2/2021 6:45:00 AM -0.02 31.964 0.165 7.32 1.11 14.26
2/2/2021 7:00:00 AM -0.02 31.964 0.165 7.31 0.66 14.26
2/2/2021 7:15:00 AM -0.02 31.964 0.165 7.3 0.62 14.25
2/2/2021 7:30:00 AM -0.02 31.964 0.165 7.31 0.65 14.25
2/2/2021 7:45:00 AM -0.01 31.982 0.165 7.32 1.04 14.23
2/2/2021 8:00:00 AM -0.01 31.982 0.165 7.3 1.23 14.27
2/2/2021 8:15:00 AM -0.01 31.982 0.165 7.3 1.2 14.32
2/2/2021 8:30:00 AM 0 32 0.165 7.3 0.89 14.37
2/2/2021 8:45:00 AM 0 32 0.165 7.3 1.07 14.41
2/2/2021 9:00:00 AM 0 32 0.165 7.3 1.3 14.47
2/2/2021 9:15:00 AM 0.01 32.018 0.165 7.31 2.24 14.54
2/2/2021 9:30:00 AM 0.03 32.054 0.165 7.31 1.27 14.59
2/2/2021 9:45:00 AM 0.04 32.072 0.165 7.31 0.88 14.64
2/2/2021 10:00:00 AM 0.05 32.09 0.165 7.33 0.95 14.66
2/2/2021 10:15:00 AM 0.07 32.126 0.164 7.33 1.19 14.69
2/2/2021 10:30:00 AM 0.09 32.162 0.164 7.31 1.94 14.71
2/2/2021 10:45:00 AM 0.12 32.216 0.164 7.32 0.95 14.74
2/2/2021 11:00:00 AM 0.12 32.216 0.164 7.32 0.78 14.77
2/2/2021 11:15:00 AM 0.13 32.234 0.163 7.34 1.95 14.8
2/2/2021 11:30:00 AM 0.16 32.288 0.163 7.33 1.02 14.79
2/2/2021 11:45:00 AM 0.17 32.306 0.163 7.35 1.64 14.82
2/2/2021 12:00:00 PM 0.18 32.324 0.163 7.35 2.16 14.86
2/2/2021 12:15:00 PM 0.19 32.342 0.162 7.35 2.1 14.86
2/2/2021 12:30:00 PM 0.21 32.378 0.162 7.35 1.26 14.86
2/2/2021 12:45:00 PM 0.22 32.396 0.162 7.36 7.88 14.87
2/2/2021 1:00:00 PM 0.23 32.414 0.161 7.37 0.93 14.88
2/2/2021 1:15:00 PM 0.26 32.468 0.161 7.35 2.87 14.87
2/2/2021 1:30:00 PM 0.27 32.486 0.161 7.36 1.1 14.9
2/2/2021 1:45:00 PM 0.3 32.54 0.161 7.38 1.75 14.88
2/2/2021 2:00:00 PM 0.3 32.54 0.16 7.37 0.92 14.86
2/2/2021 2:15:00 PM 0.3 32.54 0.16 7.37 2.31 14.87
2/2/2021 2:30:00 PM 0.3 32.54 0.16 7.38 0.57 14.86
2/2/2021 2:45:00 PM 0.3 32.54 0.16 7.38 2.83 14.81
2/2/2021 3:00:00 PM 0.28 32.504 0.16 7.4 0.73 14.83
2/2/2021 3:15:00 PM 0.28 32.504 0.16 7.39 1.98 14.8
2/2/2021 3:30:00 PM 0.27 32.486 0.16 7.37 0.7 14.79
2/2/2021 3:45:00 PM 0.26 32.468 0.16 7.39 0.91 14.75
2/2/2021 4:00:00 PM 0.25 32.45 0.16 7.41 0.94 14.72
2/2/2021 4:15:00 PM 0.25 32.45 0.16 7.38 0.64 14.66
2/2/2021 4:30:00 PM 0.25 32.45 0.16 7.41 0.65 14.66
2/2/2021 4:45:00 PM 0.25 32.45 0.16 7.38 0.83 14.58
2/2/2021 5:00:00 PM 0.26 32.468 0.16 7.4 0.95 14.53
2/2/2021 5:15:00 PM 0.27 32.486 0.16 7.41 0.94 14.5
2/2/2021 5:30:00 PM 0.28 32.504 0.16 7.4 1.04 14.43
2/2/2021 5:45:00 PM 0.28 32.504 0.161 7.4 2.12 14.37
2/2/2021 6:00:00 PM 0.29 32.522 0.161 7.41 2.18 14.34
2/2/2021 6:15:00 PM 0.29 32.522 0.161 7.4 0.95 14.3
2/2/2021 6:30:00 PM 0.29 32.522 0.161 7.37 0.58 14.26
2/2/2021 6:45:00 PM 0.28 32.504 0.161 7.36 0.49 14.24
2/2/2021 7:00:00 PM 0.27 32.486 0.161 7.4 1.07 14.23
2/2/2021 7:15:00 PM 0.26 32.468 0.162 7.4 0.71 14.22
2/2/2021 7:30:00 PM 0.25 32.45 0.162 7.38 0.88 14.2
2/2/2021 7:45:00 PM 0.24 32.432 0.162 7.4 3.24 14.19
2/2/2021 8:00:00 PM 0.23 32.414 0.162 7.37 0.38 14.17
2/2/2021 8:15:00 PM 0.22 32.396 0.162 7.4 0.73 14.15
2/2/2021 8:30:00 PM 0.21 32.378 0.163 7.39 0.54 14.16
2/2/2021 8:45:00 PM 0.2 32.36 0.163 7.36 1.32 14.17
2/2/2021 9:00:00 PM 0.19 32.342 0.163 7.39 1.34 14.16
2/2/2021 9:15:00 PM 0.17 32.306 0.163 7.35 0.91 14.15
2/2/2021 9:30:00 PM 0.16 32.288 0.163 7.36 1 14.16
2/2/2021 9:45:00 PM 0.15 32.27 0.164 7.38 0.73 14.15
2/2/2021 10:00:00 PM 0.14 32.252 0.164 7.38 0.83 14.15
2/2/2021 10:15:00 PM 0.13 32.234 0.164 7.37 0.76 14.13
2/2/2021 10:30:00 PM 0.13 32.234 0.164 7.37 0.96 14.14
2/2/2021 10:45:00 PM 0.12 32.216 0.164 7.36 0.65 14.14
2/2/2021 11:00:00 PM 0.12 32.216 0.164 7.37 0.42 14.11
2/2/2021 11:15:00 PM 0.11 32.198 0.164 7.35 0.62 14.12
2/2/2021 11:30:00 PM 0.11 32.198 0.164 7.31 0.51 14.13
2/2/2021 11:45:00 PM 0.11 32.198 0.165 7.36 2.36 14.12
2/3/2021 12:00:00 AM 0.11 32.198 0.165 7.38 0.91 14.13
2/3/2021 12:15:00 AM 0.11 32.198 0.165 7.37 0.56 14.13
2/3/2021 12:30:00 AM 0.11 32.198 0.165 7.36 0.4 14.11
2/3/2021 12:45:00 AM 0.11 32.198 0.165 7.37 0.26 14.11
2/3/2021 1:00:00 AM 0.12 32.216 0.165 7.37 0.39 14.11
2/3/2021 1:15:00 AM 0.12 32.216 0.166 7.36 1.01 14.11
2/3/2021 1:30:00 AM 0.12 32.216 0.166 7.36 0.57 14.11
2/3/2021 1:45:00 AM 0.13 32.234 0.166 7.36 1.28 14.1
2/3/2021 2:00:00 AM 0.14 32.252 0.166 7.35 0.51 14.09
2/3/2021 2:15:00 AM 0.14 32.252 0.167 7.35 0.33 14.08
2/3/2021 2:30:00 AM 0.15 32.27 0.167 7.34 0.86 14.07
2/3/2021 2:45:00 AM 0.15 32.27 0.167 7.32 0.6 14.06
2/3/2021 3:00:00 AM 0.16 32.288 0.167 7.34 0.51 14.06
2/3/2021 3:15:00 AM 0.17 32.306 0.167 7.33 0.53 14.07
2/3/2021 3:30:00 AM 0.18 32.324 0.168 7.33 0.55 14.06
2/3/2021 3:45:00 AM 0.2 32.36 0.168 7.34 1.02 14.05
2/3/2021 4:00:00 AM 0.2 32.36 0.168 7.33 0.62 14.03
2/3/2021 4:15:00 AM 0.22 32.396 0.168 7.34 0.89 14.03
2/3/2021 4:30:00 AM 0.22 32.396 0.169 7.32 0.48 14.03
2/3/2021 4:45:00 AM 0.23 32.414 0.169 7.3 0.36 14.03
2/3/2021 5:00:00 AM 0.25 32.45 0.169 7.33 0.48 14.02
2/3/2021 5:15:00 AM 0.26 32.468 0.169 7.33 0.54 14.02
2/3/2021 5:30:00 AM 0.26 32.468 0.169 7.33 0.82 14
2/3/2021 5:45:00 AM 0.25 32.45 0.169 7.32 0.89 14
2/3/2021 6:00:00 AM 0.25 32.45 0.17 7.33 0.5 14.01
2/3/2021 6:15:00 AM 0.25 32.45 0.17 7.34 1.24 14.01
2/3/2021 6:30:00 AM 0.25 32.45 0.17 7.32 1.05 14.01
2/3/2021 6:45:00 AM 0.25 32.45 0.171 7.31 0.5 13.98
2/3/2021 7:00:00 AM 0.25 32.45 0.171 7.32 0.84 14
2/3/2021 7:15:00 AM 0.25 32.45 0.171 7.32 0.62 14
2/3/2021 7:30:00 AM 0.25 32.45 0.171 7.32 1.71 14
2/3/2021 7:45:00 AM 0.26 32.468 0.171 7.32 1.27 14.03
2/3/2021 8:00:00 AM 0.27 32.486 0.171 7.32 0.93 14.04
2/3/2021 8:15:00 AM 0.28 32.504 0.171 7.31 0.51 14.09
2/3/2021 8:30:00 AM 0.3 32.54 0.172 7.3 1.92 14.14
2/3/2021 8:45:00 AM 0.33 32.594 0.172 7.3 0.63 14.2
2/3/2021 9:00:00 AM 0.35 32.63 0.172 7.32 0.39 14.26
2/3/2021 9:15:00 AM 0.39 32.702 0.171 7.3 0.57 14.32
2/3/2021 9:30:00 AM 0.44 32.792 0.172 7.31 0.66 14.37
2/3/2021 9:45:00 AM 0.49 32.882 0.172 7.33 0.6 14.43
2/3/2021 10:00:00 AM 0.56 33.008 0.171 7.33 0.67 14.48
2/3/2021 10:15:00 AM 0.64 33.152 0.171 7.33 0.4 14.55
2/3/2021 10:30:00 AM 0.71 33.278 0.171 7.32 0.55 14.55
2/3/2021 10:45:00 AM 0.86 33.548 0.171 7.34 0.34 14.6
2/3/2021 11:00:00 AM 0.98 33.764 0.171 7.33 0.79 14.62
2/3/2021 11:15:00 AM 1.06 33.908 0.171 7.34 0.76 14.67
2/3/2021 11:30:00 AM 1.2 34.16 0.171 7.32 0.68 14.62
2/3/2021 11:45:00 AM 1.32 34.376 0.171 7.33 0.57 14.62
2/3/2021 12:00:00 PM 1.44 34.592 0.171 7.35 0.85 14.59
2/3/2021 12:15:00 PM 1.58 34.844 0.17 7.35 0.63 14.55
2/3/2021 12:30:00 PM 1.69 35.042 0.17 7.34 0.5 14.55
2/3/2021 12:45:00 PM 1.8 35.24 0.17 7.35 1.59 14.5
2/3/2021 1:00:00 PM 1.91 35.438 0.17 7.38 0.85 14.51
2/3/2021 1:15:00 PM 2.01 35.618 0.17 7.38 0.73 14.44
2/3/2021 1:30:00 PM 2.07 35.726 0.17 7.37 0.27 14.42
2/3/2021 1:45:00 PM 2.12 35.816 0.17 7.38 0.79 14.39
2/3/2021 2:00:00 PM 2.19 35.942 0.17 7.38 0.51 14.37
2/3/2021 2:15:00 PM 2.27 36.086 0.17 7.38 1.2 14.3
2/3/2021 2:30:00 PM 2.31 36.158 0.17 7.38 1.4 14.3
2/3/2021 2:45:00 PM 2.37 36.266 0.17 7.38 0.66 14.25
2/3/2021 3:00:00 PM 2.43 36.374 0.17 7.39 0.91 14.22
2/3/2021 3:15:00 PM 2.47 36.446 0.17 7.4 0.68 14.19
2/3/2021 3:30:00 PM 2.48 36.464 0.17 7.42 0.62 14.17
2/3/2021 3:45:00 PM 2.49 36.482 0.17 7.42 1.86 14.15
2/3/2021 4:00:00 PM 2.5 36.5 0.17 7.39 0.89 14.13
2/3/2021 4:15:00 PM 2.52 36.536 0.17 7.41 0.99 14.12
2/3/2021 4:30:00 PM 2.51 36.518 0.17 7.42 0.77 14.1
2/3/2021 4:45:00 PM 2.52 36.536 0.17 7.43 0.44 14.09
2/3/2021 5:00:00 PM 2.5 36.5 0.17 7.44 2.96 14.08
2/3/2021 5:15:00 PM 2.47 36.446 0.17 7.44 2.13 14.04
2/3/2021 5:30:00 PM 2.43 36.374 0.17 7.41 1.38 13.99
2/3/2021 5:45:00 PM 2.39 36.302 0.171 7.45 0.91 13.93
2/3/2021 6:00:00 PM 2.34 36.212 0.171 7.44 0.84 13.86
2/3/2021 6:15:00 PM 2.31 36.158 0.171 7.44 0.99 13.79
2/3/2021 6:30:00 PM 2.27 36.086 0.171 7.45 2.6 13.73
2/3/2021 6:45:00 PM 2.22 35.996 0.171 7.45 0.65 13.7
2/3/2021 7:00:00 PM 2.16 35.888 0.171 7.43 0.58 13.69
2/3/2021 7:15:00 PM 2.12 35.816 0.172 7.43 0.47 13.64
2/3/2021 7:30:00 PM 2.07 35.726 0.172 7.42 0.39 13.64
2/3/2021 7:45:00 PM 2.02 35.636 0.172 7.44 0.74 13.6
2/3/2021 8:00:00 PM 1.96 35.528 0.172 7.45 0.73 13.58
2/3/2021 8:15:00 PM 1.91 35.438 0.172 7.44 0.68 13.58
2/3/2021 8:30:00 PM 1.84 35.312 0.173 7.42 0.33 13.56
2/3/2021 8:45:00 PM 1.81 35.258 0.173 7.44 0.38 13.57
2/3/2021 9:00:00 PM 1.76 35.168 0.174 7.4 0.41 13.58
2/3/2021 9:15:00 PM 1.73 35.114 0.174 7.44 0.35 13.58
2/3/2021 9:30:00 PM 1.7 35.06 0.174 7.4 0.38 13.56
2/3/2021 9:45:00 PM 1.68 35.024 0.175 7.43 0.22 13.55
2/3/2021 10:00:00 PM 1.67 35.006 0.175 7.42 0.67 13.56
2/3/2021 10:15:00 PM 1.66 34.988 0.175 7.43 4 13.53
2/3/2021 10:30:00 PM 1.66 34.988 0.175 7.39 0.29 13.56
2/3/2021 10:45:00 PM 1.63 34.934 0.176 7.41 0.6 13.56
2/3/2021 11:00:00 PM 1.61 34.898 0.176 7.41 0.35 13.57
2/3/2021 11:15:00 PM 1.56 34.808 0.176 7.38 0.31 13.55
2/3/2021 11:30:00 PM 1.54 34.772 0.176 7.39 0.72 13.54
2/3/2021 11:45:00 PM 1.51 34.718 0.176 7.41 0.69 13.56
2/4/2021 12:00:00 AM 1.48 34.664 0.176 7.4 0.31 13.55
2/4/2021 12:15:00 AM 1.46 34.628 0.176 7.4 0.39 13.57
2/4/2021 12:30:00 AM 1.43 34.574 0.177 7.39 0.41 13.57
2/4/2021 12:45:00 AM 1.41 34.538 0.177 7.4 0.31 13.58
2/4/2021 1:00:00 AM 1.37 34.466 0.177 7.39 0.3 13.59
2/4/2021 1:15:00 AM 1.34 34.412 0.177 7.4 0.35 13.6
2/4/2021 1:30:00 AM 1.31 34.358 0.177 7.39 0.52 13.61
2/4/2021 1:45:00 AM 1.28 34.304 0.177 7.38 9.01 13.62
2/4/2021 2:00:00 AM 1.25 34.25 0.177 7.39 0.64 13.63
2/4/2021 2:15:00 AM 1.22 34.196 0.177 7.39 0.96 13.65
2/4/2021 2:30:00 AM 1.19 34.142 0.177 7.39 0.58 13.66
2/4/2021 2:45:00 AM 1.14 34.052 0.177 7.37 0.42 13.68
2/4/2021 3:00:00 AM 1.1 33.98 0.177 7.35 0.64 13.7
2/4/2021 3:15:00 AM 1.07 33.926 0.177 7.38 1.01 13.71
2/4/2021 3:30:00 AM 1.03 33.854 0.178 7.36 0.56 13.71
2/4/2021 3:45:00 AM 0.98 33.764 0.178 7.37 0.3 13.74
2/4/2021 4:00:00 AM 0.93 33.674 0.178 7.37 0.34 13.77
2/4/2021 4:15:00 AM 0.88 33.584 0.178 7.38 0.18 13.79
2/4/2021 4:30:00 AM 0.82 33.476 0.178 7.36 1.03 13.82
2/4/2021 4:45:00 AM 0.77 33.386 0.178 7.37 0.85 13.83
2/4/2021 5:00:00 AM 0.72 33.296 0.178 7.36 0.27 13.85
2/4/2021 5:15:00 AM 0.68 33.224 0.179 7.35 0.63 13.86
2/4/2021 5:30:00 AM 0.62 33.116 0.179 7.38 0.97 13.9
2/4/2021 5:45:00 AM 0.57 33.026 0.179 7.38 0.34 13.92
2/4/2021 6:00:00 AM 0.52 32.936 0.179 7.36 0.56 13.95
2/4/2021 6:15:00 AM 0.47 32.846 0.179 7.36 0.55 13.96
2/4/2021 6:30:00 AM 0.41 32.738 0.179 7.36 0.36 14
2/4/2021 6:45:00 AM 0.38 32.684 0.179 7.36 0.67 14.01
2/4/2021 7:00:00 AM 0.33 32.594 0.179 7.37 1.1 13.99
2/4/2021 7:15:00 AM 0.29 32.522 0.18 7.36 0.86 14.02
2/4/2021 7:30:00 AM 0.24 32.432 0.18 7.37 0.49 14.1
2/4/2021 7:45:00 AM 0.21 32.378 0.18 7.37 0.28 14.13
2/4/2021 8:00:00 AM 0.16 32.288 0.18 7.36 0.38 14.19
2/4/2021 8:15:00 AM 0.14 32.252 0.18 7.37 0.49 14.25
2/4/2021 8:30:00 AM 0.11 32.198 0.18 7.36 0.26 14.3
2/4/2021 8:45:00 AM 0.1 32.18 0.18 7.38 0.54 14.37
2/4/2021 9:00:00 AM 0.09 32.162 0.18 7.37 0.9 14.44
2/4/2021 9:15:00 AM 0.07 32.126 0.18 7.35 0.52 14.5
2/4/2021 9:30:00 AM 0.07 32.126 0.18 7.35 0.34 14.58
2/4/2021 9:45:00 AM 0.09 32.162 0.18 7.38 0.32 14.63
2/4/2021 10:00:00 AM 0.12 32.216 0.18 7.37 0.27 14.68
2/4/2021 10:15:00 AM 0.17 32.306 0.18 7.35 0.26 14.72
2/4/2021 10:30:00 AM 0.24 32.432 0.18 7.38 0.32 14.77
2/4/2021 10:45:00 AM 0.37 32.666 0.18 7.35 0.38 14.79
2/4/2021 11:00:00 AM 0.49 32.882 0.179 7.37 0.49 14.84
2/4/2021 11:15:00 AM 0.62 33.116 0.179 7.37 0.26 14.86
2/4/2021 11:30:00 AM 0.83 33.494 0.179 7.37 0.54 14.86
2/4/2021 11:45:00 AM 1.08 33.944 0.178 7.35 0.79 14.87
2/4/2021 12:00:00 PM 1.33 34.394 0.178 7.37 0.54 14.85
2/4/2021 12:15:00 PM 1.45 34.61 0.178 7.38 0.35 14.83
2/4/2021 12:30:00 PM 1.65 34.97 0.177 7.37 0.52 14.81
2/4/2021 12:45:00 PM 1.88 35.384 0.177 7.37 0.21 14.79
2/4/2021 1:00:00 PM 2.18 35.924 0.177 7.38 0.47 14.76
2/4/2021 1:15:00 PM 2.53 36.554 0.176 7.37 0.79 14.75
2/4/2021 1:30:00 PM 2.76 36.968 0.176 7.33 0.58 14.67
2/4/2021 1:45:00 PM 2.94 37.292 0.176 7.37 0.54 14.69
2/4/2021 2:00:00 PM 3.12 37.616 0.176 7.37 0.27 14.64
2/4/2021 2:15:00 PM 3.16 37.688 0.176 7.39 1.25 14.58
2/4/2021 2:30:00 PM 3.18 37.724 0.176 7.39 1.14 14.52
2/4/2021 2:45:00 PM 3.28 37.904 0.176 7.39 0.96 14.45
2/4/2021 3:00:00 PM 3.26 37.868 0.176 7.4 0.72 14.4
2/4/2021 3:15:00 PM 3.29 37.922 0.176 7.41 0.92 14.31
2/4/2021 3:30:00 PM 3.3 37.94 0.176 7.4 0.43 14.27
2/4/2021 3:45:00 PM 3.21 37.778 0.176 7.38 1.22 14.24
2/4/2021 4:00:00 PM 3.18 37.724 0.176 7.42 0.93 14.15
2/4/2021 4:15:00 PM 3.09 37.562 0.176 7.39 0.78 14.13
2/4/2021 4:30:00 PM 3.02 37.436 0.176 7.42 0.8 14.08
2/4/2021 4:45:00 PM 2.93 37.274 0.176 7.42 0.5 14.06
2/4/2021 5:00:00 PM 2.83 37.094 0.176 7.42 0.93 14.05
2/4/2021 5:15:00 PM 2.73 36.914 0.176 7.43 1.34 14
2/4/2021 5:30:00 PM 2.62 36.716 0.176 7.43 0.71 13.97
2/4/2021 5:45:00 PM 2.53 36.554 0.176 7.44 0.82 13.91
2/4/2021 6:00:00 PM 2.42 36.356 0.176 7.43 0.79 13.89
2/4/2021 6:15:00 PM 2.32 36.176 0.176 7.45 0.6 13.84
2/4/2021 6:30:00 PM 2.22 35.996 0.176 7.4 0.63 13.82
2/4/2021 6:45:00 PM 2.15 35.87 0.176 7.43 1.39 13.81
2/4/2021 7:00:00 PM 2.08 35.744 0.176 7.44 0.73 13.79
2/4/2021 7:15:00 PM 2.01 35.618 0.176 7.45 0.79 13.75
2/4/2021 7:30:00 PM 1.95 35.51 0.176 7.43 0.76 13.76
2/4/2021 7:45:00 PM 1.89 35.402 0.176 7.45 1.31 13.72
2/4/2021 8:00:00 PM 1.85 35.33 0.176 7.43 0.77 13.72
2/4/2021 8:15:00 PM 1.8 35.24 0.176 7.41 0.35 13.73
2/4/2021 8:30:00 PM 1.77 35.186 0.176 7.43 1.03 13.71
2/4/2021 8:45:00 PM 1.74 35.132 0.175 7.44 1.1 13.7
2/4/2021 9:00:00 PM 1.71 35.078 0.175 7.44 0.64 13.68
2/4/2021 9:15:00 PM 1.69 35.042 0.176 7.43 0.48 13.69
2/4/2021 9:30:00 PM 1.66 34.988 0.176 7.41 1.23 13.68
2/4/2021 9:45:00 PM 1.65 34.97 0.176 7.37 0.35 13.68
2/4/2021 10:00:00 PM 1.63 34.934 0.175 7.41 0.24 13.65
2/4/2021 10:15:00 PM 1.61 34.898 0.176 7.38 0.38 13.66
2/4/2021 10:30:00 PM 1.6 34.88 0.176 7.4 0.53 13.67
2/4/2021 10:45:00 PM 1.58 34.844 0.176 7.41 0.54 13.65
2/4/2021 11:00:00 PM 1.57 34.826 0.176 7.4 0.31 13.66
2/4/2021 11:15:00 PM 1.55 34.79 0.176 7.4 0.68 13.66
2/4/2021 11:30:00 PM 1.54 34.772 0.176 7.41 0.45 13.67
2/4/2021 11:45:00 PM 1.53 34.754 0.176 7.4 0.74 13.65
2/5/2021 12:00:00 AM 1.53 34.754 0.176 7.38 0.53 13.64
2/5/2021 12:15:00 AM 1.53 34.754 0.176 7.39 0.34 13.64
2/5/2021 12:30:00 AM 1.53 34.754 0.176 7.38 0.32 13.64
2/5/2021 12:45:00 AM 1.53 34.754 0.176 7.4 0.64 13.63
2/5/2021 1:00:00 AM 1.54 34.772 0.176 7.37 0.67 13.64
2/5/2021 1:15:00 AM 1.55 34.79 0.176 7.36 0.88 13.61
2/5/2021 1:30:00 AM 1.56 34.808 0.176 7.33 0.95 13.6
2/5/2021 1:45:00 AM 1.56 34.808 0.176 7.37 0.65 13.61
2/5/2021 2:00:00 AM 1.57 34.826 0.176 7.38 0.78 13.6
2/5/2021 2:15:00 AM 1.59 34.862 0.176 7.35 0.64 13.59
2/5/2021 2:30:00 AM 1.6 34.88 0.176 7.37 1.64 13.55
2/5/2021 2:45:00 AM 1.62 34.916 0.176 7.37 0.4 13.51
2/5/2021 3:00:00 AM 1.64 34.952 0.176 7.35 0.65 13.53
2/5/2021 3:15:00 AM 1.66 34.988 0.176 7.37 0.68 13.54
2/5/2021 3:30:00 AM 1.68 35.024 0.176 7.37 0.36 13.52
2/5/2021 3:45:00 AM 1.7 35.06 0.176 7.34 0.39 13.51
2/5/2021 4:00:00 AM 1.72 35.096 0.176 7.36 0.35 13.51
2/5/2021 4:15:00 AM 1.74 35.132 0.176 7.33 0.35 13.47
2/5/2021 4:30:00 AM 1.75 35.15 0.176 7.33 0.63 13.47
2/5/2021 4:45:00 AM 1.77 35.186 0.176 7.34 0.92 13.44
2/5/2021 5:00:00 AM 1.77 35.186 0.176 7.34 1 13.43
2/5/2021 5:15:00 AM 1.76 35.168 0.176 7.35 0.38 13.46
2/5/2021 5:30:00 AM 1.74 35.132 0.176 7.35 0.51 13.45
2/5/2021 5:45:00 AM 1.7 35.06 0.176 7.35 1.45 13.43
2/5/2021 6:00:00 AM 1.67 35.006 0.176 7.35 0.64 13.43
2/5/2021 6:15:00 AM 1.63 34.934 0.176 7.35 0.78 13.43
2/5/2021 6:30:00 AM 1.63 34.934 0.176 7.33 0.55 13.43
2/5/2021 6:45:00 AM 1.64 34.952 0.176 7.34 0.72 13.43
2/5/2021 7:00:00 AM 1.65 34.97 0.176 7.34 0.54 13.42
2/5/2021 7:15:00 AM 1.67 35.006 0.176 7.34 0.7 13.42
2/5/2021 7:30:00 AM 1.68 35.024 0.176 7.31 0.59 13.44
2/5/2021 7:45:00 AM 1.7 35.06 0.176 7.33 0.52 13.44
2/5/2021 8:00:00 AM 1.71 35.078 0.176 7.31 0.61 13.49
2/5/2021 8:15:00 AM 1.73 35.114 0.176 7.33 0.51 13.52
2/5/2021 8:30:00 AM 1.76 35.168 0.176 7.31 0.37 13.59
2/5/2021 8:45:00 AM 1.78 35.204 0.176 7.34 0.64 13.69
2/5/2021 9:00:00 AM 1.79 35.222 0.176 7.33 0.91 13.75
2/5/2021 9:15:00 AM 1.8 35.24 0.176 7.33 0.97 13.8
2/5/2021 9:30:00 AM 1.8 35.24 0.176 7.35 1.49 13.83
2/5/2021 9:45:00 AM 1.82 35.276 0.176 7.33 0.75 13.89
2/5/2021 10:00:00 AM 1.86 35.348 0.176 7.36 1.53 13.92
2/5/2021 10:15:00 AM 1.9 35.42 0.176 7.35 0.45 13.95
2/5/2021 10:30:00 AM 1.95 35.51 0.176 7.34 0.67 14
2/5/2021 10:45:00 AM 2.08 35.744 0.176 7.36 0.8 14.03